<?xml version="1.0" encoding="UTF-8" standalone="no" ?>
<gpx xmlns="http://www.topografix.com/GPX/1/1" xmlns:xsi="http://www.w3.org/2001/XMLSchema-instance" xsi:schemaLocation="http://www.topografix.com/GPX/1/1 http://www.topografix.com/GPX/1/1/gpx.xsd" version="1.1" creator="VisuGPX - https://www.visugpx.com">
  <metadata>
    <name>GTA-VTT - Jour 11</name>
    <desc><![CDATA[La 11ieme étape de la GTA (Grenoble-Nice) réalisée en 10j, juillet 2010]]></desc>
  </metadata>
  <trk>
    <name><![CDATA[GTA - VTT - Jour 11]]></name>
    <trkseg>
      <trkpt lat="43.84339" lon="6.9922">
        <ele>859</ele>
        <time>2010-07-23T06:08:03Z</time>
      </trkpt>
      <trkpt lat="43.84365" lon="6.99239">
        <ele>857</ele>
        <time>2010-07-23T06:08:17Z</time>
      </trkpt>
      <trkpt lat="43.84378" lon="6.99251">
        <ele>857</ele>
        <time>2010-07-23T06:08:24Z</time>
      </trkpt>
      <trkpt lat="43.84389" lon="6.99264">
        <ele>857</ele>
        <time>2010-07-23T06:08:31Z</time>
      </trkpt>
      <trkpt lat="43.8439" lon="6.99284">
        <ele>856</ele>
        <time>2010-07-23T06:08:38Z</time>
      </trkpt>
      <trkpt lat="43.8439" lon="6.99309">
        <ele>852</ele>
        <time>2010-07-23T06:08:45Z</time>
      </trkpt>
      <trkpt lat="43.84396" lon="6.99331">
        <ele>851</ele>
        <time>2010-07-23T06:08:52Z</time>
      </trkpt>
      <trkpt lat="43.84378" lon="6.99341">
        <ele>850</ele>
        <time>2010-07-23T06:08:59Z</time>
      </trkpt>
      <trkpt lat="43.84349" lon="6.99345">
        <ele>847</ele>
        <time>2010-07-23T06:09:06Z</time>
      </trkpt>
      <trkpt lat="43.84332" lon="6.99362">
        <ele>846</ele>
        <time>2010-07-23T06:09:13Z</time>
      </trkpt>
      <trkpt lat="43.84328" lon="6.99388">
        <ele>843</ele>
        <time>2010-07-23T06:09:30Z</time>
      </trkpt>
      <trkpt lat="43.84327" lon="6.99387">
        <ele>841</ele>
        <time>2010-07-23T06:09:45Z</time>
      </trkpt>
      <trkpt lat="43.84321" lon="6.99397">
        <ele>840</ele>
        <time>2010-07-23T06:09:52Z</time>
      </trkpt>
      <trkpt lat="43.84307" lon="6.99412">
        <ele>840</ele>
        <time>2010-07-23T06:09:59Z</time>
      </trkpt>
      <trkpt lat="43.8429" lon="6.99439">
        <ele>840</ele>
        <time>2010-07-23T06:10:06Z</time>
      </trkpt>
      <trkpt lat="43.84282" lon="6.99477">
        <ele>840</ele>
        <time>2010-07-23T06:10:13Z</time>
      </trkpt>
      <trkpt lat="43.84272" lon="6.99513">
        <ele>840</ele>
        <time>2010-07-23T06:10:20Z</time>
      </trkpt>
      <trkpt lat="43.84263" lon="6.9955">
        <ele>840</ele>
        <time>2010-07-23T06:10:27Z</time>
      </trkpt>
      <trkpt lat="43.8425" lon="6.99589">
        <ele>837</ele>
        <time>2010-07-23T06:10:34Z</time>
      </trkpt>
      <trkpt lat="43.84241" lon="6.99624">
        <ele>837</ele>
        <time>2010-07-23T06:10:41Z</time>
      </trkpt>
      <trkpt lat="43.84233" lon="6.99659">
        <ele>837</ele>
        <time>2010-07-23T06:10:48Z</time>
      </trkpt>
      <trkpt lat="43.84222" lon="6.99691">
        <ele>837</ele>
        <time>2010-07-23T06:10:55Z</time>
      </trkpt>
      <trkpt lat="43.84208" lon="6.99719">
        <ele>835</ele>
        <time>2010-07-23T06:11:02Z</time>
      </trkpt>
      <trkpt lat="43.84194" lon="6.99751">
        <ele>833</ele>
        <time>2010-07-23T06:11:09Z</time>
      </trkpt>
      <trkpt lat="43.8418" lon="6.99785">
        <ele>833</ele>
        <time>2010-07-23T06:11:16Z</time>
      </trkpt>
      <trkpt lat="43.84168" lon="6.99822">
        <ele>833</ele>
        <time>2010-07-23T06:11:23Z</time>
      </trkpt>
      <trkpt lat="43.84158" lon="6.99859">
        <ele>834</ele>
        <time>2010-07-23T06:11:30Z</time>
      </trkpt>
      <trkpt lat="43.84143" lon="6.99895">
        <ele>835</ele>
        <time>2010-07-23T06:11:37Z</time>
      </trkpt>
      <trkpt lat="43.84133" lon="6.9992">
        <ele>835</ele>
        <time>2010-07-23T06:11:48Z</time>
      </trkpt>
      <trkpt lat="43.84122" lon="6.99944">
        <ele>835</ele>
        <time>2010-07-23T06:11:55Z</time>
      </trkpt>
      <trkpt lat="43.84106" lon="6.99976">
        <ele>835</ele>
        <time>2010-07-23T06:12:02Z</time>
      </trkpt>
      <trkpt lat="43.84091" lon="7.00017">
        <ele>835</ele>
        <time>2010-07-23T06:12:10Z</time>
      </trkpt>
      <trkpt lat="43.84078" lon="7.00059">
        <ele>834</ele>
        <time>2010-07-23T06:12:17Z</time>
      </trkpt>
      <trkpt lat="43.84066" lon="7.00099">
        <ele>833</ele>
        <time>2010-07-23T06:12:24Z</time>
      </trkpt>
      <trkpt lat="43.84048" lon="7.00135">
        <ele>833</ele>
        <time>2010-07-23T06:12:31Z</time>
      </trkpt>
      <trkpt lat="43.84046" lon="7.00177">
        <ele>833</ele>
        <time>2010-07-23T06:12:38Z</time>
      </trkpt>
      <trkpt lat="43.8404" lon="7.00223">
        <ele>833</ele>
        <time>2010-07-23T06:12:45Z</time>
      </trkpt>
      <trkpt lat="43.84033" lon="7.00266">
        <ele>833</ele>
        <time>2010-07-23T06:12:52Z</time>
      </trkpt>
      <trkpt lat="43.84029" lon="7.00311">
        <ele>833</ele>
        <time>2010-07-23T06:12:59Z</time>
      </trkpt>
      <trkpt lat="43.84036" lon="7.00357">
        <ele>833</ele>
        <time>2010-07-23T06:13:06Z</time>
      </trkpt>
      <trkpt lat="43.84043" lon="7.004">
        <ele>833</ele>
        <time>2010-07-23T06:13:13Z</time>
      </trkpt>
      <trkpt lat="43.84039" lon="7.00446">
        <ele>833</ele>
        <time>2010-07-23T06:13:20Z</time>
      </trkpt>
      <trkpt lat="43.84028" lon="7.00489">
        <ele>832</ele>
        <time>2010-07-23T06:13:27Z</time>
      </trkpt>
      <trkpt lat="43.84016" lon="7.00531">
        <ele>832</ele>
        <time>2010-07-23T06:13:34Z</time>
      </trkpt>
      <trkpt lat="43.84004" lon="7.00572">
        <ele>832</ele>
        <time>2010-07-23T06:13:41Z</time>
      </trkpt>
      <trkpt lat="43.84016" lon="7.00617">
        <ele>832</ele>
        <time>2010-07-23T06:13:48Z</time>
      </trkpt>
      <trkpt lat="43.84024" lon="7.00663">
        <ele>832</ele>
        <time>2010-07-23T06:13:55Z</time>
      </trkpt>
      <trkpt lat="43.84029" lon="7.00719">
        <ele>832</ele>
        <time>2010-07-23T06:14:03Z</time>
      </trkpt>
      <trkpt lat="43.84031" lon="7.00767">
        <ele>832</ele>
        <time>2010-07-23T06:14:10Z</time>
      </trkpt>
      <trkpt lat="43.8403" lon="7.00815">
        <ele>832</ele>
        <time>2010-07-23T06:14:17Z</time>
      </trkpt>
      <trkpt lat="43.84028" lon="7.00862">
        <ele>832</ele>
        <time>2010-07-23T06:14:24Z</time>
      </trkpt>
      <trkpt lat="43.84031" lon="7.00911">
        <ele>832</ele>
        <time>2010-07-23T06:14:31Z</time>
      </trkpt>
      <trkpt lat="43.84035" lon="7.00962">
        <ele>834</ele>
        <time>2010-07-23T06:14:38Z</time>
      </trkpt>
      <trkpt lat="43.84033" lon="7.01014">
        <ele>835</ele>
        <time>2010-07-23T06:14:45Z</time>
      </trkpt>
      <trkpt lat="43.84038" lon="7.01063">
        <ele>835</ele>
        <time>2010-07-23T06:14:52Z</time>
      </trkpt>
      <trkpt lat="43.84038" lon="7.01115">
        <ele>835</ele>
        <time>2010-07-23T06:14:59Z</time>
      </trkpt>
      <trkpt lat="43.84039" lon="7.01164">
        <ele>835</ele>
        <time>2010-07-23T06:15:06Z</time>
      </trkpt>
      <trkpt lat="43.84037" lon="7.01211">
        <ele>835</ele>
        <time>2010-07-23T06:15:13Z</time>
      </trkpt>
      <trkpt lat="43.8403" lon="7.01258">
        <ele>835</ele>
        <time>2010-07-23T06:15:20Z</time>
      </trkpt>
      <trkpt lat="43.84027" lon="7.01302">
        <ele>835</ele>
        <time>2010-07-23T06:15:27Z</time>
      </trkpt>
      <trkpt lat="43.84019" lon="7.01348">
        <ele>834</ele>
        <time>2010-07-23T06:15:34Z</time>
      </trkpt>
      <trkpt lat="43.84011" lon="7.01396">
        <ele>833</ele>
        <time>2010-07-23T06:15:41Z</time>
      </trkpt>
      <trkpt lat="43.84006" lon="7.01443">
        <ele>833</ele>
        <time>2010-07-23T06:15:48Z</time>
      </trkpt>
      <trkpt lat="43.84" lon="7.01489">
        <ele>833</ele>
        <time>2010-07-23T06:15:55Z</time>
      </trkpt>
      <trkpt lat="43.83987" lon="7.01533">
        <ele>833</ele>
        <time>2010-07-23T06:16:02Z</time>
      </trkpt>
      <trkpt lat="43.83973" lon="7.01576">
        <ele>833</ele>
        <time>2010-07-23T06:16:09Z</time>
      </trkpt>
      <trkpt lat="43.83962" lon="7.01622">
        <ele>833</ele>
        <time>2010-07-23T06:16:16Z</time>
      </trkpt>
      <trkpt lat="43.83952" lon="7.01669">
        <ele>833</ele>
        <time>2010-07-23T06:16:23Z</time>
      </trkpt>
      <trkpt lat="43.83944" lon="7.01717">
        <ele>833</ele>
        <time>2010-07-23T06:16:30Z</time>
      </trkpt>
      <trkpt lat="43.83949" lon="7.01762">
        <ele>833</ele>
        <time>2010-07-23T06:16:37Z</time>
      </trkpt>
      <trkpt lat="43.83945" lon="7.01808">
        <ele>833</ele>
        <time>2010-07-23T06:16:44Z</time>
      </trkpt>
      <trkpt lat="43.83938" lon="7.01853">
        <ele>833</ele>
        <time>2010-07-23T06:16:51Z</time>
      </trkpt>
      <trkpt lat="43.83929" lon="7.01894">
        <ele>833</ele>
        <time>2010-07-23T06:16:58Z</time>
      </trkpt>
      <trkpt lat="43.83914" lon="7.01935">
        <ele>833</ele>
        <time>2010-07-23T06:17:05Z</time>
      </trkpt>
      <trkpt lat="43.83901" lon="7.01976">
        <ele>833</ele>
        <time>2010-07-23T06:17:12Z</time>
      </trkpt>
      <trkpt lat="43.839" lon="7.02022">
        <ele>833</ele>
        <time>2010-07-23T06:17:19Z</time>
      </trkpt>
      <trkpt lat="43.83905" lon="7.02069">
        <ele>833</ele>
        <time>2010-07-23T06:17:26Z</time>
      </trkpt>
      <trkpt lat="43.83897" lon="7.02113">
        <ele>833</ele>
        <time>2010-07-23T06:17:33Z</time>
      </trkpt>
      <trkpt lat="43.83882" lon="7.02151">
        <ele>833</ele>
        <time>2010-07-23T06:17:40Z</time>
      </trkpt>
      <trkpt lat="43.83874" lon="7.02191">
        <ele>833</ele>
        <time>2010-07-23T06:17:47Z</time>
      </trkpt>
      <trkpt lat="43.8387" lon="7.02231">
        <ele>833</ele>
        <time>2010-07-23T06:17:54Z</time>
      </trkpt>
      <trkpt lat="43.83868" lon="7.02272">
        <ele>833</ele>
        <time>2010-07-23T06:18:01Z</time>
      </trkpt>
      <trkpt lat="43.83863" lon="7.0231">
        <ele>833</ele>
        <time>2010-07-23T06:18:08Z</time>
      </trkpt>
      <trkpt lat="43.83848" lon="7.02348">
        <ele>832</ele>
        <time>2010-07-23T06:18:15Z</time>
      </trkpt>
      <trkpt lat="43.83844" lon="7.02388">
        <ele>832</ele>
        <time>2010-07-23T06:18:22Z</time>
      </trkpt>
      <trkpt lat="43.83841" lon="7.0243">
        <ele>832</ele>
        <time>2010-07-23T06:18:29Z</time>
      </trkpt>
      <trkpt lat="43.83845" lon="7.0246">
        <ele>835</ele>
        <time>2010-07-23T06:18:39Z</time>
      </trkpt>
      <trkpt lat="43.83861" lon="7.02512">
        <ele>836</ele>
        <time>2010-07-23T06:18:46Z</time>
      </trkpt>
      <trkpt lat="43.83851" lon="7.02553">
        <ele>836</ele>
        <time>2010-07-23T06:18:53Z</time>
      </trkpt>
      <trkpt lat="43.83842" lon="7.02594">
        <ele>836</ele>
        <time>2010-07-23T06:19:00Z</time>
      </trkpt>
      <trkpt lat="43.83822" lon="7.02618">
        <ele>835</ele>
        <time>2010-07-23T06:19:07Z</time>
      </trkpt>
      <trkpt lat="43.83797" lon="7.02648">
        <ele>835</ele>
        <time>2010-07-23T06:19:14Z</time>
      </trkpt>
      <trkpt lat="43.83777" lon="7.02681">
        <ele>835</ele>
        <time>2010-07-23T06:19:21Z</time>
      </trkpt>
      <trkpt lat="43.83761" lon="7.02717">
        <ele>835</ele>
        <time>2010-07-23T06:19:28Z</time>
      </trkpt>
      <trkpt lat="43.83751" lon="7.02754">
        <ele>835</ele>
        <time>2010-07-23T06:19:35Z</time>
      </trkpt>
      <trkpt lat="43.83752" lon="7.02799">
        <ele>834</ele>
        <time>2010-07-23T06:19:42Z</time>
      </trkpt>
      <trkpt lat="43.83775" lon="7.02828">
        <ele>833</ele>
        <time>2010-07-23T06:19:49Z</time>
      </trkpt>
      <trkpt lat="43.83779" lon="7.02872">
        <ele>831</ele>
        <time>2010-07-23T06:19:56Z</time>
      </trkpt>
      <trkpt lat="43.83778" lon="7.0291">
        <ele>831</ele>
        <time>2010-07-23T06:20:03Z</time>
      </trkpt>
      <trkpt lat="43.83763" lon="7.02946">
        <ele>831</ele>
        <time>2010-07-23T06:20:10Z</time>
      </trkpt>
      <trkpt lat="43.83745" lon="7.02977">
        <ele>831</ele>
        <time>2010-07-23T06:20:17Z</time>
      </trkpt>
      <trkpt lat="43.83749" lon="7.03017">
        <ele>831</ele>
        <time>2010-07-23T06:20:24Z</time>
      </trkpt>
      <trkpt lat="43.83749" lon="7.0306">
        <ele>831</ele>
        <time>2010-07-23T06:20:31Z</time>
      </trkpt>
      <trkpt lat="43.83753" lon="7.03103">
        <ele>831</ele>
        <time>2010-07-23T06:20:38Z</time>
      </trkpt>
      <trkpt lat="43.83748" lon="7.03146">
        <ele>831</ele>
        <time>2010-07-23T06:20:45Z</time>
      </trkpt>
      <trkpt lat="43.83723" lon="7.03173">
        <ele>831</ele>
        <time>2010-07-23T06:20:52Z</time>
      </trkpt>
      <trkpt lat="43.83704" lon="7.03203">
        <ele>829</ele>
        <time>2010-07-23T06:20:59Z</time>
      </trkpt>
      <trkpt lat="43.83693" lon="7.03242">
        <ele>828</ele>
        <time>2010-07-23T06:21:06Z</time>
      </trkpt>
      <trkpt lat="43.83702" lon="7.03285">
        <ele>828</ele>
        <time>2010-07-23T06:21:13Z</time>
      </trkpt>
      <trkpt lat="43.83716" lon="7.03327">
        <ele>828</ele>
        <time>2010-07-23T06:21:20Z</time>
      </trkpt>
      <trkpt lat="43.83721" lon="7.03363">
        <ele>829</ele>
        <time>2010-07-23T06:21:27Z</time>
      </trkpt>
      <trkpt lat="43.83731" lon="7.03406">
        <ele>830</ele>
        <time>2010-07-23T06:21:34Z</time>
      </trkpt>
      <trkpt lat="43.83729" lon="7.03447">
        <ele>832</ele>
        <time>2010-07-23T06:21:41Z</time>
      </trkpt>
      <trkpt lat="43.83729" lon="7.03495">
        <ele>833</ele>
        <time>2010-07-23T06:21:48Z</time>
      </trkpt>
      <trkpt lat="43.83725" lon="7.03538">
        <ele>833</ele>
        <time>2010-07-23T06:21:55Z</time>
      </trkpt>
      <trkpt lat="43.8371" lon="7.03576">
        <ele>833</ele>
        <time>2010-07-23T06:22:02Z</time>
      </trkpt>
      <trkpt lat="43.8372" lon="7.03621">
        <ele>833</ele>
        <time>2010-07-23T06:22:09Z</time>
      </trkpt>
      <trkpt lat="43.83728" lon="7.03666">
        <ele>833</ele>
        <time>2010-07-23T06:22:16Z</time>
      </trkpt>
      <trkpt lat="43.83733" lon="7.03712">
        <ele>832</ele>
        <time>2010-07-23T06:22:23Z</time>
      </trkpt>
      <trkpt lat="43.83731" lon="7.03755">
        <ele>832</ele>
        <time>2010-07-23T06:22:30Z</time>
      </trkpt>
      <trkpt lat="43.83728" lon="7.038">
        <ele>832</ele>
        <time>2010-07-23T06:22:37Z</time>
      </trkpt>
      <trkpt lat="43.8372" lon="7.03845">
        <ele>832</ele>
        <time>2010-07-23T06:22:44Z</time>
      </trkpt>
      <trkpt lat="43.83715" lon="7.03891">
        <ele>832</ele>
        <time>2010-07-23T06:22:51Z</time>
      </trkpt>
      <trkpt lat="43.83712" lon="7.03935">
        <ele>831</ele>
        <time>2010-07-23T06:22:58Z</time>
      </trkpt>
      <trkpt lat="43.83713" lon="7.0398">
        <ele>829</ele>
        <time>2010-07-23T06:23:05Z</time>
      </trkpt>
      <trkpt lat="43.8371" lon="7.04026">
        <ele>828</ele>
        <time>2010-07-23T06:23:12Z</time>
      </trkpt>
      <trkpt lat="43.83711" lon="7.0407">
        <ele>828</ele>
        <time>2010-07-23T06:23:19Z</time>
      </trkpt>
      <trkpt lat="43.83708" lon="7.04112">
        <ele>828</ele>
        <time>2010-07-23T06:23:26Z</time>
      </trkpt>
      <trkpt lat="43.83701" lon="7.04157">
        <ele>828</ele>
        <time>2010-07-23T06:23:33Z</time>
      </trkpt>
      <trkpt lat="43.83696" lon="7.04203">
        <ele>828</ele>
        <time>2010-07-23T06:23:40Z</time>
      </trkpt>
      <trkpt lat="43.83695" lon="7.04249">
        <ele>828</ele>
        <time>2010-07-23T06:23:47Z</time>
      </trkpt>
      <trkpt lat="43.83687" lon="7.04289">
        <ele>827</ele>
        <time>2010-07-23T06:23:54Z</time>
      </trkpt>
      <trkpt lat="43.83682" lon="7.04334">
        <ele>827</ele>
        <time>2010-07-23T06:24:01Z</time>
      </trkpt>
      <trkpt lat="43.83682" lon="7.04381">
        <ele>827</ele>
        <time>2010-07-23T06:24:08Z</time>
      </trkpt>
      <trkpt lat="43.83684" lon="7.04429">
        <ele>827</ele>
        <time>2010-07-23T06:24:15Z</time>
      </trkpt>
      <trkpt lat="43.83683" lon="7.04478">
        <ele>826</ele>
        <time>2010-07-23T06:24:22Z</time>
      </trkpt>
      <trkpt lat="43.83685" lon="7.04526">
        <ele>826</ele>
        <time>2010-07-23T06:24:29Z</time>
      </trkpt>
      <trkpt lat="43.8368" lon="7.04575">
        <ele>826</ele>
        <time>2010-07-23T06:24:36Z</time>
      </trkpt>
      <trkpt lat="43.83671" lon="7.04621">
        <ele>826</ele>
        <time>2010-07-23T06:24:43Z</time>
      </trkpt>
      <trkpt lat="43.83657" lon="7.04663">
        <ele>826</ele>
        <time>2010-07-23T06:24:50Z</time>
      </trkpt>
      <trkpt lat="43.83652" lon="7.04709">
        <ele>826</ele>
        <time>2010-07-23T06:24:57Z</time>
      </trkpt>
      <trkpt lat="43.83665" lon="7.04748">
        <ele>826</ele>
        <time>2010-07-23T06:25:04Z</time>
      </trkpt>
      <trkpt lat="43.83659" lon="7.04791">
        <ele>826</ele>
        <time>2010-07-23T06:25:11Z</time>
      </trkpt>
      <trkpt lat="43.83647" lon="7.04836">
        <ele>826</ele>
        <time>2010-07-23T06:25:18Z</time>
      </trkpt>
      <trkpt lat="43.83633" lon="7.04877">
        <ele>826</ele>
        <time>2010-07-23T06:25:25Z</time>
      </trkpt>
      <trkpt lat="43.83628" lon="7.04922">
        <ele>825</ele>
        <time>2010-07-23T06:25:32Z</time>
      </trkpt>
      <trkpt lat="43.83623" lon="7.04966">
        <ele>825</ele>
        <time>2010-07-23T06:25:39Z</time>
      </trkpt>
      <trkpt lat="43.83617" lon="7.05014">
        <ele>825</ele>
        <time>2010-07-23T06:25:46Z</time>
      </trkpt>
      <trkpt lat="43.83612" lon="7.05063">
        <ele>825</ele>
        <time>2010-07-23T06:25:53Z</time>
      </trkpt>
      <trkpt lat="43.8361" lon="7.05112">
        <ele>825</ele>
        <time>2010-07-23T06:26:00Z</time>
      </trkpt>
      <trkpt lat="43.83606" lon="7.05159">
        <ele>825</ele>
        <time>2010-07-23T06:26:07Z</time>
      </trkpt>
      <trkpt lat="43.836" lon="7.05207">
        <ele>830</ele>
        <time>2010-07-23T06:26:14Z</time>
      </trkpt>
      <trkpt lat="43.83598" lon="7.05258">
        <ele>830</ele>
        <time>2010-07-23T06:26:21Z</time>
      </trkpt>
      <trkpt lat="43.83592" lon="7.05305">
        <ele>830</ele>
        <time>2010-07-23T06:26:28Z</time>
      </trkpt>
      <trkpt lat="43.83594" lon="7.05354">
        <ele>830</ele>
        <time>2010-07-23T06:26:35Z</time>
      </trkpt>
      <trkpt lat="43.83595" lon="7.05404">
        <ele>830</ele>
        <time>2010-07-23T06:26:42Z</time>
      </trkpt>
      <trkpt lat="43.83592" lon="7.05454">
        <ele>830</ele>
        <time>2010-07-23T06:26:49Z</time>
      </trkpt>
      <trkpt lat="43.83588" lon="7.05499">
        <ele>830</ele>
        <time>2010-07-23T06:26:56Z</time>
      </trkpt>
      <trkpt lat="43.83583" lon="7.05548">
        <ele>830</ele>
        <time>2010-07-23T06:27:03Z</time>
      </trkpt>
      <trkpt lat="43.83583" lon="7.05596">
        <ele>830</ele>
        <time>2010-07-23T06:27:10Z</time>
      </trkpt>
      <trkpt lat="43.83578" lon="7.05651">
        <ele>829</ele>
        <time>2010-07-23T06:27:18Z</time>
      </trkpt>
      <trkpt lat="43.83575" lon="7.05698">
        <ele>828</ele>
        <time>2010-07-23T06:27:25Z</time>
      </trkpt>
      <trkpt lat="43.83574" lon="7.05746">
        <ele>828</ele>
        <time>2010-07-23T06:27:32Z</time>
      </trkpt>
      <trkpt lat="43.83575" lon="7.05794">
        <ele>828</ele>
        <time>2010-07-23T06:27:39Z</time>
      </trkpt>
      <trkpt lat="43.83577" lon="7.05844">
        <ele>828</ele>
        <time>2010-07-23T06:27:46Z</time>
      </trkpt>
      <trkpt lat="43.83583" lon="7.059">
        <ele>828</ele>
        <time>2010-07-23T06:27:54Z</time>
      </trkpt>
      <trkpt lat="43.83595" lon="7.05947">
        <ele>828</ele>
        <time>2010-07-23T06:28:01Z</time>
      </trkpt>
      <trkpt lat="43.83598" lon="7.05995">
        <ele>828</ele>
        <time>2010-07-23T06:28:08Z</time>
      </trkpt>
      <trkpt lat="43.836" lon="7.06046">
        <ele>828</ele>
        <time>2010-07-23T06:28:15Z</time>
      </trkpt>
      <trkpt lat="43.83586" lon="7.06092">
        <ele>828</ele>
        <time>2010-07-23T06:28:22Z</time>
      </trkpt>
      <trkpt lat="43.83579" lon="7.0614">
        <ele>826</ele>
        <time>2010-07-23T06:28:29Z</time>
      </trkpt>
      <trkpt lat="43.83583" lon="7.06197">
        <ele>825</ele>
        <time>2010-07-23T06:28:36Z</time>
      </trkpt>
      <trkpt lat="43.83585" lon="7.06246">
        <ele>825</ele>
        <time>2010-07-23T06:28:44Z</time>
      </trkpt>
      <trkpt lat="43.8358" lon="7.06297">
        <ele>825</ele>
        <time>2010-07-23T06:28:51Z</time>
      </trkpt>
      <trkpt lat="43.83582" lon="7.06345">
        <ele>825</ele>
        <time>2010-07-23T06:28:59Z</time>
      </trkpt>
      <trkpt lat="43.83587" lon="7.06399">
        <ele>825</ele>
        <time>2010-07-23T06:29:06Z</time>
      </trkpt>
      <trkpt lat="43.83594" lon="7.06447">
        <ele>825</ele>
        <time>2010-07-23T06:29:13Z</time>
      </trkpt>
      <trkpt lat="43.83605" lon="7.06498">
        <ele>825</ele>
        <time>2010-07-23T06:29:20Z</time>
      </trkpt>
      <trkpt lat="43.83614" lon="7.06546">
        <ele>826</ele>
        <time>2010-07-23T06:29:27Z</time>
      </trkpt>
      <trkpt lat="43.83625" lon="7.06591">
        <ele>826</ele>
        <time>2010-07-23T06:29:35Z</time>
      </trkpt>
      <trkpt lat="43.83625" lon="7.06647">
        <ele>826</ele>
        <time>2010-07-23T06:29:42Z</time>
      </trkpt>
      <trkpt lat="43.83627" lon="7.06693">
        <ele>826</ele>
        <time>2010-07-23T06:29:49Z</time>
      </trkpt>
      <trkpt lat="43.83613" lon="7.06736">
        <ele>826</ele>
        <time>2010-07-23T06:29:56Z</time>
      </trkpt>
      <trkpt lat="43.83598" lon="7.06778">
        <ele>826</ele>
        <time>2010-07-23T06:30:04Z</time>
      </trkpt>
      <trkpt lat="43.83582" lon="7.06827">
        <ele>825</ele>
        <time>2010-07-23T06:30:11Z</time>
      </trkpt>
      <trkpt lat="43.83571" lon="7.06871">
        <ele>825</ele>
        <time>2010-07-23T06:30:19Z</time>
      </trkpt>
      <trkpt lat="43.83564" lon="7.06923">
        <ele>825</ele>
        <time>2010-07-23T06:30:26Z</time>
      </trkpt>
      <trkpt lat="43.83554" lon="7.06966">
        <ele>825</ele>
        <time>2010-07-23T06:30:34Z</time>
      </trkpt>
      <trkpt lat="43.83549" lon="7.07005">
        <ele>825</ele>
        <time>2010-07-23T06:30:41Z</time>
      </trkpt>
      <trkpt lat="43.83546" lon="7.07034">
        <ele>825</ele>
        <time>2010-07-23T06:30:49Z</time>
      </trkpt>
      <trkpt lat="43.83543" lon="7.07075">
        <ele>825</ele>
        <time>2010-07-23T06:30:56Z</time>
      </trkpt>
      <trkpt lat="43.8354" lon="7.07114">
        <ele>825</ele>
        <time>2010-07-23T06:31:04Z</time>
      </trkpt>
      <trkpt lat="43.83539" lon="7.07163">
        <ele>825</ele>
        <time>2010-07-23T06:31:11Z</time>
      </trkpt>
      <trkpt lat="43.83543" lon="7.07206">
        <ele>825</ele>
        <time>2010-07-23T06:31:18Z</time>
      </trkpt>
      <trkpt lat="43.83548" lon="7.0725">
        <ele>825</ele>
        <time>2010-07-23T06:31:25Z</time>
      </trkpt>
      <trkpt lat="43.83554" lon="7.07296">
        <ele>825</ele>
        <time>2010-07-23T06:31:32Z</time>
      </trkpt>
      <trkpt lat="43.8356" lon="7.07342">
        <ele>825</ele>
        <time>2010-07-23T06:31:40Z</time>
      </trkpt>
      <trkpt lat="43.83572" lon="7.07389">
        <ele>825</ele>
        <time>2010-07-23T06:31:47Z</time>
      </trkpt>
      <trkpt lat="43.83585" lon="7.07429">
        <ele>825</ele>
        <time>2010-07-23T06:31:54Z</time>
      </trkpt>
      <trkpt lat="43.83598" lon="7.0747">
        <ele>825</ele>
        <time>2010-07-23T06:32:01Z</time>
      </trkpt>
      <trkpt lat="43.83606" lon="7.07514">
        <ele>825</ele>
        <time>2010-07-23T06:32:08Z</time>
      </trkpt>
      <trkpt lat="43.8361" lon="7.07559">
        <ele>826</ele>
        <time>2010-07-23T06:32:16Z</time>
      </trkpt>
      <trkpt lat="43.83612" lon="7.07614">
        <ele>826</ele>
        <time>2010-07-23T06:32:23Z</time>
      </trkpt>
      <trkpt lat="43.83613" lon="7.07657">
        <ele>826</ele>
        <time>2010-07-23T06:32:30Z</time>
      </trkpt>
      <trkpt lat="43.83608" lon="7.07697">
        <ele>826</ele>
        <time>2010-07-23T06:32:37Z</time>
      </trkpt>
      <trkpt lat="43.836" lon="7.07741">
        <ele>826</ele>
        <time>2010-07-23T06:32:44Z</time>
      </trkpt>
      <trkpt lat="43.83594" lon="7.07785">
        <ele>826</ele>
        <time>2010-07-23T06:32:52Z</time>
      </trkpt>
      <trkpt lat="43.83587" lon="7.07837">
        <ele>827</ele>
        <time>2010-07-23T06:32:59Z</time>
      </trkpt>
      <trkpt lat="43.83581" lon="7.07883">
        <ele>827</ele>
        <time>2010-07-23T06:33:07Z</time>
      </trkpt>
      <trkpt lat="43.83571" lon="7.07933">
        <ele>827</ele>
        <time>2010-07-23T06:33:14Z</time>
      </trkpt>
      <trkpt lat="43.83565" lon="7.07977">
        <ele>827</ele>
        <time>2010-07-23T06:33:21Z</time>
      </trkpt>
      <trkpt lat="43.83561" lon="7.0802">
        <ele>827</ele>
        <time>2010-07-23T06:33:28Z</time>
      </trkpt>
      <trkpt lat="43.83557" lon="7.08068">
        <ele>827</ele>
        <time>2010-07-23T06:33:35Z</time>
      </trkpt>
      <trkpt lat="43.83558" lon="7.08117">
        <ele>827</ele>
        <time>2010-07-23T06:33:42Z</time>
      </trkpt>
      <trkpt lat="43.8356" lon="7.08166">
        <ele>826</ele>
        <time>2010-07-23T06:33:49Z</time>
      </trkpt>
      <trkpt lat="43.83565" lon="7.08216">
        <ele>826</ele>
        <time>2010-07-23T06:33:57Z</time>
      </trkpt>
      <trkpt lat="43.8357" lon="7.08266">
        <ele>825</ele>
        <time>2010-07-23T06:34:04Z</time>
      </trkpt>
      <trkpt lat="43.83578" lon="7.0832">
        <ele>825</ele>
        <time>2010-07-23T06:34:12Z</time>
      </trkpt>
      <trkpt lat="43.8359" lon="7.08372">
        <ele>825</ele>
        <time>2010-07-23T06:34:19Z</time>
      </trkpt>
      <trkpt lat="43.836" lon="7.08419">
        <ele>825</ele>
        <time>2010-07-23T06:34:27Z</time>
      </trkpt>
      <trkpt lat="43.83605" lon="7.08473">
        <ele>825</ele>
        <time>2010-07-23T06:34:34Z</time>
      </trkpt>
      <trkpt lat="43.83607" lon="7.08523">
        <ele>825</ele>
        <time>2010-07-23T06:34:41Z</time>
      </trkpt>
      <trkpt lat="43.83615" lon="7.08572">
        <ele>825</ele>
        <time>2010-07-23T06:34:48Z</time>
      </trkpt>
      <trkpt lat="43.83625" lon="7.08621">
        <ele>825</ele>
        <time>2010-07-23T06:34:55Z</time>
      </trkpt>
      <trkpt lat="43.83632" lon="7.08669">
        <ele>825</ele>
        <time>2010-07-23T06:35:02Z</time>
      </trkpt>
      <trkpt lat="43.83633" lon="7.08714">
        <ele>825</ele>
        <time>2010-07-23T06:35:09Z</time>
      </trkpt>
      <trkpt lat="43.83626" lon="7.08762">
        <ele>825</ele>
        <time>2010-07-23T06:35:16Z</time>
      </trkpt>
      <trkpt lat="43.83614" lon="7.08808">
        <ele>825</ele>
        <time>2010-07-23T06:35:23Z</time>
      </trkpt>
      <trkpt lat="43.83596" lon="7.08847">
        <ele>825</ele>
        <time>2010-07-23T06:35:30Z</time>
      </trkpt>
      <trkpt lat="43.83599" lon="7.08883">
        <ele>826</ele>
        <time>2010-07-23T06:35:37Z</time>
      </trkpt>
      <trkpt lat="43.83623" lon="7.08919">
        <ele>826</ele>
        <time>2010-07-23T06:35:44Z</time>
      </trkpt>
      <trkpt lat="43.83641" lon="7.0896">
        <ele>826</ele>
        <time>2010-07-23T06:35:52Z</time>
      </trkpt>
      <trkpt lat="43.83662" lon="7.0901">
        <ele>826</ele>
        <time>2010-07-23T06:35:59Z</time>
      </trkpt>
      <trkpt lat="43.83665" lon="7.09063">
        <ele>826</ele>
        <time>2010-07-23T06:36:06Z</time>
      </trkpt>
      <trkpt lat="43.83651" lon="7.0911">
        <ele>826</ele>
        <time>2010-07-23T06:36:13Z</time>
      </trkpt>
      <trkpt lat="43.83654" lon="7.09159">
        <ele>826</ele>
        <time>2010-07-23T06:36:20Z</time>
      </trkpt>
      <trkpt lat="43.83663" lon="7.09209">
        <ele>826</ele>
        <time>2010-07-23T06:36:27Z</time>
      </trkpt>
      <trkpt lat="43.83664" lon="7.09249">
        <ele>825</ele>
        <time>2010-07-23T06:36:34Z</time>
      </trkpt>
      <trkpt lat="43.83662" lon="7.0927">
        <ele>825</ele>
        <time>2010-07-23T06:36:41Z</time>
      </trkpt>
      <trkpt lat="43.83661" lon="7.09308">
        <ele>825</ele>
        <time>2010-07-23T06:36:48Z</time>
      </trkpt>
      <trkpt lat="43.83671" lon="7.09336">
        <ele>824</ele>
        <time>2010-07-23T06:36:55Z</time>
      </trkpt>
      <trkpt lat="43.83703" lon="7.0933">
        <ele>824</ele>
        <time>2010-07-23T06:37:02Z</time>
      </trkpt>
      <trkpt lat="43.83723" lon="7.09335">
        <ele>822</ele>
        <time>2010-07-23T06:37:16Z</time>
      </trkpt>
      <trkpt lat="43.83724" lon="7.09336">
        <ele>822</ele>
        <time>2010-07-23T06:37:24Z</time>
      </trkpt>
      <trkpt lat="43.83725" lon="7.09336">
        <ele>822</ele>
        <time>2010-07-23T06:37:38Z</time>
      </trkpt>
      <trkpt lat="43.83728" lon="7.09334">
        <ele>822</ele>
        <time>2010-07-23T06:37:45Z</time>
      </trkpt>
      <trkpt lat="43.83727" lon="7.09334">
        <ele>824</ele>
        <time>2010-07-23T06:37:56Z</time>
      </trkpt>
      <trkpt lat="43.83723" lon="7.09336">
        <ele>824</ele>
        <time>2010-07-23T06:38:03Z</time>
      </trkpt>
      <trkpt lat="43.8372" lon="7.0934">
        <ele>827</ele>
        <time>2010-07-23T06:38:11Z</time>
      </trkpt>
      <trkpt lat="43.83724" lon="7.09336">
        <ele>827</ele>
        <time>2010-07-23T06:38:19Z</time>
      </trkpt>
      <trkpt lat="43.83738" lon="7.09331">
        <ele>825</ele>
        <time>2010-07-23T06:38:26Z</time>
      </trkpt>
      <trkpt lat="43.83756" lon="7.09328">
        <ele>822</ele>
        <time>2010-07-23T06:38:33Z</time>
      </trkpt>
      <trkpt lat="43.83772" lon="7.09327">
        <ele>817</ele>
        <time>2010-07-23T06:38:40Z</time>
      </trkpt>
      <trkpt lat="43.83786" lon="7.09326">
        <ele>813</ele>
        <time>2010-07-23T06:38:47Z</time>
      </trkpt>
      <trkpt lat="43.83781" lon="7.09311">
        <ele>810</ele>
        <time>2010-07-23T06:38:54Z</time>
      </trkpt>
      <trkpt lat="43.83772" lon="7.09296">
        <ele>808</ele>
        <time>2010-07-23T06:39:01Z</time>
      </trkpt>
      <trkpt lat="43.83761" lon="7.09283">
        <ele>806</ele>
        <time>2010-07-23T06:39:08Z</time>
      </trkpt>
      <trkpt lat="43.83766" lon="7.09275">
        <ele>804</ele>
        <time>2010-07-23T06:39:15Z</time>
      </trkpt>
      <trkpt lat="43.83784" lon="7.09267">
        <ele>802</ele>
        <time>2010-07-23T06:39:22Z</time>
      </trkpt>
      <trkpt lat="43.83802" lon="7.0926">
        <ele>800</ele>
        <time>2010-07-23T06:39:29Z</time>
      </trkpt>
      <trkpt lat="43.83824" lon="7.0926">
        <ele>795</ele>
        <time>2010-07-23T06:39:36Z</time>
      </trkpt>
      <trkpt lat="43.83842" lon="7.09271">
        <ele>792</ele>
        <time>2010-07-23T06:39:43Z</time>
      </trkpt>
      <trkpt lat="43.83856" lon="7.09283">
        <ele>790</ele>
        <time>2010-07-23T06:39:50Z</time>
      </trkpt>
      <trkpt lat="43.8387" lon="7.09296">
        <ele>787</ele>
        <time>2010-07-23T06:39:57Z</time>
      </trkpt>
      <trkpt lat="43.83879" lon="7.09305">
        <ele>783</ele>
        <time>2010-07-23T06:40:04Z</time>
      </trkpt>
      <trkpt lat="43.83879" lon="7.0929">
        <ele>780</ele>
        <time>2010-07-23T06:40:13Z</time>
      </trkpt>
      <trkpt lat="43.83875" lon="7.09275">
        <ele>778</ele>
        <time>2010-07-23T06:40:20Z</time>
      </trkpt>
      <trkpt lat="43.8387" lon="7.09255">
        <ele>778</ele>
        <time>2010-07-23T06:40:27Z</time>
      </trkpt>
      <trkpt lat="43.83866" lon="7.09243">
        <ele>778</ele>
        <time>2010-07-23T06:40:34Z</time>
      </trkpt>
      <trkpt lat="43.83863" lon="7.0923">
        <ele>778</ele>
        <time>2010-07-23T06:40:41Z</time>
      </trkpt>
      <trkpt lat="43.83853" lon="7.09217">
        <ele>778</ele>
        <time>2010-07-23T06:40:48Z</time>
      </trkpt>
      <trkpt lat="43.83846" lon="7.09201">
        <ele>777</ele>
        <time>2010-07-23T06:40:55Z</time>
      </trkpt>
      <trkpt lat="43.83834" lon="7.09185">
        <ele>775</ele>
        <time>2010-07-23T06:41:02Z</time>
      </trkpt>
      <trkpt lat="43.8382" lon="7.09173">
        <ele>773</ele>
        <time>2010-07-23T06:41:09Z</time>
      </trkpt>
      <trkpt lat="43.83815" lon="7.09167">
        <ele>771</ele>
        <time>2010-07-23T06:41:16Z</time>
      </trkpt>
      <trkpt lat="43.83821" lon="7.09164">
        <ele>770</ele>
        <time>2010-07-23T06:41:23Z</time>
      </trkpt>
      <trkpt lat="43.83836" lon="7.09162">
        <ele>769</ele>
        <time>2010-07-23T06:41:30Z</time>
      </trkpt>
      <trkpt lat="43.83848" lon="7.09153">
        <ele>767</ele>
        <time>2010-07-23T06:41:37Z</time>
      </trkpt>
      <trkpt lat="43.83868" lon="7.09143">
        <ele>765</ele>
        <time>2010-07-23T06:41:44Z</time>
      </trkpt>
      <trkpt lat="43.8388" lon="7.09138">
        <ele>765</ele>
        <time>2010-07-23T06:41:51Z</time>
      </trkpt>
      <trkpt lat="43.83892" lon="7.09137">
        <ele>762</ele>
        <time>2010-07-23T06:41:58Z</time>
      </trkpt>
      <trkpt lat="43.83899" lon="7.09139">
        <ele>759</ele>
        <time>2010-07-23T06:42:05Z</time>
      </trkpt>
      <trkpt lat="43.83907" lon="7.09145">
        <ele>756</ele>
        <time>2010-07-23T06:42:13Z</time>
      </trkpt>
      <trkpt lat="43.83915" lon="7.09151">
        <ele>752</ele>
        <time>2010-07-23T06:42:21Z</time>
      </trkpt>
      <trkpt lat="43.83922" lon="7.09159">
        <ele>750</ele>
        <time>2010-07-23T06:42:29Z</time>
      </trkpt>
      <trkpt lat="43.83929" lon="7.0917">
        <ele>750</ele>
        <time>2010-07-23T06:42:37Z</time>
      </trkpt>
      <trkpt lat="43.83934" lon="7.09182">
        <ele>749</ele>
        <time>2010-07-23T06:42:44Z</time>
      </trkpt>
      <trkpt lat="43.83939" lon="7.09193">
        <ele>749</ele>
        <time>2010-07-23T06:42:51Z</time>
      </trkpt>
      <trkpt lat="43.83945" lon="7.09204">
        <ele>748</ele>
        <time>2010-07-23T06:42:59Z</time>
      </trkpt>
      <trkpt lat="43.83949" lon="7.0921">
        <ele>745</ele>
        <time>2010-07-23T06:43:14Z</time>
      </trkpt>
      <trkpt lat="43.83954" lon="7.09219">
        <ele>744</ele>
        <time>2010-07-23T06:43:21Z</time>
      </trkpt>
      <trkpt lat="43.8396" lon="7.09231">
        <ele>743</ele>
        <time>2010-07-23T06:43:29Z</time>
      </trkpt>
      <trkpt lat="43.83967" lon="7.09242">
        <ele>741</ele>
        <time>2010-07-23T06:43:37Z</time>
      </trkpt>
      <trkpt lat="43.83973" lon="7.09254">
        <ele>739</ele>
        <time>2010-07-23T06:43:45Z</time>
      </trkpt>
      <trkpt lat="43.8398" lon="7.09265">
        <ele>735</ele>
        <time>2010-07-23T06:43:52Z</time>
      </trkpt>
      <trkpt lat="43.83986" lon="7.09277">
        <ele>734</ele>
        <time>2010-07-23T06:44:00Z</time>
      </trkpt>
      <trkpt lat="43.8399" lon="7.09288">
        <ele>733</ele>
        <time>2010-07-23T06:44:07Z</time>
      </trkpt>
      <trkpt lat="43.83997" lon="7.09298">
        <ele>730</ele>
        <time>2010-07-23T06:44:15Z</time>
      </trkpt>
      <trkpt lat="43.84002" lon="7.09307">
        <ele>728</ele>
        <time>2010-07-23T06:44:22Z</time>
      </trkpt>
      <trkpt lat="43.84009" lon="7.09315">
        <ele>726</ele>
        <time>2010-07-23T06:44:29Z</time>
      </trkpt>
      <trkpt lat="43.84014" lon="7.09325">
        <ele>723</ele>
        <time>2010-07-23T06:44:37Z</time>
      </trkpt>
      <trkpt lat="43.8402" lon="7.09334">
        <ele>721</ele>
        <time>2010-07-23T06:44:44Z</time>
      </trkpt>
      <trkpt lat="43.84027" lon="7.09343">
        <ele>719</ele>
        <time>2010-07-23T06:44:51Z</time>
      </trkpt>
      <trkpt lat="43.84033" lon="7.09351">
        <ele>717</ele>
        <time>2010-07-23T06:44:58Z</time>
      </trkpt>
      <trkpt lat="43.84039" lon="7.09359">
        <ele>716</ele>
        <time>2010-07-23T06:45:06Z</time>
      </trkpt>
      <trkpt lat="43.84044" lon="7.09368">
        <ele>716</ele>
        <time>2010-07-23T06:45:13Z</time>
      </trkpt>
      <trkpt lat="43.84048" lon="7.09378">
        <ele>714</ele>
        <time>2010-07-23T06:45:20Z</time>
      </trkpt>
      <trkpt lat="43.84053" lon="7.09386">
        <ele>711</ele>
        <time>2010-07-23T06:45:28Z</time>
      </trkpt>
      <trkpt lat="43.84059" lon="7.09395">
        <ele>709</ele>
        <time>2010-07-23T06:45:36Z</time>
      </trkpt>
      <trkpt lat="43.84064" lon="7.09404">
        <ele>706</ele>
        <time>2010-07-23T06:45:43Z</time>
      </trkpt>
      <trkpt lat="43.84071" lon="7.09412">
        <ele>704</ele>
        <time>2010-07-23T06:45:51Z</time>
      </trkpt>
      <trkpt lat="43.84079" lon="7.0942">
        <ele>703</ele>
        <time>2010-07-23T06:45:59Z</time>
      </trkpt>
      <trkpt lat="43.84084" lon="7.09429">
        <ele>701</ele>
        <time>2010-07-23T06:46:06Z</time>
      </trkpt>
      <trkpt lat="43.84086" lon="7.09434">
        <ele>700</ele>
        <time>2010-07-23T06:46:16Z</time>
      </trkpt>
      <trkpt lat="43.84087" lon="7.09436">
        <ele>700</ele>
        <time>2010-07-23T06:46:23Z</time>
      </trkpt>
      <trkpt lat="43.84093" lon="7.09444">
        <ele>700</ele>
        <time>2010-07-23T06:46:31Z</time>
      </trkpt>
      <trkpt lat="43.84101" lon="7.09452">
        <ele>698</ele>
        <time>2010-07-23T06:46:39Z</time>
      </trkpt>
      <trkpt lat="43.84107" lon="7.09463">
        <ele>697</ele>
        <time>2010-07-23T06:46:46Z</time>
      </trkpt>
      <trkpt lat="43.84113" lon="7.09473">
        <ele>695</ele>
        <time>2010-07-23T06:46:54Z</time>
      </trkpt>
      <trkpt lat="43.84117" lon="7.09484">
        <ele>694</ele>
        <time>2010-07-23T06:47:01Z</time>
      </trkpt>
      <trkpt lat="43.84121" lon="7.09494">
        <ele>692</ele>
        <time>2010-07-23T06:47:08Z</time>
      </trkpt>
      <trkpt lat="43.84125" lon="7.09506">
        <ele>690</ele>
        <time>2010-07-23T06:47:15Z</time>
      </trkpt>
      <trkpt lat="43.84129" lon="7.09516">
        <ele>689</ele>
        <time>2010-07-23T06:47:22Z</time>
      </trkpt>
      <trkpt lat="43.84134" lon="7.09525">
        <ele>689</ele>
        <time>2010-07-23T06:47:29Z</time>
      </trkpt>
      <trkpt lat="43.84138" lon="7.0953">
        <ele>687</ele>
        <time>2010-07-23T06:47:37Z</time>
      </trkpt>
      <trkpt lat="43.84151" lon="7.09543">
        <ele>687</ele>
        <time>2010-07-23T06:47:44Z</time>
      </trkpt>
      <trkpt lat="43.84164" lon="7.09547">
        <ele>684</ele>
        <time>2010-07-23T06:47:52Z</time>
      </trkpt>
      <trkpt lat="43.84181" lon="7.09552">
        <ele>682</ele>
        <time>2010-07-23T06:47:59Z</time>
      </trkpt>
      <trkpt lat="43.84198" lon="7.0956">
        <ele>679</ele>
        <time>2010-07-23T06:48:06Z</time>
      </trkpt>
      <trkpt lat="43.84203" lon="7.09561">
        <ele>678</ele>
        <time>2010-07-23T06:48:13Z</time>
      </trkpt>
      <trkpt lat="43.84203" lon="7.09545">
        <ele>675</ele>
        <time>2010-07-23T06:48:20Z</time>
      </trkpt>
      <trkpt lat="43.84198" lon="7.0953">
        <ele>671</ele>
        <time>2010-07-23T06:48:27Z</time>
      </trkpt>
      <trkpt lat="43.84215" lon="7.0953">
        <ele>669</ele>
        <time>2010-07-23T06:48:34Z</time>
      </trkpt>
      <trkpt lat="43.84215" lon="7.09518">
        <ele>665</ele>
        <time>2010-07-23T06:48:41Z</time>
      </trkpt>
      <trkpt lat="43.84205" lon="7.09505">
        <ele>662</ele>
        <time>2010-07-23T06:48:48Z</time>
      </trkpt>
      <trkpt lat="43.8421" lon="7.09502">
        <ele>659</ele>
        <time>2010-07-23T06:48:56Z</time>
      </trkpt>
      <trkpt lat="43.8421" lon="7.09488">
        <ele>657</ele>
        <time>2010-07-23T06:49:05Z</time>
      </trkpt>
      <trkpt lat="43.84224" lon="7.09478">
        <ele>655</ele>
        <time>2010-07-23T06:49:12Z</time>
      </trkpt>
      <trkpt lat="43.84237" lon="7.09486">
        <ele>653</ele>
        <time>2010-07-23T06:49:20Z</time>
      </trkpt>
      <trkpt lat="43.84239" lon="7.09466">
        <ele>649</ele>
        <time>2010-07-23T06:49:27Z</time>
      </trkpt>
      <trkpt lat="43.84247" lon="7.09468">
        <ele>647</ele>
        <time>2010-07-23T06:49:34Z</time>
      </trkpt>
      <trkpt lat="43.84252" lon="7.09484">
        <ele>646</ele>
        <time>2010-07-23T06:49:41Z</time>
      </trkpt>
      <trkpt lat="43.84256" lon="7.09493">
        <ele>645</ele>
        <time>2010-07-23T06:49:48Z</time>
      </trkpt>
      <trkpt lat="43.84259" lon="7.09502">
        <ele>644</ele>
        <time>2010-07-23T06:49:55Z</time>
      </trkpt>
      <trkpt lat="43.84267" lon="7.0951">
        <ele>641</ele>
        <time>2010-07-23T06:50:03Z</time>
      </trkpt>
      <trkpt lat="43.84271" lon="7.09517">
        <ele>637</ele>
        <time>2010-07-23T06:50:10Z</time>
      </trkpt>
      <trkpt lat="43.8428" lon="7.09534">
        <ele>634</ele>
        <time>2010-07-23T06:50:17Z</time>
      </trkpt>
      <trkpt lat="43.84296" lon="7.09548">
        <ele>629</ele>
        <time>2010-07-23T06:50:24Z</time>
      </trkpt>
      <trkpt lat="43.84315" lon="7.09528">
        <ele>628</ele>
        <time>2010-07-23T06:50:31Z</time>
      </trkpt>
      <trkpt lat="43.84316" lon="7.09529">
        <ele>627</ele>
        <time>2010-07-23T06:50:39Z</time>
      </trkpt>
      <trkpt lat="43.84333" lon="7.09526">
        <ele>626</ele>
        <time>2010-07-23T06:50:46Z</time>
      </trkpt>
      <trkpt lat="43.84356" lon="7.09491">
        <ele>626</ele>
        <time>2010-07-23T06:50:53Z</time>
      </trkpt>
      <trkpt lat="43.84383" lon="7.09434">
        <ele>620</ele>
        <time>2010-07-23T06:51:00Z</time>
      </trkpt>
      <trkpt lat="43.84422" lon="7.09405">
        <ele>614</ele>
        <time>2010-07-23T06:51:07Z</time>
      </trkpt>
      <trkpt lat="43.84449" lon="7.09363">
        <ele>609</ele>
        <time>2010-07-23T06:51:14Z</time>
      </trkpt>
      <trkpt lat="43.84473" lon="7.09343">
        <ele>603</ele>
        <time>2010-07-23T06:51:21Z</time>
      </trkpt>
      <trkpt lat="43.84497" lon="7.09321">
        <ele>598</ele>
        <time>2010-07-23T06:51:28Z</time>
      </trkpt>
      <trkpt lat="43.84496" lon="7.09331">
        <ele>593</ele>
        <time>2010-07-23T06:51:37Z</time>
      </trkpt>
      <trkpt lat="43.84498" lon="7.09335">
        <ele>591</ele>
        <time>2010-07-23T06:51:45Z</time>
      </trkpt>
      <trkpt lat="43.845" lon="7.09336">
        <ele>591</ele>
        <time>2010-07-23T06:51:57Z</time>
      </trkpt>
      <trkpt lat="43.84507" lon="7.09306">
        <ele>596</ele>
        <time>2010-07-23T06:52:07Z</time>
      </trkpt>
      <trkpt lat="43.84511" lon="7.09294">
        <ele>596</ele>
        <time>2010-07-23T06:52:14Z</time>
      </trkpt>
      <trkpt lat="43.84528" lon="7.09277">
        <ele>596</ele>
        <time>2010-07-23T06:52:21Z</time>
      </trkpt>
      <trkpt lat="43.84543" lon="7.09276">
        <ele>596</ele>
        <time>2010-07-23T06:52:28Z</time>
      </trkpt>
      <trkpt lat="43.84557" lon="7.09273">
        <ele>596</ele>
        <time>2010-07-23T06:52:35Z</time>
      </trkpt>
      <trkpt lat="43.84561" lon="7.09273">
        <ele>596</ele>
        <time>2010-07-23T06:52:42Z</time>
      </trkpt>
      <trkpt lat="43.84564" lon="7.09285">
        <ele>596</ele>
        <time>2010-07-23T06:52:50Z</time>
      </trkpt>
      <trkpt lat="43.84572" lon="7.0929">
        <ele>596</ele>
        <time>2010-07-23T06:52:58Z</time>
      </trkpt>
      <trkpt lat="43.84581" lon="7.09294">
        <ele>598</ele>
        <time>2010-07-23T06:53:05Z</time>
      </trkpt>
      <trkpt lat="43.84592" lon="7.09306">
        <ele>600</ele>
        <time>2010-07-23T06:53:12Z</time>
      </trkpt>
      <trkpt lat="43.846" lon="7.09312">
        <ele>601</ele>
        <time>2010-07-23T06:53:19Z</time>
      </trkpt>
      <trkpt lat="43.8461" lon="7.09319">
        <ele>604</ele>
        <time>2010-07-23T06:53:26Z</time>
      </trkpt>
      <trkpt lat="43.8462" lon="7.09329">
        <ele>605</ele>
        <time>2010-07-23T06:53:33Z</time>
      </trkpt>
      <trkpt lat="43.8463" lon="7.09339">
        <ele>605</ele>
        <time>2010-07-23T06:53:40Z</time>
      </trkpt>
      <trkpt lat="43.84641" lon="7.09347">
        <ele>607</ele>
        <time>2010-07-23T06:53:47Z</time>
      </trkpt>
      <trkpt lat="43.84651" lon="7.09359">
        <ele>607</ele>
        <time>2010-07-23T06:53:54Z</time>
      </trkpt>
      <trkpt lat="43.84662" lon="7.09369">
        <ele>607</ele>
        <time>2010-07-23T06:54:01Z</time>
      </trkpt>
      <trkpt lat="43.84671" lon="7.0938">
        <ele>607</ele>
        <time>2010-07-23T06:54:08Z</time>
      </trkpt>
      <trkpt lat="43.8468" lon="7.09394">
        <ele>609</ele>
        <time>2010-07-23T06:54:15Z</time>
      </trkpt>
      <trkpt lat="43.84687" lon="7.0941">
        <ele>611</ele>
        <time>2010-07-23T06:54:22Z</time>
      </trkpt>
      <trkpt lat="43.84696" lon="7.09419">
        <ele>613</ele>
        <time>2010-07-23T06:54:29Z</time>
      </trkpt>
      <trkpt lat="43.84701" lon="7.0941">
        <ele>613</ele>
        <time>2010-07-23T06:54:36Z</time>
      </trkpt>
      <trkpt lat="43.84693" lon="7.09396">
        <ele>614</ele>
        <time>2010-07-23T06:54:43Z</time>
      </trkpt>
      <trkpt lat="43.84687" lon="7.09381">
        <ele>614</ele>
        <time>2010-07-23T06:54:50Z</time>
      </trkpt>
      <trkpt lat="43.84681" lon="7.09365">
        <ele>614</ele>
        <time>2010-07-23T06:54:57Z</time>
      </trkpt>
      <trkpt lat="43.84675" lon="7.09347">
        <ele>614</ele>
        <time>2010-07-23T06:55:04Z</time>
      </trkpt>
      <trkpt lat="43.8467" lon="7.0933">
        <ele>614</ele>
        <time>2010-07-23T06:55:11Z</time>
      </trkpt>
      <trkpt lat="43.84663" lon="7.09317">
        <ele>615</ele>
        <time>2010-07-23T06:55:18Z</time>
      </trkpt>
      <trkpt lat="43.84658" lon="7.09303">
        <ele>619</ele>
        <time>2010-07-23T06:55:25Z</time>
      </trkpt>
      <trkpt lat="43.84656" lon="7.09287">
        <ele>620</ele>
        <time>2010-07-23T06:55:32Z</time>
      </trkpt>
      <trkpt lat="43.84657" lon="7.09269">
        <ele>620</ele>
        <time>2010-07-23T06:55:39Z</time>
      </trkpt>
      <trkpt lat="43.84659" lon="7.09257">
        <ele>620</ele>
        <time>2010-07-23T06:55:46Z</time>
      </trkpt>
      <trkpt lat="43.84664" lon="7.0925">
        <ele>622</ele>
        <time>2010-07-23T06:55:54Z</time>
      </trkpt>
      <trkpt lat="43.84673" lon="7.0925">
        <ele>623</ele>
        <time>2010-07-23T06:56:01Z</time>
      </trkpt>
      <trkpt lat="43.84681" lon="7.09251">
        <ele>623</ele>
        <time>2010-07-23T06:56:14Z</time>
      </trkpt>
      <trkpt lat="43.84682" lon="7.09247">
        <ele>617</ele>
        <time>2010-07-23T06:56:22Z</time>
      </trkpt>
      <trkpt lat="43.84661" lon="7.09254">
        <ele>619</ele>
        <time>2010-07-23T06:56:29Z</time>
      </trkpt>
      <trkpt lat="43.84661" lon="7.0932">
        <ele>619</ele>
        <time>2010-07-23T06:56:36Z</time>
      </trkpt>
      <trkpt lat="43.84695" lon="7.09401">
        <ele>617</ele>
        <time>2010-07-23T06:56:43Z</time>
      </trkpt>
      <trkpt lat="43.84689" lon="7.09414">
        <ele>613</ele>
        <time>2010-07-23T06:56:50Z</time>
      </trkpt>
      <trkpt lat="43.84668" lon="7.09375">
        <ele>611</ele>
        <time>2010-07-23T06:56:57Z</time>
      </trkpt>
      <trkpt lat="43.84618" lon="7.09327">
        <ele>606</ele>
        <time>2010-07-23T06:57:05Z</time>
      </trkpt>
      <trkpt lat="43.84565" lon="7.09279">
        <ele>599</ele>
        <time>2010-07-23T06:57:12Z</time>
      </trkpt>
      <trkpt lat="43.84505" lon="7.09295">
        <ele>592</ele>
        <time>2010-07-23T06:57:20Z</time>
      </trkpt>
      <trkpt lat="43.8449" lon="7.09345">
        <ele>592</ele>
        <time>2010-07-23T06:57:27Z</time>
      </trkpt>
      <trkpt lat="43.84471" lon="7.09417">
        <ele>589</ele>
        <time>2010-07-23T06:57:35Z</time>
      </trkpt>
      <trkpt lat="43.84467" lon="7.09493">
        <ele>582</ele>
        <time>2010-07-23T06:57:42Z</time>
      </trkpt>
      <trkpt lat="43.8445" lon="7.09551">
        <ele>574</ele>
        <time>2010-07-23T06:57:49Z</time>
      </trkpt>
      <trkpt lat="43.8445" lon="7.0963">
        <ele>564</ele>
        <time>2010-07-23T06:57:56Z</time>
      </trkpt>
      <trkpt lat="43.84474" lon="7.09702">
        <ele>556</ele>
        <time>2010-07-23T06:58:03Z</time>
      </trkpt>
      <trkpt lat="43.845" lon="7.09789">
        <ele>549</ele>
        <time>2010-07-23T06:58:10Z</time>
      </trkpt>
      <trkpt lat="43.84513" lon="7.09861">
        <ele>547</ele>
        <time>2010-07-23T06:58:17Z</time>
      </trkpt>
      <trkpt lat="43.84483" lon="7.09883">
        <ele>545</ele>
        <time>2010-07-23T06:58:25Z</time>
      </trkpt>
      <trkpt lat="43.84472" lon="7.09924">
        <ele>542</ele>
        <time>2010-07-23T06:58:32Z</time>
      </trkpt>
      <trkpt lat="43.84484" lon="7.09967">
        <ele>537</ele>
        <time>2010-07-23T06:58:39Z</time>
      </trkpt>
      <trkpt lat="43.84504" lon="7.10012">
        <ele>534</ele>
        <time>2010-07-23T06:58:46Z</time>
      </trkpt>
      <trkpt lat="43.8453" lon="7.1006">
        <ele>530</ele>
        <time>2010-07-23T06:58:53Z</time>
      </trkpt>
      <trkpt lat="43.84547" lon="7.10124">
        <ele>523</ele>
        <time>2010-07-23T06:59:00Z</time>
      </trkpt>
      <trkpt lat="43.84562" lon="7.10188">
        <ele>516</ele>
        <time>2010-07-23T06:59:07Z</time>
      </trkpt>
      <trkpt lat="43.8456" lon="7.1024">
        <ele>509</ele>
        <time>2010-07-23T06:59:14Z</time>
      </trkpt>
      <trkpt lat="43.84558" lon="7.10262">
        <ele>502</ele>
        <time>2010-07-23T06:59:21Z</time>
      </trkpt>
      <trkpt lat="43.84591" lon="7.10242">
        <ele>495</ele>
        <time>2010-07-23T06:59:28Z</time>
      </trkpt>
      <trkpt lat="43.84573" lon="7.1029">
        <ele>493</ele>
        <time>2010-07-23T06:59:35Z</time>
      </trkpt>
      <trkpt lat="43.84538" lon="7.10308">
        <ele>493</ele>
        <time>2010-07-23T06:59:42Z</time>
      </trkpt>
      <trkpt lat="43.84537" lon="7.10368">
        <ele>485</ele>
        <time>2010-07-23T06:59:49Z</time>
      </trkpt>
      <trkpt lat="43.84555" lon="7.10406">
        <ele>479</ele>
        <time>2010-07-23T06:59:56Z</time>
      </trkpt>
      <trkpt lat="43.84583" lon="7.10447">
        <ele>479</ele>
        <time>2010-07-23T07:00:03Z</time>
      </trkpt>
      <trkpt lat="43.84591" lon="7.10505">
        <ele>475</ele>
        <time>2010-07-23T07:00:10Z</time>
      </trkpt>
      <trkpt lat="43.8461" lon="7.10564">
        <ele>469</ele>
        <time>2010-07-23T07:00:17Z</time>
      </trkpt>
      <trkpt lat="43.84608" lon="7.10598">
        <ele>469</ele>
        <time>2010-07-23T07:00:24Z</time>
      </trkpt>
      <trkpt lat="43.84614" lon="7.10623">
        <ele>469</ele>
        <time>2010-07-23T07:00:31Z</time>
      </trkpt>
      <trkpt lat="43.84638" lon="7.10645">
        <ele>469</ele>
        <time>2010-07-23T07:00:38Z</time>
      </trkpt>
      <trkpt lat="43.84652" lon="7.10695">
        <ele>469</ele>
        <time>2010-07-23T07:00:45Z</time>
      </trkpt>
      <trkpt lat="43.84664" lon="7.10752">
        <ele>469</ele>
        <time>2010-07-23T07:00:52Z</time>
      </trkpt>
      <trkpt lat="43.84673" lon="7.10811">
        <ele>465</ele>
        <time>2010-07-23T07:00:59Z</time>
      </trkpt>
      <trkpt lat="43.84691" lon="7.1087">
        <ele>464</ele>
        <time>2010-07-23T07:01:06Z</time>
      </trkpt>
      <trkpt lat="43.84707" lon="7.10935">
        <ele>462</ele>
        <time>2010-07-23T07:01:13Z</time>
      </trkpt>
      <trkpt lat="43.84729" lon="7.11018">
        <ele>458</ele>
        <time>2010-07-23T07:01:20Z</time>
      </trkpt>
      <trkpt lat="43.84761" lon="7.11085">
        <ele>451</ele>
        <time>2010-07-23T07:01:27Z</time>
      </trkpt>
      <trkpt lat="43.84778" lon="7.11139">
        <ele>444</ele>
        <time>2010-07-23T07:01:34Z</time>
      </trkpt>
      <trkpt lat="43.84808" lon="7.11205">
        <ele>437</ele>
        <time>2010-07-23T07:01:41Z</time>
      </trkpt>
      <trkpt lat="43.84835" lon="7.11259">
        <ele>430</ele>
        <time>2010-07-23T07:01:48Z</time>
      </trkpt>
      <trkpt lat="43.84856" lon="7.11306">
        <ele>423</ele>
        <time>2010-07-23T07:01:55Z</time>
      </trkpt>
      <trkpt lat="43.84871" lon="7.11371">
        <ele>416</ele>
        <time>2010-07-23T07:02:02Z</time>
      </trkpt>
      <trkpt lat="43.84882" lon="7.11429">
        <ele>409</ele>
        <time>2010-07-23T07:02:09Z</time>
      </trkpt>
      <trkpt lat="43.84891" lon="7.11487">
        <ele>402</ele>
        <time>2010-07-23T07:02:16Z</time>
      </trkpt>
      <trkpt lat="43.84892" lon="7.11555">
        <ele>396</ele>
        <time>2010-07-23T07:02:23Z</time>
      </trkpt>
      <trkpt lat="43.84889" lon="7.11616">
        <ele>396</ele>
        <time>2010-07-23T07:02:30Z</time>
      </trkpt>
      <trkpt lat="43.84883" lon="7.11666">
        <ele>396</ele>
        <time>2010-07-23T07:02:37Z</time>
      </trkpt>
      <trkpt lat="43.84883" lon="7.11725">
        <ele>396</ele>
        <time>2010-07-23T07:02:44Z</time>
      </trkpt>
      <trkpt lat="43.84895" lon="7.11784">
        <ele>395</ele>
        <time>2010-07-23T07:02:51Z</time>
      </trkpt>
      <trkpt lat="43.84917" lon="7.11834">
        <ele>395</ele>
        <time>2010-07-23T07:02:58Z</time>
      </trkpt>
      <trkpt lat="43.84922" lon="7.11872">
        <ele>395</ele>
        <time>2010-07-23T07:03:05Z</time>
      </trkpt>
      <trkpt lat="43.84919" lon="7.11914">
        <ele>395</ele>
        <time>2010-07-23T07:03:12Z</time>
      </trkpt>
      <trkpt lat="43.84923" lon="7.11975">
        <ele>395</ele>
        <time>2010-07-23T07:03:19Z</time>
      </trkpt>
      <trkpt lat="43.84914" lon="7.12032">
        <ele>393</ele>
        <time>2010-07-23T07:03:26Z</time>
      </trkpt>
      <trkpt lat="43.84932" lon="7.12085">
        <ele>389</ele>
        <time>2010-07-23T07:03:33Z</time>
      </trkpt>
      <trkpt lat="43.84952" lon="7.1215">
        <ele>384</ele>
        <time>2010-07-23T07:03:40Z</time>
      </trkpt>
      <trkpt lat="43.84978" lon="7.1221">
        <ele>380</ele>
        <time>2010-07-23T07:03:47Z</time>
      </trkpt>
      <trkpt lat="43.85002" lon="7.12269">
        <ele>374</ele>
        <time>2010-07-23T07:03:54Z</time>
      </trkpt>
      <trkpt lat="43.85013" lon="7.12325">
        <ele>367</ele>
        <time>2010-07-23T07:04:01Z</time>
      </trkpt>
      <trkpt lat="43.85023" lon="7.12373">
        <ele>362</ele>
        <time>2010-07-23T07:04:08Z</time>
      </trkpt>
      <trkpt lat="43.85035" lon="7.12422">
        <ele>357</ele>
        <time>2010-07-23T07:04:15Z</time>
      </trkpt>
      <trkpt lat="43.85039" lon="7.12469">
        <ele>352</ele>
        <time>2010-07-23T07:04:22Z</time>
      </trkpt>
      <trkpt lat="43.85047" lon="7.12514">
        <ele>348</ele>
        <time>2010-07-23T07:04:29Z</time>
      </trkpt>
      <trkpt lat="43.85054" lon="7.12507">
        <ele>344</ele>
        <time>2010-07-23T07:04:36Z</time>
      </trkpt>
      <trkpt lat="43.85061" lon="7.12474">
        <ele>342</ele>
        <time>2010-07-23T07:04:43Z</time>
      </trkpt>
      <trkpt lat="43.8507" lon="7.12441">
        <ele>338</ele>
        <time>2010-07-23T07:04:50Z</time>
      </trkpt>
      <trkpt lat="43.85076" lon="7.12409">
        <ele>334</ele>
        <time>2010-07-23T07:04:57Z</time>
      </trkpt>
      <trkpt lat="43.85076" lon="7.12368">
        <ele>331</ele>
        <time>2010-07-23T07:05:04Z</time>
      </trkpt>
      <trkpt lat="43.85084" lon="7.12326">
        <ele>327</ele>
        <time>2010-07-23T07:05:11Z</time>
      </trkpt>
      <trkpt lat="43.85096" lon="7.12285">
        <ele>324</ele>
        <time>2010-07-23T07:05:18Z</time>
      </trkpt>
      <trkpt lat="43.85125" lon="7.12262">
        <ele>321</ele>
        <time>2010-07-23T07:05:25Z</time>
      </trkpt>
      <trkpt lat="43.85131" lon="7.12227">
        <ele>316</ele>
        <time>2010-07-23T07:05:32Z</time>
      </trkpt>
      <trkpt lat="43.8514" lon="7.1225">
        <ele>312</ele>
        <time>2010-07-23T07:05:39Z</time>
      </trkpt>
      <trkpt lat="43.85136" lon="7.123">
        <ele>306</ele>
        <time>2010-07-23T07:05:46Z</time>
      </trkpt>
      <trkpt lat="43.85143" lon="7.12337">
        <ele>302</ele>
        <time>2010-07-23T07:05:53Z</time>
      </trkpt>
      <trkpt lat="43.85146" lon="7.12361">
        <ele>299</ele>
        <time>2010-07-23T07:06:00Z</time>
      </trkpt>
      <trkpt lat="43.8516" lon="7.12382">
        <ele>297</ele>
        <time>2010-07-23T07:06:07Z</time>
      </trkpt>
      <trkpt lat="43.85162" lon="7.12352">
        <ele>293</ele>
        <time>2010-07-23T07:06:14Z</time>
      </trkpt>
      <trkpt lat="43.8517" lon="7.12323">
        <ele>289</ele>
        <time>2010-07-23T07:06:21Z</time>
      </trkpt>
      <trkpt lat="43.85184" lon="7.12281">
        <ele>285</ele>
        <time>2010-07-23T07:06:28Z</time>
      </trkpt>
      <trkpt lat="43.85186" lon="7.12237">
        <ele>281</ele>
        <time>2010-07-23T07:06:35Z</time>
      </trkpt>
      <trkpt lat="43.85197" lon="7.12227">
        <ele>278</ele>
        <time>2010-07-23T07:06:42Z</time>
      </trkpt>
      <trkpt lat="43.852" lon="7.12266">
        <ele>276</ele>
        <time>2010-07-23T07:06:49Z</time>
      </trkpt>
      <trkpt lat="43.85215" lon="7.1232">
        <ele>272</ele>
        <time>2010-07-23T07:06:56Z</time>
      </trkpt>
      <trkpt lat="43.85217" lon="7.12349">
        <ele>269</ele>
        <time>2010-07-23T07:07:03Z</time>
      </trkpt>
      <trkpt lat="43.85223" lon="7.12376">
        <ele>265</ele>
        <time>2010-07-23T07:07:10Z</time>
      </trkpt>
      <trkpt lat="43.85235" lon="7.12409">
        <ele>262</ele>
        <time>2010-07-23T07:07:17Z</time>
      </trkpt>
      <trkpt lat="43.85242" lon="7.1245">
        <ele>257</ele>
        <time>2010-07-23T07:07:24Z</time>
      </trkpt>
      <trkpt lat="43.85244" lon="7.1249">
        <ele>252</ele>
        <time>2010-07-23T07:07:31Z</time>
      </trkpt>
      <trkpt lat="43.85244" lon="7.12517">
        <ele>248</ele>
        <time>2010-07-23T07:07:38Z</time>
      </trkpt>
      <trkpt lat="43.85255" lon="7.1251">
        <ele>246</ele>
        <time>2010-07-23T07:07:45Z</time>
      </trkpt>
      <trkpt lat="43.85269" lon="7.12478">
        <ele>244</ele>
        <time>2010-07-23T07:07:52Z</time>
      </trkpt>
      <trkpt lat="43.85288" lon="7.1244">
        <ele>241</ele>
        <time>2010-07-23T07:07:59Z</time>
      </trkpt>
      <trkpt lat="43.85296" lon="7.12409">
        <ele>238</ele>
        <time>2010-07-23T07:08:06Z</time>
      </trkpt>
      <trkpt lat="43.853" lon="7.12377">
        <ele>234</ele>
        <time>2010-07-23T07:08:13Z</time>
      </trkpt>
      <trkpt lat="43.85313" lon="7.12399">
        <ele>230</ele>
        <time>2010-07-23T07:08:20Z</time>
      </trkpt>
      <trkpt lat="43.85326" lon="7.1244">
        <ele>226</ele>
        <time>2010-07-23T07:08:27Z</time>
      </trkpt>
      <trkpt lat="43.85321" lon="7.12486">
        <ele>222</ele>
        <time>2010-07-23T07:08:34Z</time>
      </trkpt>
      <trkpt lat="43.85328" lon="7.12509">
        <ele>219</ele>
        <time>2010-07-23T07:08:41Z</time>
      </trkpt>
      <trkpt lat="43.85338" lon="7.12473">
        <ele>217</ele>
        <time>2010-07-23T07:08:48Z</time>
      </trkpt>
      <trkpt lat="43.85357" lon="7.1244">
        <ele>215</ele>
        <time>2010-07-23T07:08:55Z</time>
      </trkpt>
      <trkpt lat="43.85365" lon="7.12433">
        <ele>213</ele>
        <time>2010-07-23T07:09:02Z</time>
      </trkpt>
      <trkpt lat="43.85363" lon="7.12468">
        <ele>209</ele>
        <time>2010-07-23T07:09:09Z</time>
      </trkpt>
      <trkpt lat="43.85363" lon="7.12512">
        <ele>205</ele>
        <time>2010-07-23T07:09:16Z</time>
      </trkpt>
      <trkpt lat="43.85365" lon="7.12556">
        <ele>201</ele>
        <time>2010-07-23T07:09:23Z</time>
      </trkpt>
      <trkpt lat="43.85365" lon="7.12558">
        <ele>201</ele>
        <time>2010-07-23T07:09:40Z</time>
      </trkpt>
      <trkpt lat="43.85366" lon="7.12554">
        <ele>202</ele>
        <time>2010-07-23T07:10:17Z</time>
      </trkpt>
      <trkpt lat="43.85368" lon="7.12551">
        <ele>208</ele>
        <time>2010-07-23T07:10:27Z</time>
      </trkpt>
      <trkpt lat="43.85367" lon="7.12551">
        <ele>211</ele>
        <time>2010-07-23T07:10:45Z</time>
      </trkpt>
      <trkpt lat="43.85366" lon="7.12553">
        <ele>211</ele>
        <time>2010-07-23T07:10:55Z</time>
      </trkpt>
      <trkpt lat="43.85365" lon="7.12554">
        <ele>211</ele>
        <time>2010-07-23T07:11:03Z</time>
      </trkpt>
      <trkpt lat="43.85366" lon="7.12558">
        <ele>209</ele>
        <time>2010-07-23T07:11:10Z</time>
      </trkpt>
      <trkpt lat="43.85364" lon="7.12571">
        <ele>207</ele>
        <time>2010-07-23T07:11:18Z</time>
      </trkpt>
      <trkpt lat="43.85364" lon="7.12583">
        <ele>207</ele>
        <time>2010-07-23T07:11:25Z</time>
      </trkpt>
      <trkpt lat="43.85364" lon="7.12598">
        <ele>207</ele>
        <time>2010-07-23T07:11:32Z</time>
      </trkpt>
      <trkpt lat="43.85367" lon="7.12611">
        <ele>207</ele>
        <time>2010-07-23T07:11:39Z</time>
      </trkpt>
      <trkpt lat="43.85373" lon="7.12619">
        <ele>207</ele>
        <time>2010-07-23T07:11:46Z</time>
      </trkpt>
      <trkpt lat="43.85374" lon="7.12629">
        <ele>207</ele>
        <time>2010-07-23T07:11:53Z</time>
      </trkpt>
      <trkpt lat="43.85366" lon="7.12627">
        <ele>207</ele>
        <time>2010-07-23T07:12:00Z</time>
      </trkpt>
      <trkpt lat="43.85358" lon="7.12623">
        <ele>207</ele>
        <time>2010-07-23T07:12:08Z</time>
      </trkpt>
      <trkpt lat="43.8535" lon="7.12618">
        <ele>209</ele>
        <time>2010-07-23T07:12:16Z</time>
      </trkpt>
      <trkpt lat="43.85342" lon="7.12613">
        <ele>212</ele>
        <time>2010-07-23T07:12:24Z</time>
      </trkpt>
      <trkpt lat="43.85337" lon="7.12605">
        <ele>214</ele>
        <time>2010-07-23T07:12:32Z</time>
      </trkpt>
      <trkpt lat="43.85328" lon="7.12602">
        <ele>215</ele>
        <time>2010-07-23T07:12:39Z</time>
      </trkpt>
      <trkpt lat="43.8532" lon="7.12604">
        <ele>215</ele>
        <time>2010-07-23T07:12:46Z</time>
      </trkpt>
      <trkpt lat="43.85319" lon="7.12613">
        <ele>216</ele>
        <time>2010-07-23T07:12:53Z</time>
      </trkpt>
      <trkpt lat="43.85324" lon="7.12621">
        <ele>219</ele>
        <time>2010-07-23T07:13:02Z</time>
      </trkpt>
      <trkpt lat="43.85325" lon="7.12627">
        <ele>220</ele>
        <time>2010-07-23T07:13:09Z</time>
      </trkpt>
      <trkpt lat="43.85324" lon="7.12638">
        <ele>223</ele>
        <time>2010-07-23T07:13:17Z</time>
      </trkpt>
      <trkpt lat="43.85324" lon="7.1265">
        <ele>223</ele>
        <time>2010-07-23T07:13:24Z</time>
      </trkpt>
      <trkpt lat="43.85325" lon="7.12661">
        <ele>224</ele>
        <time>2010-07-23T07:13:31Z</time>
      </trkpt>
      <trkpt lat="43.8532" lon="7.12672">
        <ele>225</ele>
        <time>2010-07-23T07:13:39Z</time>
      </trkpt>
      <trkpt lat="43.85325" lon="7.12688">
        <ele>225</ele>
        <time>2010-07-23T07:13:46Z</time>
      </trkpt>
      <trkpt lat="43.8533" lon="7.12705">
        <ele>225</ele>
        <time>2010-07-23T07:13:53Z</time>
      </trkpt>
      <trkpt lat="43.85329" lon="7.12728">
        <ele>225</ele>
        <time>2010-07-23T07:14:00Z</time>
      </trkpt>
      <trkpt lat="43.85329" lon="7.12749">
        <ele>225</ele>
        <time>2010-07-23T07:14:07Z</time>
      </trkpt>
      <trkpt lat="43.85343" lon="7.12785">
        <ele>225</ele>
        <time>2010-07-23T07:14:14Z</time>
      </trkpt>
      <trkpt lat="43.85354" lon="7.12804">
        <ele>225</ele>
        <time>2010-07-23T07:14:21Z</time>
      </trkpt>
      <trkpt lat="43.85354" lon="7.1282">
        <ele>226</ele>
        <time>2010-07-23T07:14:29Z</time>
      </trkpt>
      <trkpt lat="43.85349" lon="7.1282">
        <ele>233</ele>
        <time>2010-07-23T07:14:36Z</time>
      </trkpt>
      <trkpt lat="43.85342" lon="7.12813">
        <ele>241</ele>
        <time>2010-07-23T07:14:44Z</time>
      </trkpt>
      <trkpt lat="43.85336" lon="7.12807">
        <ele>249</ele>
        <time>2010-07-23T07:14:51Z</time>
      </trkpt>
      <trkpt lat="43.85325" lon="7.12802">
        <ele>256</ele>
        <time>2010-07-23T07:14:58Z</time>
      </trkpt>
      <trkpt lat="43.85315" lon="7.12799">
        <ele>263</ele>
        <time>2010-07-23T07:15:05Z</time>
      </trkpt>
      <trkpt lat="43.85307" lon="7.12795">
        <ele>267</ele>
        <time>2010-07-23T07:15:12Z</time>
      </trkpt>
      <trkpt lat="43.85298" lon="7.12794">
        <ele>267</ele>
        <time>2010-07-23T07:15:19Z</time>
      </trkpt>
      <trkpt lat="43.85289" lon="7.12793">
        <ele>267</ele>
        <time>2010-07-23T07:15:26Z</time>
      </trkpt>
      <trkpt lat="43.8528" lon="7.12788">
        <ele>267</ele>
        <time>2010-07-23T07:15:33Z</time>
      </trkpt>
      <trkpt lat="43.85271" lon="7.12781">
        <ele>267</ele>
        <time>2010-07-23T07:15:40Z</time>
      </trkpt>
      <trkpt lat="43.85265" lon="7.12771">
        <ele>267</ele>
        <time>2010-07-23T07:15:47Z</time>
      </trkpt>
      <trkpt lat="43.85257" lon="7.12761">
        <ele>267</ele>
        <time>2010-07-23T07:15:54Z</time>
      </trkpt>
      <trkpt lat="43.85246" lon="7.1276">
        <ele>260</ele>
        <time>2010-07-23T07:16:01Z</time>
      </trkpt>
      <trkpt lat="43.85242" lon="7.12771">
        <ele>260</ele>
        <time>2010-07-23T07:16:08Z</time>
      </trkpt>
      <trkpt lat="43.8524" lon="7.12779">
        <ele>260</ele>
        <time>2010-07-23T07:16:15Z</time>
      </trkpt>
      <trkpt lat="43.85239" lon="7.12792">
        <ele>260</ele>
        <time>2010-07-23T07:16:23Z</time>
      </trkpt>
      <trkpt lat="43.85243" lon="7.12805">
        <ele>260</ele>
        <time>2010-07-23T07:16:31Z</time>
      </trkpt>
      <trkpt lat="43.85245" lon="7.12815">
        <ele>260</ele>
        <time>2010-07-23T07:16:38Z</time>
      </trkpt>
      <trkpt lat="43.85246" lon="7.12828">
        <ele>263</ele>
        <time>2010-07-23T07:16:46Z</time>
      </trkpt>
      <trkpt lat="43.85239" lon="7.12833">
        <ele>266</ele>
        <time>2010-07-23T07:16:54Z</time>
      </trkpt>
      <trkpt lat="43.85231" lon="7.12837">
        <ele>268</ele>
        <time>2010-07-23T07:17:02Z</time>
      </trkpt>
      <trkpt lat="43.85225" lon="7.12839">
        <ele>270</ele>
        <time>2010-07-23T07:17:09Z</time>
      </trkpt>
      <trkpt lat="43.85214" lon="7.12845">
        <ele>272</ele>
        <time>2010-07-23T07:17:16Z</time>
      </trkpt>
      <trkpt lat="43.85219" lon="7.12853">
        <ele>272</ele>
        <time>2010-07-23T07:17:23Z</time>
      </trkpt>
      <trkpt lat="43.85227" lon="7.12858">
        <ele>274</ele>
        <time>2010-07-23T07:17:30Z</time>
      </trkpt>
      <trkpt lat="43.85228" lon="7.12867">
        <ele>275</ele>
        <time>2010-07-23T07:17:37Z</time>
      </trkpt>
      <trkpt lat="43.85226" lon="7.12878">
        <ele>276</ele>
        <time>2010-07-23T07:17:44Z</time>
      </trkpt>
      <trkpt lat="43.85224" lon="7.12892">
        <ele>277</ele>
        <time>2010-07-23T07:17:51Z</time>
      </trkpt>
      <trkpt lat="43.85225" lon="7.12906">
        <ele>279</ele>
        <time>2010-07-23T07:17:59Z</time>
      </trkpt>
      <trkpt lat="43.85229" lon="7.12918">
        <ele>280</ele>
        <time>2010-07-23T07:18:06Z</time>
      </trkpt>
      <trkpt lat="43.85236" lon="7.12929">
        <ele>280</ele>
        <time>2010-07-23T07:18:13Z</time>
      </trkpt>
      <trkpt lat="43.85244" lon="7.12942">
        <ele>281</ele>
        <time>2010-07-23T07:18:20Z</time>
      </trkpt>
      <trkpt lat="43.8525" lon="7.12954">
        <ele>281</ele>
        <time>2010-07-23T07:18:27Z</time>
      </trkpt>
      <trkpt lat="43.85256" lon="7.12963">
        <ele>283</ele>
        <time>2010-07-23T07:18:34Z</time>
      </trkpt>
      <trkpt lat="43.85261" lon="7.12976">
        <ele>283</ele>
        <time>2010-07-23T07:18:41Z</time>
      </trkpt>
      <trkpt lat="43.85266" lon="7.12987">
        <ele>285</ele>
        <time>2010-07-23T07:18:48Z</time>
      </trkpt>
      <trkpt lat="43.85269" lon="7.13002">
        <ele>287</ele>
        <time>2010-07-23T07:18:55Z</time>
      </trkpt>
      <trkpt lat="43.85273" lon="7.13017">
        <ele>290</ele>
        <time>2010-07-23T07:19:02Z</time>
      </trkpt>
      <trkpt lat="43.85276" lon="7.13032">
        <ele>291</ele>
        <time>2010-07-23T07:19:09Z</time>
      </trkpt>
      <trkpt lat="43.85286" lon="7.1305">
        <ele>293</ele>
        <time>2010-07-23T07:19:16Z</time>
      </trkpt>
      <trkpt lat="43.85293" lon="7.13068">
        <ele>296</ele>
        <time>2010-07-23T07:19:23Z</time>
      </trkpt>
      <trkpt lat="43.85305" lon="7.1309">
        <ele>299</ele>
        <time>2010-07-23T07:19:30Z</time>
      </trkpt>
      <trkpt lat="43.85321" lon="7.1311">
        <ele>299</ele>
        <time>2010-07-23T07:19:37Z</time>
      </trkpt>
      <trkpt lat="43.85338" lon="7.1313">
        <ele>299</ele>
        <time>2010-07-23T07:19:44Z</time>
      </trkpt>
      <trkpt lat="43.85353" lon="7.13156">
        <ele>298</ele>
        <time>2010-07-23T07:19:51Z</time>
      </trkpt>
      <trkpt lat="43.85365" lon="7.1318">
        <ele>298</ele>
        <time>2010-07-23T07:19:58Z</time>
      </trkpt>
      <trkpt lat="43.8537" lon="7.13204">
        <ele>298</ele>
        <time>2010-07-23T07:20:05Z</time>
      </trkpt>
      <trkpt lat="43.85364" lon="7.13224">
        <ele>299</ele>
        <time>2010-07-23T07:20:12Z</time>
      </trkpt>
      <trkpt lat="43.85356" lon="7.13233">
        <ele>303</ele>
        <time>2010-07-23T07:20:19Z</time>
      </trkpt>
      <trkpt lat="43.8535" lon="7.13246">
        <ele>306</ele>
        <time>2010-07-23T07:20:26Z</time>
      </trkpt>
      <trkpt lat="43.85344" lon="7.1326">
        <ele>307</ele>
        <time>2010-07-23T07:20:33Z</time>
      </trkpt>
      <trkpt lat="43.85342" lon="7.13277">
        <ele>308</ele>
        <time>2010-07-23T07:20:40Z</time>
      </trkpt>
      <trkpt lat="43.85349" lon="7.13293">
        <ele>312</ele>
        <time>2010-07-23T07:20:47Z</time>
      </trkpt>
      <trkpt lat="43.85359" lon="7.1331">
        <ele>315</ele>
        <time>2010-07-23T07:20:54Z</time>
      </trkpt>
      <trkpt lat="43.85368" lon="7.13328">
        <ele>316</ele>
        <time>2010-07-23T07:21:01Z</time>
      </trkpt>
      <trkpt lat="43.85376" lon="7.13347">
        <ele>316</ele>
        <time>2010-07-23T07:21:08Z</time>
      </trkpt>
      <trkpt lat="43.8539" lon="7.13349">
        <ele>318</ele>
        <time>2010-07-23T07:21:15Z</time>
      </trkpt>
      <trkpt lat="43.85395" lon="7.13327">
        <ele>318</ele>
        <time>2010-07-23T07:21:22Z</time>
      </trkpt>
      <trkpt lat="43.85396" lon="7.13302">
        <ele>318</ele>
        <time>2010-07-23T07:21:29Z</time>
      </trkpt>
      <trkpt lat="43.85401" lon="7.1328">
        <ele>318</ele>
        <time>2010-07-23T07:21:36Z</time>
      </trkpt>
      <trkpt lat="43.85411" lon="7.1326">
        <ele>318</ele>
        <time>2010-07-23T07:21:43Z</time>
      </trkpt>
      <trkpt lat="43.85418" lon="7.13239">
        <ele>318</ele>
        <time>2010-07-23T07:21:50Z</time>
      </trkpt>
      <trkpt lat="43.85424" lon="7.1322">
        <ele>320</ele>
        <time>2010-07-23T07:21:57Z</time>
      </trkpt>
      <trkpt lat="43.85437" lon="7.13212">
        <ele>322</ele>
        <time>2010-07-23T07:22:04Z</time>
      </trkpt>
      <trkpt lat="43.85449" lon="7.13216">
        <ele>323</ele>
        <time>2010-07-23T07:22:11Z</time>
      </trkpt>
      <trkpt lat="43.8546" lon="7.13221">
        <ele>323</ele>
        <time>2010-07-23T07:22:18Z</time>
      </trkpt>
      <trkpt lat="43.8547" lon="7.13226">
        <ele>326</ele>
        <time>2010-07-23T07:22:26Z</time>
      </trkpt>
      <trkpt lat="43.85478" lon="7.13228">
        <ele>327</ele>
        <time>2010-07-23T07:22:33Z</time>
      </trkpt>
      <trkpt lat="43.85487" lon="7.13231">
        <ele>328</ele>
        <time>2010-07-23T07:22:40Z</time>
      </trkpt>
      <trkpt lat="43.85495" lon="7.13235">
        <ele>329</ele>
        <time>2010-07-23T07:22:47Z</time>
      </trkpt>
      <trkpt lat="43.85504" lon="7.13241">
        <ele>330</ele>
        <time>2010-07-23T07:22:54Z</time>
      </trkpt>
      <trkpt lat="43.85511" lon="7.13247">
        <ele>331</ele>
        <time>2010-07-23T07:23:01Z</time>
      </trkpt>
      <trkpt lat="43.85516" lon="7.13256">
        <ele>332</ele>
        <time>2010-07-23T07:23:08Z</time>
      </trkpt>
      <trkpt lat="43.85521" lon="7.13269">
        <ele>333</ele>
        <time>2010-07-23T07:23:15Z</time>
      </trkpt>
      <trkpt lat="43.85523" lon="7.13285">
        <ele>336</ele>
        <time>2010-07-23T07:23:22Z</time>
      </trkpt>
      <trkpt lat="43.85526" lon="7.13303">
        <ele>338</ele>
        <time>2010-07-23T07:23:29Z</time>
      </trkpt>
      <trkpt lat="43.85527" lon="7.13323">
        <ele>338</ele>
        <time>2010-07-23T07:23:36Z</time>
      </trkpt>
      <trkpt lat="43.85526" lon="7.13341">
        <ele>338</ele>
        <time>2010-07-23T07:23:43Z</time>
      </trkpt>
      <trkpt lat="43.85526" lon="7.13358">
        <ele>338</ele>
        <time>2010-07-23T07:23:50Z</time>
      </trkpt>
      <trkpt lat="43.85519" lon="7.13369">
        <ele>338</ele>
        <time>2010-07-23T07:23:57Z</time>
      </trkpt>
      <trkpt lat="43.85511" lon="7.13372">
        <ele>341</ele>
        <time>2010-07-23T07:24:04Z</time>
      </trkpt>
      <trkpt lat="43.85502" lon="7.1337">
        <ele>345</ele>
        <time>2010-07-23T07:24:11Z</time>
      </trkpt>
      <trkpt lat="43.8549" lon="7.13369">
        <ele>348</ele>
        <time>2010-07-23T07:24:18Z</time>
      </trkpt>
      <trkpt lat="43.85479" lon="7.13373">
        <ele>349</ele>
        <time>2010-07-23T07:24:25Z</time>
      </trkpt>
      <trkpt lat="43.85472" lon="7.13383">
        <ele>353</ele>
        <time>2010-07-23T07:24:32Z</time>
      </trkpt>
      <trkpt lat="43.8547" lon="7.13397">
        <ele>354</ele>
        <time>2010-07-23T07:24:39Z</time>
      </trkpt>
      <trkpt lat="43.8547" lon="7.1341">
        <ele>355</ele>
        <time>2010-07-23T07:24:46Z</time>
      </trkpt>
      <trkpt lat="43.85472" lon="7.13425">
        <ele>355</ele>
        <time>2010-07-23T07:24:53Z</time>
      </trkpt>
      <trkpt lat="43.85473" lon="7.13437">
        <ele>357</ele>
        <time>2010-07-23T07:25:00Z</time>
      </trkpt>
      <trkpt lat="43.85474" lon="7.13449">
        <ele>358</ele>
        <time>2010-07-23T07:25:07Z</time>
      </trkpt>
      <trkpt lat="43.85476" lon="7.1346">
        <ele>358</ele>
        <time>2010-07-23T07:25:14Z</time>
      </trkpt>
      <trkpt lat="43.85479" lon="7.13475">
        <ele>358</ele>
        <time>2010-07-23T07:25:21Z</time>
      </trkpt>
      <trkpt lat="43.85481" lon="7.13487">
        <ele>361</ele>
        <time>2010-07-23T07:25:28Z</time>
      </trkpt>
      <trkpt lat="43.85482" lon="7.135">
        <ele>362</ele>
        <time>2010-07-23T07:25:35Z</time>
      </trkpt>
      <trkpt lat="43.85486" lon="7.13514">
        <ele>363</ele>
        <time>2010-07-23T07:25:42Z</time>
      </trkpt>
      <trkpt lat="43.85489" lon="7.13528">
        <ele>363</ele>
        <time>2010-07-23T07:25:50Z</time>
      </trkpt>
      <trkpt lat="43.85491" lon="7.13538">
        <ele>365</ele>
        <time>2010-07-23T07:25:57Z</time>
      </trkpt>
      <trkpt lat="43.85493" lon="7.13549">
        <ele>365</ele>
        <time>2010-07-23T07:26:04Z</time>
      </trkpt>
      <trkpt lat="43.85497" lon="7.13562">
        <ele>366</ele>
        <time>2010-07-23T07:26:12Z</time>
      </trkpt>
      <trkpt lat="43.85501" lon="7.13575">
        <ele>367</ele>
        <time>2010-07-23T07:26:19Z</time>
      </trkpt>
      <trkpt lat="43.85506" lon="7.13587">
        <ele>369</ele>
        <time>2010-07-23T07:26:26Z</time>
      </trkpt>
      <trkpt lat="43.85511" lon="7.13598">
        <ele>371</ele>
        <time>2010-07-23T07:26:33Z</time>
      </trkpt>
      <trkpt lat="43.85519" lon="7.13612">
        <ele>371</ele>
        <time>2010-07-23T07:26:40Z</time>
      </trkpt>
      <trkpt lat="43.85527" lon="7.13625">
        <ele>373</ele>
        <time>2010-07-23T07:26:47Z</time>
      </trkpt>
      <trkpt lat="43.85535" lon="7.13633">
        <ele>375</ele>
        <time>2010-07-23T07:26:56Z</time>
      </trkpt>
      <trkpt lat="43.85557" lon="7.13653">
        <ele>379</ele>
        <time>2010-07-23T07:27:04Z</time>
      </trkpt>
      <trkpt lat="43.85569" lon="7.13661">
        <ele>383</ele>
        <time>2010-07-23T07:27:11Z</time>
      </trkpt>
      <trkpt lat="43.85579" lon="7.13666">
        <ele>386</ele>
        <time>2010-07-23T07:27:18Z</time>
      </trkpt>
      <trkpt lat="43.85585" lon="7.13673">
        <ele>389</ele>
        <time>2010-07-23T07:27:25Z</time>
      </trkpt>
      <trkpt lat="43.85578" lon="7.13678">
        <ele>390</ele>
        <time>2010-07-23T07:27:32Z</time>
      </trkpt>
      <trkpt lat="43.85567" lon="7.13679">
        <ele>390</ele>
        <time>2010-07-23T07:27:39Z</time>
      </trkpt>
      <trkpt lat="43.85551" lon="7.13677">
        <ele>390</ele>
        <time>2010-07-23T07:27:46Z</time>
      </trkpt>
      <trkpt lat="43.85536" lon="7.13675">
        <ele>390</ele>
        <time>2010-07-23T07:27:53Z</time>
      </trkpt>
      <trkpt lat="43.8552" lon="7.13674">
        <ele>390</ele>
        <time>2010-07-23T07:28:00Z</time>
      </trkpt>
      <trkpt lat="43.85501" lon="7.1367">
        <ele>390</ele>
        <time>2010-07-23T07:28:07Z</time>
      </trkpt>
      <trkpt lat="43.85487" lon="7.13672">
        <ele>393</ele>
        <time>2010-07-23T07:28:14Z</time>
      </trkpt>
      <trkpt lat="43.85474" lon="7.13684">
        <ele>395</ele>
        <time>2010-07-23T07:28:21Z</time>
      </trkpt>
      <trkpt lat="43.85466" lon="7.13706">
        <ele>397</ele>
        <time>2010-07-23T07:28:28Z</time>
      </trkpt>
      <trkpt lat="43.85458" lon="7.13731">
        <ele>399</ele>
        <time>2010-07-23T07:28:35Z</time>
      </trkpt>
      <trkpt lat="43.85449" lon="7.13754">
        <ele>401</ele>
        <time>2010-07-23T07:28:42Z</time>
      </trkpt>
      <trkpt lat="43.85442" lon="7.13778">
        <ele>402</ele>
        <time>2010-07-23T07:28:49Z</time>
      </trkpt>
      <trkpt lat="43.85435" lon="7.13804">
        <ele>404</ele>
        <time>2010-07-23T07:28:56Z</time>
      </trkpt>
      <trkpt lat="43.85427" lon="7.13827">
        <ele>405</ele>
        <time>2010-07-23T07:29:03Z</time>
      </trkpt>
      <trkpt lat="43.85418" lon="7.13847">
        <ele>406</ele>
        <time>2010-07-23T07:29:10Z</time>
      </trkpt>
      <trkpt lat="43.85409" lon="7.13872">
        <ele>406</ele>
        <time>2010-07-23T07:29:17Z</time>
      </trkpt>
      <trkpt lat="43.85402" lon="7.13896">
        <ele>407</ele>
        <time>2010-07-23T07:29:24Z</time>
      </trkpt>
      <trkpt lat="43.85394" lon="7.13921">
        <ele>409</ele>
        <time>2010-07-23T07:29:31Z</time>
      </trkpt>
      <trkpt lat="43.85388" lon="7.13946">
        <ele>411</ele>
        <time>2010-07-23T07:29:38Z</time>
      </trkpt>
      <trkpt lat="43.8538" lon="7.13972">
        <ele>413</ele>
        <time>2010-07-23T07:29:45Z</time>
      </trkpt>
      <trkpt lat="43.85374" lon="7.13998">
        <ele>413</ele>
        <time>2010-07-23T07:29:52Z</time>
      </trkpt>
      <trkpt lat="43.85366" lon="7.14022">
        <ele>413</ele>
        <time>2010-07-23T07:29:59Z</time>
      </trkpt>
      <trkpt lat="43.85359" lon="7.14037">
        <ele>415</ele>
        <time>2010-07-23T07:30:06Z</time>
      </trkpt>
      <trkpt lat="43.85345" lon="7.14046">
        <ele>415</ele>
        <time>2010-07-23T07:30:17Z</time>
      </trkpt>
      <trkpt lat="43.85339" lon="7.14035">
        <ele>415</ele>
        <time>2010-07-23T07:30:25Z</time>
      </trkpt>
      <trkpt lat="43.85327" lon="7.14016">
        <ele>416</ele>
        <time>2010-07-23T07:30:32Z</time>
      </trkpt>
      <trkpt lat="43.85319" lon="7.13998">
        <ele>417</ele>
        <time>2010-07-23T07:30:39Z</time>
      </trkpt>
      <trkpt lat="43.85313" lon="7.13978">
        <ele>419</ele>
        <time>2010-07-23T07:30:46Z</time>
      </trkpt>
      <trkpt lat="43.85307" lon="7.13956">
        <ele>421</ele>
        <time>2010-07-23T07:30:53Z</time>
      </trkpt>
      <trkpt lat="43.853" lon="7.13956">
        <ele>422</ele>
        <time>2010-07-23T07:31:00Z</time>
      </trkpt>
      <trkpt lat="43.85301" lon="7.13977">
        <ele>423</ele>
        <time>2010-07-23T07:31:07Z</time>
      </trkpt>
      <trkpt lat="43.85304" lon="7.13996">
        <ele>423</ele>
        <time>2010-07-23T07:31:14Z</time>
      </trkpt>
      <trkpt lat="43.85303" lon="7.14015">
        <ele>424</ele>
        <time>2010-07-23T07:31:21Z</time>
      </trkpt>
      <trkpt lat="43.85305" lon="7.14036">
        <ele>424</ele>
        <time>2010-07-23T07:31:28Z</time>
      </trkpt>
      <trkpt lat="43.85306" lon="7.14058">
        <ele>424</ele>
        <time>2010-07-23T07:31:35Z</time>
      </trkpt>
      <trkpt lat="43.85305" lon="7.1408">
        <ele>424</ele>
        <time>2010-07-23T07:31:42Z</time>
      </trkpt>
      <trkpt lat="43.85297" lon="7.14093">
        <ele>424</ele>
        <time>2010-07-23T07:31:49Z</time>
      </trkpt>
      <trkpt lat="43.85298" lon="7.14107">
        <ele>426</ele>
        <time>2010-07-23T07:31:56Z</time>
      </trkpt>
      <trkpt lat="43.85299" lon="7.14123">
        <ele>428</ele>
        <time>2010-07-23T07:32:04Z</time>
      </trkpt>
      <trkpt lat="43.853" lon="7.14131">
        <ele>428</ele>
        <time>2010-07-23T07:32:11Z</time>
      </trkpt>
      <trkpt lat="43.85303" lon="7.14139">
        <ele>430</ele>
        <time>2010-07-23T07:32:18Z</time>
      </trkpt>
      <trkpt lat="43.85302" lon="7.14147">
        <ele>430</ele>
        <time>2010-07-23T07:32:25Z</time>
      </trkpt>
      <trkpt lat="43.853" lon="7.14155">
        <ele>430</ele>
        <time>2010-07-23T07:32:35Z</time>
      </trkpt>
      <trkpt lat="43.853" lon="7.14158">
        <ele>430</ele>
        <time>2010-07-23T07:32:45Z</time>
      </trkpt>
      <trkpt lat="43.85303" lon="7.14178">
        <ele>430</ele>
        <time>2010-07-23T07:32:52Z</time>
      </trkpt>
      <trkpt lat="43.85312" lon="7.14199">
        <ele>430</ele>
        <time>2010-07-23T07:32:59Z</time>
      </trkpt>
      <trkpt lat="43.85313" lon="7.14223">
        <ele>427</ele>
        <time>2010-07-23T07:33:06Z</time>
      </trkpt>
      <trkpt lat="43.85314" lon="7.14233">
        <ele>422</ele>
        <time>2010-07-23T07:33:13Z</time>
      </trkpt>
      <trkpt lat="43.8533" lon="7.14247">
        <ele>417</ele>
        <time>2010-07-23T07:33:20Z</time>
      </trkpt>
      <trkpt lat="43.8533" lon="7.14256">
        <ele>417</ele>
        <time>2010-07-23T07:33:27Z</time>
      </trkpt>
      <trkpt lat="43.8534" lon="7.14285">
        <ele>415</ele>
        <time>2010-07-23T07:33:34Z</time>
      </trkpt>
      <trkpt lat="43.85348" lon="7.14326">
        <ele>412</ele>
        <time>2010-07-23T07:33:41Z</time>
      </trkpt>
      <trkpt lat="43.85346" lon="7.14319">
        <ele>410</ele>
        <time>2010-07-23T07:33:48Z</time>
      </trkpt>
      <trkpt lat="43.85357" lon="7.14321">
        <ele>408</ele>
        <time>2010-07-23T07:33:55Z</time>
      </trkpt>
      <trkpt lat="43.85358" lon="7.14332">
        <ele>405</ele>
        <time>2010-07-23T07:34:02Z</time>
      </trkpt>
      <trkpt lat="43.85358" lon="7.14336">
        <ele>404</ele>
        <time>2010-07-23T07:34:11Z</time>
      </trkpt>
      <trkpt lat="43.85362" lon="7.14337">
        <ele>404</ele>
        <time>2010-07-23T07:34:19Z</time>
      </trkpt>
      <trkpt lat="43.85364" lon="7.14348">
        <ele>404</ele>
        <time>2010-07-23T07:34:26Z</time>
      </trkpt>
      <trkpt lat="43.85367" lon="7.14359">
        <ele>400</ele>
        <time>2010-07-23T07:34:33Z</time>
      </trkpt>
      <trkpt lat="43.8537" lon="7.14376">
        <ele>396</ele>
        <time>2010-07-23T07:34:40Z</time>
      </trkpt>
      <trkpt lat="43.85372" lon="7.14406">
        <ele>389</ele>
        <time>2010-07-23T07:34:47Z</time>
      </trkpt>
      <trkpt lat="43.85374" lon="7.1444">
        <ele>380</ele>
        <time>2010-07-23T07:34:54Z</time>
      </trkpt>
      <trkpt lat="43.85379" lon="7.14465">
        <ele>376</ele>
        <time>2010-07-23T07:35:01Z</time>
      </trkpt>
      <trkpt lat="43.85389" lon="7.1448">
        <ele>375</ele>
        <time>2010-07-23T07:35:08Z</time>
      </trkpt>
      <trkpt lat="43.85397" lon="7.14507">
        <ele>374</ele>
        <time>2010-07-23T07:35:15Z</time>
      </trkpt>
      <trkpt lat="43.85401" lon="7.14537">
        <ele>370</ele>
        <time>2010-07-23T07:35:22Z</time>
      </trkpt>
      <trkpt lat="43.85409" lon="7.14568">
        <ele>367</ele>
        <time>2010-07-23T07:35:29Z</time>
      </trkpt>
      <trkpt lat="43.85421" lon="7.14607">
        <ele>359</ele>
        <time>2010-07-23T07:35:37Z</time>
      </trkpt>
      <trkpt lat="43.85431" lon="7.14649">
        <ele>352</ele>
        <time>2010-07-23T07:35:44Z</time>
      </trkpt>
      <trkpt lat="43.85429" lon="7.14683">
        <ele>345</ele>
        <time>2010-07-23T07:35:51Z</time>
      </trkpt>
      <trkpt lat="43.85425" lon="7.14704">
        <ele>337</ele>
        <time>2010-07-23T07:35:59Z</time>
      </trkpt>
      <trkpt lat="43.85433" lon="7.14705">
        <ele>334</ele>
        <time>2010-07-23T07:36:07Z</time>
      </trkpt>
      <trkpt lat="43.85445" lon="7.14704">
        <ele>329</ele>
        <time>2010-07-23T07:36:14Z</time>
      </trkpt>
      <trkpt lat="43.85443" lon="7.1472">
        <ele>325</ele>
        <time>2010-07-23T07:36:22Z</time>
      </trkpt>
      <trkpt lat="43.85457" lon="7.14716">
        <ele>324</ele>
        <time>2010-07-23T07:36:30Z</time>
      </trkpt>
      <trkpt lat="43.85467" lon="7.14695">
        <ele>324</ele>
        <time>2010-07-23T07:36:37Z</time>
      </trkpt>
      <trkpt lat="43.8547" lon="7.14702">
        <ele>319</ele>
        <time>2010-07-23T07:36:45Z</time>
      </trkpt>
      <trkpt lat="43.85473" lon="7.14709">
        <ele>317</ele>
        <time>2010-07-23T07:36:52Z</time>
      </trkpt>
      <trkpt lat="43.85474" lon="7.14735">
        <ele>313</ele>
        <time>2010-07-23T07:36:59Z</time>
      </trkpt>
      <trkpt lat="43.85473" lon="7.14755">
        <ele>309</ele>
        <time>2010-07-23T07:37:07Z</time>
      </trkpt>
      <trkpt lat="43.85475" lon="7.1477">
        <ele>304</ele>
        <time>2010-07-23T07:37:16Z</time>
      </trkpt>
      <trkpt lat="43.85476" lon="7.14776">
        <ele>304</ele>
        <time>2010-07-23T07:37:23Z</time>
      </trkpt>
      <trkpt lat="43.85476" lon="7.14783">
        <ele>304</ele>
        <time>2010-07-23T07:37:31Z</time>
      </trkpt>
      <trkpt lat="43.85476" lon="7.14793">
        <ele>304</ele>
        <time>2010-07-23T07:37:39Z</time>
      </trkpt>
      <trkpt lat="43.85477" lon="7.14809">
        <ele>304</ele>
        <time>2010-07-23T07:37:46Z</time>
      </trkpt>
      <trkpt lat="43.85474" lon="7.14829">
        <ele>304</ele>
        <time>2010-07-23T07:37:53Z</time>
      </trkpt>
      <trkpt lat="43.85473" lon="7.14848">
        <ele>302</ele>
        <time>2010-07-23T07:38:01Z</time>
      </trkpt>
      <trkpt lat="43.85472" lon="7.14863">
        <ele>303</ele>
        <time>2010-07-23T07:38:08Z</time>
      </trkpt>
      <trkpt lat="43.85471" lon="7.14885">
        <ele>303</ele>
        <time>2010-07-23T07:38:15Z</time>
      </trkpt>
      <trkpt lat="43.85467" lon="7.14903">
        <ele>303</ele>
        <time>2010-07-23T07:38:22Z</time>
      </trkpt>
      <trkpt lat="43.85462" lon="7.14924">
        <ele>303</ele>
        <time>2010-07-23T07:38:30Z</time>
      </trkpt>
      <trkpt lat="43.85461" lon="7.14945">
        <ele>304</ele>
        <time>2010-07-23T07:38:37Z</time>
      </trkpt>
      <trkpt lat="43.85473" lon="7.14972">
        <ele>304</ele>
        <time>2010-07-23T07:38:45Z</time>
      </trkpt>
      <trkpt lat="43.85493" lon="7.15002">
        <ele>303</ele>
        <time>2010-07-23T07:38:52Z</time>
      </trkpt>
      <trkpt lat="43.85503" lon="7.15018">
        <ele>300</ele>
        <time>2010-07-23T07:39:00Z</time>
      </trkpt>
      <trkpt lat="43.85502" lon="7.15022">
        <ele>300</ele>
        <time>2010-07-23T07:39:07Z</time>
      </trkpt>
      <trkpt lat="43.85504" lon="7.1503">
        <ele>301</ele>
        <time>2010-07-23T07:39:15Z</time>
      </trkpt>
      <trkpt lat="43.85503" lon="7.15035">
        <ele>301</ele>
        <time>2010-07-23T07:39:23Z</time>
      </trkpt>
      <trkpt lat="43.85496" lon="7.15053">
        <ele>299</ele>
        <time>2010-07-23T07:39:31Z</time>
      </trkpt>
      <trkpt lat="43.85486" lon="7.15068">
        <ele>299</ele>
        <time>2010-07-23T07:39:38Z</time>
      </trkpt>
      <trkpt lat="43.85478" lon="7.15083">
        <ele>299</ele>
        <time>2010-07-23T07:39:45Z</time>
      </trkpt>
      <trkpt lat="43.85471" lon="7.15103">
        <ele>299</ele>
        <time>2010-07-23T07:39:52Z</time>
      </trkpt>
      <trkpt lat="43.85464" lon="7.15128">
        <ele>299</ele>
        <time>2010-07-23T07:40:00Z</time>
      </trkpt>
      <trkpt lat="43.85455" lon="7.15141">
        <ele>299</ele>
        <time>2010-07-23T07:40:07Z</time>
      </trkpt>
      <trkpt lat="43.85441" lon="7.1515">
        <ele>300</ele>
        <time>2010-07-23T07:40:15Z</time>
      </trkpt>
      <trkpt lat="43.8543" lon="7.15162">
        <ele>301</ele>
        <time>2010-07-23T07:40:22Z</time>
      </trkpt>
      <trkpt lat="43.85423" lon="7.15182">
        <ele>301</ele>
        <time>2010-07-23T07:40:30Z</time>
      </trkpt>
      <trkpt lat="43.85414" lon="7.15204">
        <ele>301</ele>
        <time>2010-07-23T07:40:37Z</time>
      </trkpt>
      <trkpt lat="43.85398" lon="7.15232">
        <ele>301</ele>
        <time>2010-07-23T07:40:45Z</time>
      </trkpt>
      <trkpt lat="43.85385" lon="7.15253">
        <ele>301</ele>
        <time>2010-07-23T07:40:52Z</time>
      </trkpt>
      <trkpt lat="43.8537" lon="7.15278">
        <ele>300</ele>
        <time>2010-07-23T07:41:00Z</time>
      </trkpt>
      <trkpt lat="43.85363" lon="7.15303">
        <ele>300</ele>
        <time>2010-07-23T07:41:07Z</time>
      </trkpt>
      <trkpt lat="43.85358" lon="7.15324">
        <ele>300</ele>
        <time>2010-07-23T07:41:15Z</time>
      </trkpt>
      <trkpt lat="43.85353" lon="7.15343">
        <ele>300</ele>
        <time>2010-07-23T07:41:22Z</time>
      </trkpt>
      <trkpt lat="43.85347" lon="7.1537">
        <ele>299</ele>
        <time>2010-07-23T07:41:30Z</time>
      </trkpt>
      <trkpt lat="43.85348" lon="7.15392">
        <ele>298</ele>
        <time>2010-07-23T07:41:37Z</time>
      </trkpt>
      <trkpt lat="43.85359" lon="7.15419">
        <ele>298</ele>
        <time>2010-07-23T07:41:45Z</time>
      </trkpt>
      <trkpt lat="43.85369" lon="7.15441">
        <ele>297</ele>
        <time>2010-07-23T07:41:52Z</time>
      </trkpt>
      <trkpt lat="43.85386" lon="7.1546">
        <ele>296</ele>
        <time>2010-07-23T07:42:00Z</time>
      </trkpt>
      <trkpt lat="43.85395" lon="7.15474">
        <ele>296</ele>
        <time>2010-07-23T07:42:07Z</time>
      </trkpt>
      <trkpt lat="43.85397" lon="7.15485">
        <ele>296</ele>
        <time>2010-07-23T07:42:15Z</time>
      </trkpt>
      <trkpt lat="43.854" lon="7.15501">
        <ele>296</ele>
        <time>2010-07-23T07:42:22Z</time>
      </trkpt>
      <trkpt lat="43.85411" lon="7.15517">
        <ele>296</ele>
        <time>2010-07-23T07:42:30Z</time>
      </trkpt>
      <trkpt lat="43.85421" lon="7.15522">
        <ele>296</ele>
        <time>2010-07-23T07:42:38Z</time>
      </trkpt>
      <trkpt lat="43.85425" lon="7.15523">
        <ele>293</ele>
        <time>2010-07-23T07:42:46Z</time>
      </trkpt>
      <trkpt lat="43.85429" lon="7.15525">
        <ele>290</ele>
        <time>2010-07-23T07:42:55Z</time>
      </trkpt>
      <trkpt lat="43.85432" lon="7.15526">
        <ele>286</ele>
        <time>2010-07-23T07:43:03Z</time>
      </trkpt>
      <trkpt lat="43.85435" lon="7.15528">
        <ele>286</ele>
        <time>2010-07-23T07:43:10Z</time>
      </trkpt>
      <trkpt lat="43.8544" lon="7.1553">
        <ele>286</ele>
        <time>2010-07-23T07:43:17Z</time>
      </trkpt>
      <trkpt lat="43.85445" lon="7.15535">
        <ele>286</ele>
        <time>2010-07-23T07:43:27Z</time>
      </trkpt>
      <trkpt lat="43.85446" lon="7.15546">
        <ele>287</ele>
        <time>2010-07-23T07:43:36Z</time>
      </trkpt>
      <trkpt lat="43.85445" lon="7.15559">
        <ele>288</ele>
        <time>2010-07-23T07:43:43Z</time>
      </trkpt>
      <trkpt lat="43.85445" lon="7.15583">
        <ele>289</ele>
        <time>2010-07-23T07:43:50Z</time>
      </trkpt>
      <trkpt lat="43.85447" lon="7.156">
        <ele>293</ele>
        <time>2010-07-23T07:43:57Z</time>
      </trkpt>
      <trkpt lat="43.85453" lon="7.1562">
        <ele>294</ele>
        <time>2010-07-23T07:44:05Z</time>
      </trkpt>
      <trkpt lat="43.85461" lon="7.15639">
        <ele>294</ele>
        <time>2010-07-23T07:44:12Z</time>
      </trkpt>
      <trkpt lat="43.8547" lon="7.1566">
        <ele>294</ele>
        <time>2010-07-23T07:44:20Z</time>
      </trkpt>
      <trkpt lat="43.85487" lon="7.15668">
        <ele>291</ele>
        <time>2010-07-23T07:44:27Z</time>
      </trkpt>
      <trkpt lat="43.85497" lon="7.15687">
        <ele>284</ele>
        <time>2010-07-23T07:44:35Z</time>
      </trkpt>
      <trkpt lat="43.85504" lon="7.15707">
        <ele>281</ele>
        <time>2010-07-23T07:44:42Z</time>
      </trkpt>
      <trkpt lat="43.85506" lon="7.15731">
        <ele>276</ele>
        <time>2010-07-23T07:44:50Z</time>
      </trkpt>
      <trkpt lat="43.85499" lon="7.15755">
        <ele>276</ele>
        <time>2010-07-23T07:44:57Z</time>
      </trkpt>
      <trkpt lat="43.85505" lon="7.15794">
        <ele>276</ele>
        <time>2010-07-23T07:45:05Z</time>
      </trkpt>
      <trkpt lat="43.855" lon="7.1581">
        <ele>276</ele>
        <time>2010-07-23T07:45:14Z</time>
      </trkpt>
      <trkpt lat="43.855" lon="7.15818">
        <ele>276</ele>
        <time>2010-07-23T07:45:23Z</time>
      </trkpt>
      <trkpt lat="43.85494" lon="7.15823">
        <ele>276</ele>
        <time>2010-07-23T07:45:32Z</time>
      </trkpt>
      <trkpt lat="43.85484" lon="7.1582">
        <ele>276</ele>
        <time>2010-07-23T07:45:40Z</time>
      </trkpt>
      <trkpt lat="43.85476" lon="7.1583">
        <ele>276</ele>
        <time>2010-07-23T07:45:47Z</time>
      </trkpt>
      <trkpt lat="43.85477" lon="7.15833">
        <ele>276</ele>
        <time>2010-07-23T07:45:54Z</time>
      </trkpt>
      <trkpt lat="43.85482" lon="7.15836">
        <ele>282</ele>
        <time>2010-07-23T07:46:03Z</time>
      </trkpt>
      <trkpt lat="43.85484" lon="7.15837">
        <ele>290</ele>
        <time>2010-07-23T07:46:11Z</time>
      </trkpt>
      <trkpt lat="43.85484" lon="7.15839">
        <ele>292</ele>
        <time>2010-07-23T07:46:18Z</time>
      </trkpt>
      <trkpt lat="43.85479" lon="7.15838">
        <ele>292</ele>
        <time>2010-07-23T07:46:25Z</time>
      </trkpt>
      <trkpt lat="43.85475" lon="7.15841">
        <ele>287</ele>
        <time>2010-07-23T07:46:33Z</time>
      </trkpt>
      <trkpt lat="43.85474" lon="7.15844">
        <ele>287</ele>
        <time>2010-07-23T07:46:41Z</time>
      </trkpt>
      <trkpt lat="43.85476" lon="7.15847">
        <ele>287</ele>
        <time>2010-07-23T07:46:48Z</time>
      </trkpt>
      <trkpt lat="43.85473" lon="7.1585">
        <ele>287</ele>
        <time>2010-07-23T07:46:56Z</time>
      </trkpt>
      <trkpt lat="43.85471" lon="7.15854">
        <ele>287</ele>
        <time>2010-07-23T07:47:04Z</time>
      </trkpt>
      <trkpt lat="43.85475" lon="7.15859">
        <ele>287</ele>
        <time>2010-07-23T07:47:11Z</time>
      </trkpt>
      <trkpt lat="43.8548" lon="7.15864">
        <ele>290</ele>
        <time>2010-07-23T07:47:19Z</time>
      </trkpt>
      <trkpt lat="43.85479" lon="7.1587">
        <ele>291</ele>
        <time>2010-07-23T07:47:26Z</time>
      </trkpt>
      <trkpt lat="43.8548" lon="7.15875">
        <ele>291</ele>
        <time>2010-07-23T07:47:33Z</time>
      </trkpt>
      <trkpt lat="43.85482" lon="7.15881">
        <ele>296</ele>
        <time>2010-07-23T07:47:43Z</time>
      </trkpt>
      <trkpt lat="43.85485" lon="7.15887">
        <ele>298</ele>
        <time>2010-07-23T07:47:50Z</time>
      </trkpt>
      <trkpt lat="43.85487" lon="7.15892">
        <ele>302</ele>
        <time>2010-07-23T07:47:58Z</time>
      </trkpt>
      <trkpt lat="43.85492" lon="7.15897">
        <ele>303</ele>
        <time>2010-07-23T07:48:08Z</time>
      </trkpt>
      <trkpt lat="43.85496" lon="7.15902">
        <ele>302</ele>
        <time>2010-07-23T07:48:15Z</time>
      </trkpt>
      <trkpt lat="43.85496" lon="7.15906">
        <ele>299</ele>
        <time>2010-07-23T07:48:23Z</time>
      </trkpt>
      <trkpt lat="43.85499" lon="7.15908">
        <ele>300</ele>
        <time>2010-07-23T07:48:31Z</time>
      </trkpt>
      <trkpt lat="43.85509" lon="7.1591">
        <ele>306</ele>
        <time>2010-07-23T07:48:39Z</time>
      </trkpt>
      <trkpt lat="43.85512" lon="7.15911">
        <ele>311</ele>
        <time>2010-07-23T07:48:48Z</time>
      </trkpt>
      <trkpt lat="43.85511" lon="7.1592">
        <ele>311</ele>
        <time>2010-07-23T07:48:58Z</time>
      </trkpt>
      <trkpt lat="43.85513" lon="7.15927">
        <ele>309</ele>
        <time>2010-07-23T07:49:05Z</time>
      </trkpt>
      <trkpt lat="43.85518" lon="7.15935">
        <ele>309</ele>
        <time>2010-07-23T07:49:12Z</time>
      </trkpt>
      <trkpt lat="43.85521" lon="7.15945">
        <ele>309</ele>
        <time>2010-07-23T07:49:21Z</time>
      </trkpt>
      <trkpt lat="43.85525" lon="7.15952">
        <ele>308</ele>
        <time>2010-07-23T07:49:28Z</time>
      </trkpt>
      <trkpt lat="43.85526" lon="7.15958">
        <ele>308</ele>
        <time>2010-07-23T07:49:35Z</time>
      </trkpt>
      <trkpt lat="43.85525" lon="7.15959">
        <ele>310</ele>
        <time>2010-07-23T07:49:46Z</time>
      </trkpt>
      <trkpt lat="43.85524" lon="7.1596">
        <ele>311</ele>
        <time>2010-07-23T07:49:55Z</time>
      </trkpt>
      <trkpt lat="43.85519" lon="7.15956">
        <ele>311</ele>
        <time>2010-07-23T07:50:02Z</time>
      </trkpt>
      <trkpt lat="43.85514" lon="7.15954">
        <ele>314</ele>
        <time>2010-07-23T07:50:11Z</time>
      </trkpt>
      <trkpt lat="43.85509" lon="7.15959">
        <ele>314</ele>
        <time>2010-07-23T07:50:20Z</time>
      </trkpt>
      <trkpt lat="43.85512" lon="7.15965">
        <ele>314</ele>
        <time>2010-07-23T07:50:27Z</time>
      </trkpt>
      <trkpt lat="43.85516" lon="7.15967">
        <ele>314</ele>
        <time>2010-07-23T07:50:35Z</time>
      </trkpt>
      <trkpt lat="43.8552" lon="7.1597">
        <ele>315</ele>
        <time>2010-07-23T07:50:43Z</time>
      </trkpt>
      <trkpt lat="43.8552" lon="7.15975">
        <ele>321</ele>
        <time>2010-07-23T07:50:52Z</time>
      </trkpt>
      <trkpt lat="43.85517" lon="7.15979">
        <ele>323</ele>
        <time>2010-07-23T07:51:00Z</time>
      </trkpt>
      <trkpt lat="43.85406" lon="7.16047">
        <ele>391</ele>
        <time>2010-07-23T07:51:14Z</time>
      </trkpt>
      <trkpt lat="43.85405" lon="7.16047">
        <ele>391</ele>
        <time>2010-07-23T07:51:30Z</time>
      </trkpt>
      <trkpt lat="43.85403" lon="7.16049">
        <ele>391</ele>
        <time>2010-07-23T07:51:55Z</time>
      </trkpt>
      <trkpt lat="43.85395" lon="7.16051">
        <ele>391</ele>
        <time>2010-07-23T07:52:02Z</time>
      </trkpt>
      <trkpt lat="43.85389" lon="7.16054">
        <ele>391</ele>
        <time>2010-07-23T07:52:11Z</time>
      </trkpt>
      <trkpt lat="43.85387" lon="7.16057">
        <ele>391</ele>
        <time>2010-07-23T07:52:18Z</time>
      </trkpt>
      <trkpt lat="43.85382" lon="7.16063">
        <ele>391</ele>
        <time>2010-07-23T07:52:26Z</time>
      </trkpt>
      <trkpt lat="43.85378" lon="7.16068">
        <ele>391</ele>
        <time>2010-07-23T07:52:37Z</time>
      </trkpt>
      <trkpt lat="43.85381" lon="7.1607">
        <ele>392</ele>
        <time>2010-07-23T07:52:46Z</time>
      </trkpt>
      <trkpt lat="43.8538" lon="7.16076">
        <ele>392</ele>
        <time>2010-07-23T07:52:54Z</time>
      </trkpt>
      <trkpt lat="43.85373" lon="7.16078">
        <ele>393</ele>
        <time>2010-07-23T07:53:01Z</time>
      </trkpt>
      <trkpt lat="43.85364" lon="7.16082">
        <ele>394</ele>
        <time>2010-07-23T07:53:08Z</time>
      </trkpt>
      <trkpt lat="43.85351" lon="7.16088">
        <ele>395</ele>
        <time>2010-07-23T07:53:16Z</time>
      </trkpt>
      <trkpt lat="43.8534" lon="7.16095">
        <ele>395</ele>
        <time>2010-07-23T07:53:23Z</time>
      </trkpt>
      <trkpt lat="43.85328" lon="7.16105">
        <ele>395</ele>
        <time>2010-07-23T07:53:31Z</time>
      </trkpt>
      <trkpt lat="43.85322" lon="7.16118">
        <ele>397</ele>
        <time>2010-07-23T07:53:38Z</time>
      </trkpt>
      <trkpt lat="43.84949" lon="7.16363">
        <ele>471</ele>
        <time>2010-07-23T07:53:54Z</time>
      </trkpt>
      <trkpt lat="43.8495" lon="7.16358">
        <ele>465</ele>
        <time>2010-07-23T07:54:05Z</time>
      </trkpt>
      <trkpt lat="43.84947" lon="7.16362">
        <ele>465</ele>
        <time>2010-07-23T07:54:17Z</time>
      </trkpt>
      <trkpt lat="43.84946" lon="7.16369">
        <ele>465</ele>
        <time>2010-07-23T07:54:24Z</time>
      </trkpt>
      <trkpt lat="43.84943" lon="7.1637">
        <ele>465</ele>
        <time>2010-07-23T07:54:32Z</time>
      </trkpt>
      <trkpt lat="43.8494" lon="7.16365">
        <ele>464</ele>
        <time>2010-07-23T07:54:40Z</time>
      </trkpt>
      <trkpt lat="43.84935" lon="7.16359">
        <ele>464</ele>
        <time>2010-07-23T07:54:48Z</time>
      </trkpt>
      <trkpt lat="43.8493" lon="7.16354">
        <ele>464</ele>
        <time>2010-07-23T07:54:56Z</time>
      </trkpt>
      <trkpt lat="43.84925" lon="7.16348">
        <ele>468</ele>
        <time>2010-07-23T07:55:03Z</time>
      </trkpt>
      <trkpt lat="43.84924" lon="7.16339">
        <ele>469</ele>
        <time>2010-07-23T07:55:12Z</time>
      </trkpt>
      <trkpt lat="43.84924" lon="7.16336">
        <ele>461</ele>
        <time>2010-07-23T07:55:21Z</time>
      </trkpt>
      <trkpt lat="43.84925" lon="7.16333">
        <ele>447</ele>
        <time>2010-07-23T07:55:34Z</time>
      </trkpt>
      <trkpt lat="43.84917" lon="7.16327">
        <ele>450</ele>
        <time>2010-07-23T07:55:42Z</time>
      </trkpt>
      <trkpt lat="43.84909" lon="7.16328">
        <ele>455</ele>
        <time>2010-07-23T07:55:49Z</time>
      </trkpt>
      <trkpt lat="43.84902" lon="7.16335">
        <ele>455</ele>
        <time>2010-07-23T07:55:57Z</time>
      </trkpt>
      <trkpt lat="43.849" lon="7.16337">
        <ele>452</ele>
        <time>2010-07-23T07:56:06Z</time>
      </trkpt>
      <trkpt lat="43.8491" lon="7.16347">
        <ele>448</ele>
        <time>2010-07-23T07:56:13Z</time>
      </trkpt>
      <trkpt lat="43.84908" lon="7.16356">
        <ele>447</ele>
        <time>2010-07-23T07:56:21Z</time>
      </trkpt>
      <trkpt lat="43.84903" lon="7.16353">
        <ele>443</ele>
        <time>2010-07-23T07:56:28Z</time>
      </trkpt>
      <trkpt lat="43.84901" lon="7.16356">
        <ele>442</ele>
        <time>2010-07-23T07:56:38Z</time>
      </trkpt>
      <trkpt lat="43.84901" lon="7.16367">
        <ele>442</ele>
        <time>2010-07-23T07:56:45Z</time>
      </trkpt>
      <trkpt lat="43.84897" lon="7.16371">
        <ele>436</ele>
        <time>2010-07-23T07:56:52Z</time>
      </trkpt>
      <trkpt lat="43.84892" lon="7.16364">
        <ele>435</ele>
        <time>2010-07-23T07:56:59Z</time>
      </trkpt>
      <trkpt lat="43.84884" lon="7.16381">
        <ele>431</ele>
        <time>2010-07-23T07:57:06Z</time>
      </trkpt>
      <trkpt lat="43.84863" lon="7.16407">
        <ele>428</ele>
        <time>2010-07-23T07:57:13Z</time>
      </trkpt>
      <trkpt lat="43.84844" lon="7.16432">
        <ele>421</ele>
        <time>2010-07-23T07:57:20Z</time>
      </trkpt>
      <trkpt lat="43.84829" lon="7.16476">
        <ele>412</ele>
        <time>2010-07-23T07:57:27Z</time>
      </trkpt>
      <trkpt lat="43.84816" lon="7.165">
        <ele>407</ele>
        <time>2010-07-23T07:57:34Z</time>
      </trkpt>
      <trkpt lat="43.84806" lon="7.16534">
        <ele>407</ele>
        <time>2010-07-23T07:57:42Z</time>
      </trkpt>
      <trkpt lat="43.84772" lon="7.16572">
        <ele>407</ele>
        <time>2010-07-23T07:57:49Z</time>
      </trkpt>
      <trkpt lat="43.8475" lon="7.1661">
        <ele>407</ele>
        <time>2010-07-23T07:57:57Z</time>
      </trkpt>
      <trkpt lat="43.84722" lon="7.16652">
        <ele>405</ele>
        <time>2010-07-23T07:58:04Z</time>
      </trkpt>
      <trkpt lat="43.84677" lon="7.1669">
        <ele>405</ele>
        <time>2010-07-23T07:58:12Z</time>
      </trkpt>
      <trkpt lat="43.84641" lon="7.16714">
        <ele>405</ele>
        <time>2010-07-23T07:58:19Z</time>
      </trkpt>
      <trkpt lat="43.84621" lon="7.16746">
        <ele>405</ele>
        <time>2010-07-23T07:58:27Z</time>
      </trkpt>
      <trkpt lat="43.84606" lon="7.16774">
        <ele>405</ele>
        <time>2010-07-23T07:58:34Z</time>
      </trkpt>
      <trkpt lat="43.84586" lon="7.16811">
        <ele>405</ele>
        <time>2010-07-23T07:58:41Z</time>
      </trkpt>
      <trkpt lat="43.84581" lon="7.16799">
        <ele>398</ele>
        <time>2010-07-23T07:58:48Z</time>
      </trkpt>
      <trkpt lat="43.84568" lon="7.16745">
        <ele>391</ele>
        <time>2010-07-23T07:58:55Z</time>
      </trkpt>
      <trkpt lat="43.84578" lon="7.16684">
        <ele>388</ele>
        <time>2010-07-23T07:59:02Z</time>
      </trkpt>
      <trkpt lat="43.846" lon="7.16637">
        <ele>382</ele>
        <time>2010-07-23T07:59:09Z</time>
      </trkpt>
      <trkpt lat="43.84605" lon="7.16623">
        <ele>379</ele>
        <time>2010-07-23T07:59:17Z</time>
      </trkpt>
      <trkpt lat="43.84602" lon="7.16626">
        <ele>379</ele>
        <time>2010-07-23T07:59:25Z</time>
      </trkpt>
      <trkpt lat="43.84598" lon="7.1664">
        <ele>378</ele>
        <time>2010-07-23T07:59:32Z</time>
      </trkpt>
      <trkpt lat="43.84589" lon="7.16649">
        <ele>378</ele>
        <time>2010-07-23T07:59:43Z</time>
      </trkpt>
      <trkpt lat="43.84567" lon="7.16659">
        <ele>378</ele>
        <time>2010-07-23T07:59:50Z</time>
      </trkpt>
      <trkpt lat="43.84554" lon="7.16667">
        <ele>378</ele>
        <time>2010-07-23T08:00:00Z</time>
      </trkpt>
      <trkpt lat="43.8454" lon="7.16665">
        <ele>377</ele>
        <time>2010-07-23T08:00:07Z</time>
      </trkpt>
      <trkpt lat="43.84522" lon="7.1665">
        <ele>371</ele>
        <time>2010-07-23T08:00:14Z</time>
      </trkpt>
      <trkpt lat="43.84515" lon="7.16649">
        <ele>367</ele>
        <time>2010-07-23T08:00:25Z</time>
      </trkpt>
      <trkpt lat="43.84515" lon="7.16651">
        <ele>363</ele>
        <time>2010-07-23T08:00:32Z</time>
      </trkpt>
      <trkpt lat="43.84519" lon="7.16668">
        <ele>360</ele>
        <time>2010-07-23T08:00:39Z</time>
      </trkpt>
      <trkpt lat="43.8452" lon="7.167">
        <ele>357</ele>
        <time>2010-07-23T08:00:46Z</time>
      </trkpt>
      <trkpt lat="43.84507" lon="7.16718">
        <ele>357</ele>
        <time>2010-07-23T08:00:53Z</time>
      </trkpt>
      <trkpt lat="43.84498" lon="7.16732">
        <ele>354</ele>
        <time>2010-07-23T08:01:00Z</time>
      </trkpt>
      <trkpt lat="43.84497" lon="7.16739">
        <ele>352</ele>
        <time>2010-07-23T08:01:08Z</time>
      </trkpt>
      <trkpt lat="43.84494" lon="7.16743">
        <ele>352</ele>
        <time>2010-07-23T08:01:17Z</time>
      </trkpt>
      <trkpt lat="43.84492" lon="7.16758">
        <ele>350</ele>
        <time>2010-07-23T08:01:24Z</time>
      </trkpt>
      <trkpt lat="43.84489" lon="7.16766">
        <ele>347</ele>
        <time>2010-07-23T08:01:32Z</time>
      </trkpt>
      <trkpt lat="43.84487" lon="7.16771">
        <ele>344</ele>
        <time>2010-07-23T08:01:39Z</time>
      </trkpt>
      <trkpt lat="43.84488" lon="7.16771">
        <ele>342</ele>
        <time>2010-07-23T08:01:55Z</time>
      </trkpt>
      <trkpt lat="43.84483" lon="7.16769">
        <ele>342</ele>
        <time>2010-07-23T08:02:03Z</time>
      </trkpt>
      <trkpt lat="43.84485" lon="7.16781">
        <ele>342</ele>
        <time>2010-07-23T08:02:10Z</time>
      </trkpt>
      <trkpt lat="43.8448" lon="7.16779">
        <ele>339</ele>
        <time>2010-07-23T08:02:17Z</time>
      </trkpt>
      <trkpt lat="43.84473" lon="7.1677">
        <ele>335</ele>
        <time>2010-07-23T08:02:24Z</time>
      </trkpt>
      <trkpt lat="43.84472" lon="7.16775">
        <ele>335</ele>
        <time>2010-07-23T08:02:31Z</time>
      </trkpt>
      <trkpt lat="43.84475" lon="7.16787">
        <ele>333</ele>
        <time>2010-07-23T08:02:38Z</time>
      </trkpt>
      <trkpt lat="43.84468" lon="7.1681">
        <ele>329</ele>
        <time>2010-07-23T08:02:45Z</time>
      </trkpt>
      <trkpt lat="43.84455" lon="7.16821">
        <ele>326</ele>
        <time>2010-07-23T08:02:52Z</time>
      </trkpt>
      <trkpt lat="43.84456" lon="7.16819">
        <ele>324</ele>
        <time>2010-07-23T08:02:59Z</time>
      </trkpt>
      <trkpt lat="43.84455" lon="7.16813">
        <ele>319</ele>
        <time>2010-07-23T08:03:07Z</time>
      </trkpt>
      <trkpt lat="43.84455" lon="7.16803">
        <ele>315</ele>
        <time>2010-07-23T08:03:14Z</time>
      </trkpt>
      <trkpt lat="43.84449" lon="7.1681">
        <ele>315</ele>
        <time>2010-07-23T08:03:21Z</time>
      </trkpt>
      <trkpt lat="43.84438" lon="7.16813">
        <ele>310</ele>
        <time>2010-07-23T08:03:30Z</time>
      </trkpt>
      <trkpt lat="43.84433" lon="7.16813">
        <ele>306</ele>
        <time>2010-07-23T08:03:38Z</time>
      </trkpt>
      <trkpt lat="43.84428" lon="7.16806">
        <ele>303</ele>
        <time>2010-07-23T08:03:46Z</time>
      </trkpt>
      <trkpt lat="43.84421" lon="7.16816">
        <ele>298</ele>
        <time>2010-07-23T08:03:53Z</time>
      </trkpt>
      <trkpt lat="43.84412" lon="7.16827">
        <ele>293</ele>
        <time>2010-07-23T08:04:00Z</time>
      </trkpt>
      <trkpt lat="43.84402" lon="7.16837">
        <ele>290</ele>
        <time>2010-07-23T08:04:07Z</time>
      </trkpt>
      <trkpt lat="43.84392" lon="7.16848">
        <ele>287</ele>
        <time>2010-07-23T08:04:14Z</time>
      </trkpt>
      <trkpt lat="43.84386" lon="7.16862">
        <ele>284</ele>
        <time>2010-07-23T08:04:22Z</time>
      </trkpt>
      <trkpt lat="43.84382" lon="7.16865">
        <ele>281</ele>
        <time>2010-07-23T08:04:29Z</time>
      </trkpt>
      <trkpt lat="43.84376" lon="7.16879">
        <ele>276</ele>
        <time>2010-07-23T08:04:36Z</time>
      </trkpt>
      <trkpt lat="43.84369" lon="7.16892">
        <ele>273</ele>
        <time>2010-07-23T08:04:43Z</time>
      </trkpt>
      <trkpt lat="43.84361" lon="7.16906">
        <ele>267</ele>
        <time>2010-07-23T08:04:50Z</time>
      </trkpt>
      <trkpt lat="43.84351" lon="7.16923">
        <ele>261</ele>
        <time>2010-07-23T08:04:57Z</time>
      </trkpt>
      <trkpt lat="43.84342" lon="7.16937">
        <ele>257</ele>
        <time>2010-07-23T08:05:04Z</time>
      </trkpt>
      <trkpt lat="43.84339" lon="7.16932">
        <ele>257</ele>
        <time>2010-07-23T08:05:15Z</time>
      </trkpt>
      <trkpt lat="43.84335" lon="7.16931">
        <ele>254</ele>
        <time>2010-07-23T08:05:25Z</time>
      </trkpt>
      <trkpt lat="43.83841" lon="7.17255">
        <ele>108</ele>
        <time>2010-07-23T08:05:33Z</time>
      </trkpt>
      <trkpt lat="43.83826" lon="7.17242">
        <ele>106</ele>
        <time>2010-07-23T08:05:40Z</time>
      </trkpt>
      <trkpt lat="43.83817" lon="7.17236">
        <ele>109</ele>
        <time>2010-07-23T08:05:48Z</time>
      </trkpt>
      <trkpt lat="43.83808" lon="7.17243">
        <ele>114</ele>
        <time>2010-07-23T08:05:58Z</time>
      </trkpt>
      <trkpt lat="43.83805" lon="7.17249">
        <ele>116</ele>
        <time>2010-07-23T08:06:05Z</time>
      </trkpt>
      <trkpt lat="43.83791" lon="7.1727">
        <ele>116</ele>
        <time>2010-07-23T08:06:13Z</time>
      </trkpt>
      <trkpt lat="43.83776" lon="7.173">
        <ele>117</ele>
        <time>2010-07-23T08:06:25Z</time>
      </trkpt>
      <trkpt lat="43.8345" lon="7.17388">
        <ele>124</ele>
        <time>2010-07-23T08:06:34Z</time>
      </trkpt>
      <trkpt lat="43.83413" lon="7.17413">
        <ele>124</ele>
        <time>2010-07-23T08:06:41Z</time>
      </trkpt>
      <trkpt lat="43.83388" lon="7.17432">
        <ele>124</ele>
        <time>2010-07-23T08:06:49Z</time>
      </trkpt>
      <trkpt lat="43.83334" lon="7.17479">
        <ele>124</ele>
        <time>2010-07-23T08:06:57Z</time>
      </trkpt>
      <trkpt lat="43.7913" lon="7.20878">
        <ele>84</ele>
        <time>2010-07-23T08:07:05Z</time>
      </trkpt>
      <trkpt lat="43.79101" lon="7.20912">
        <ele>83</ele>
        <time>2010-07-23T08:07:12Z</time>
      </trkpt>
      <trkpt lat="43.7908" lon="7.20936">
        <ele>83</ele>
        <time>2010-07-23T08:07:19Z</time>
      </trkpt>
      <trkpt lat="43.79036" lon="7.20988">
        <ele>83</ele>
        <time>2010-07-23T08:07:27Z</time>
      </trkpt>
      <trkpt lat="43.76645" lon="7.20188">
        <ele>65</ele>
        <time>2010-07-23T08:07:34Z</time>
      </trkpt>
      <trkpt lat="43.76639" lon="7.20166">
        <ele>65</ele>
        <time>2010-07-23T08:07:41Z</time>
      </trkpt>
      <trkpt lat="43.76614" lon="7.20166">
        <ele>65</ele>
        <time>2010-07-23T08:07:49Z</time>
      </trkpt>
      <trkpt lat="43.76602" lon="7.20169">
        <ele>65</ele>
        <time>2010-07-23T08:07:56Z</time>
      </trkpt>
      <trkpt lat="43.76587" lon="7.20163">
        <ele>65</ele>
        <time>2010-07-23T08:08:04Z</time>
      </trkpt>
      <trkpt lat="43.76574" lon="7.20193">
        <ele>65</ele>
        <time>2010-07-23T08:08:11Z</time>
      </trkpt>
      <trkpt lat="43.76558" lon="7.20227">
        <ele>64</ele>
        <time>2010-07-23T08:08:19Z</time>
      </trkpt>
      <trkpt lat="43.76546" lon="7.20248">
        <ele>64</ele>
        <time>2010-07-23T08:08:26Z</time>
      </trkpt>
      <trkpt lat="43.76528" lon="7.2028">
        <ele>63</ele>
        <time>2010-07-23T08:08:34Z</time>
      </trkpt>
      <trkpt lat="43.76511" lon="7.2031">
        <ele>63</ele>
        <time>2010-07-23T08:08:41Z</time>
      </trkpt>
      <trkpt lat="43.76492" lon="7.20341">
        <ele>63</ele>
        <time>2010-07-23T08:08:49Z</time>
      </trkpt>
      <trkpt lat="43.76475" lon="7.20371">
        <ele>63</ele>
        <time>2010-07-23T08:08:56Z</time>
      </trkpt>
      <trkpt lat="43.76456" lon="7.20403">
        <ele>63</ele>
        <time>2010-07-23T08:09:04Z</time>
      </trkpt>
      <trkpt lat="43.7644" lon="7.20431">
        <ele>63</ele>
        <time>2010-07-23T08:09:11Z</time>
      </trkpt>
      <trkpt lat="43.76421" lon="7.20466">
        <ele>63</ele>
        <time>2010-07-23T08:09:19Z</time>
      </trkpt>
      <trkpt lat="43.76405" lon="7.20489">
        <ele>63</ele>
        <time>2010-07-23T08:09:26Z</time>
      </trkpt>
      <trkpt lat="43.76395" lon="7.20507">
        <ele>61</ele>
        <time>2010-07-23T08:09:33Z</time>
      </trkpt>
      <trkpt lat="43.7639" lon="7.20517">
        <ele>60</ele>
        <time>2010-07-23T08:09:42Z</time>
      </trkpt>
      <trkpt lat="43.76392" lon="7.20538">
        <ele>59</ele>
        <time>2010-07-23T08:09:49Z</time>
      </trkpt>
      <trkpt lat="43.76392" lon="7.20559">
        <ele>59</ele>
        <time>2010-07-23T08:09:56Z</time>
      </trkpt>
      <trkpt lat="43.76382" lon="7.2058">
        <ele>62</ele>
        <time>2010-07-23T08:10:04Z</time>
      </trkpt>
      <trkpt lat="43.76378" lon="7.20599">
        <ele>63</ele>
        <time>2010-07-23T08:10:11Z</time>
      </trkpt>
      <trkpt lat="43.76363" lon="7.20617">
        <ele>64</ele>
        <time>2010-07-23T08:10:19Z</time>
      </trkpt>
      <trkpt lat="43.76341" lon="7.20631">
        <ele>67</ele>
        <time>2010-07-23T08:10:26Z</time>
      </trkpt>
      <trkpt lat="43.76316" lon="7.20645">
        <ele>67</ele>
        <time>2010-07-23T08:10:34Z</time>
      </trkpt>
      <trkpt lat="43.76288" lon="7.20651">
        <ele>67</ele>
        <time>2010-07-23T08:10:41Z</time>
      </trkpt>
      <trkpt lat="43.76283" lon="7.20664">
        <ele>59</ele>
        <time>2010-07-23T08:10:49Z</time>
      </trkpt>
      <trkpt lat="43.7629" lon="7.2068">
        <ele>63</ele>
        <time>2010-07-23T08:10:57Z</time>
      </trkpt>
      <trkpt lat="43.76308" lon="7.2069">
        <ele>66</ele>
        <time>2010-07-23T08:11:04Z</time>
      </trkpt>
      <trkpt lat="43.76331" lon="7.20708">
        <ele>66</ele>
        <time>2010-07-23T08:11:12Z</time>
      </trkpt>
      <trkpt lat="43.76347" lon="7.2073">
        <ele>68</ele>
        <time>2010-07-23T08:11:19Z</time>
      </trkpt>
      <trkpt lat="43.76368" lon="7.20756">
        <ele>70</ele>
        <time>2010-07-23T08:11:27Z</time>
      </trkpt>
      <trkpt lat="43.76385" lon="7.20778">
        <ele>70</ele>
        <time>2010-07-23T08:11:34Z</time>
      </trkpt>
      <trkpt lat="43.76405" lon="7.20804">
        <ele>72</ele>
        <time>2010-07-23T08:11:42Z</time>
      </trkpt>
      <trkpt lat="43.76468" lon="7.20853">
        <ele>75</ele>
        <time>2010-07-23T08:11:59Z</time>
      </trkpt>
      <trkpt lat="43.76492" lon="7.20857">
        <ele>78</ele>
        <time>2010-07-23T08:12:07Z</time>
      </trkpt>
      <trkpt lat="43.76527" lon="7.20858">
        <ele>78</ele>
        <time>2010-07-23T08:12:14Z</time>
      </trkpt>
      <trkpt lat="43.7656" lon="7.20864">
        <ele>74</ele>
        <time>2010-07-23T08:12:22Z</time>
      </trkpt>
      <trkpt lat="43.76591" lon="7.20867">
        <ele>73</ele>
        <time>2010-07-23T08:12:29Z</time>
      </trkpt>
      <trkpt lat="43.76623" lon="7.20875">
        <ele>72</ele>
        <time>2010-07-23T08:12:37Z</time>
      </trkpt>
      <trkpt lat="43.76658" lon="7.20885">
        <ele>70</ele>
        <time>2010-07-23T08:12:44Z</time>
      </trkpt>
      <trkpt lat="43.76695" lon="7.20894">
        <ele>68</ele>
        <time>2010-07-23T08:12:52Z</time>
      </trkpt>
      <trkpt lat="43.76722" lon="7.20902">
        <ele>68</ele>
        <time>2010-07-23T08:12:59Z</time>
      </trkpt>
      <trkpt lat="43.7675" lon="7.20915">
        <ele>68</ele>
        <time>2010-07-23T08:13:07Z</time>
      </trkpt>
      <trkpt lat="43.76772" lon="7.20941">
        <ele>68</ele>
        <time>2010-07-23T08:13:14Z</time>
      </trkpt>
      <trkpt lat="43.76797" lon="7.20975">
        <ele>68</ele>
        <time>2010-07-23T08:13:24Z</time>
      </trkpt>
      <trkpt lat="43.77241" lon="7.21423">
        <ele>72</ele>
        <time>2010-07-23T08:13:32Z</time>
      </trkpt>
      <trkpt lat="43.77287" lon="7.2146">
        <ele>72</ele>
        <time>2010-07-23T08:13:44Z</time>
      </trkpt>
      <trkpt lat="43.77331" lon="7.21498">
        <ele>72</ele>
        <time>2010-07-23T08:13:54Z</time>
      </trkpt>
      <trkpt lat="43.77344" lon="7.21509">
        <ele>72</ele>
        <time>2010-07-23T08:14:02Z</time>
      </trkpt>
      <trkpt lat="43.77344" lon="7.21505">
        <ele>72</ele>
        <time>2010-07-23T08:14:22Z</time>
      </trkpt>
      <trkpt lat="43.7732" lon="7.21483">
        <ele>72</ele>
        <time>2010-07-23T08:14:30Z</time>
      </trkpt>
      <trkpt lat="43.77274" lon="7.21445">
        <ele>72</ele>
        <time>2010-07-23T08:14:38Z</time>
      </trkpt>
      <trkpt lat="43.77246" lon="7.21419">
        <ele>72</ele>
        <time>2010-07-23T08:14:45Z</time>
      </trkpt>
      <trkpt lat="43.77217" lon="7.2139">
        <ele>72</ele>
        <time>2010-07-23T08:14:57Z</time>
      </trkpt>
      <trkpt lat="43.77184" lon="7.21374">
        <ele>72</ele>
        <time>2010-07-23T08:15:04Z</time>
      </trkpt>
      <trkpt lat="43.77163" lon="7.21394">
        <ele>72</ele>
        <time>2010-07-23T08:15:12Z</time>
      </trkpt>
      <trkpt lat="43.77152" lon="7.21425">
        <ele>72</ele>
        <time>2010-07-23T08:15:20Z</time>
      </trkpt>
      <trkpt lat="43.77137" lon="7.21477">
        <ele>72</ele>
        <time>2010-07-23T08:15:28Z</time>
      </trkpt>
      <trkpt lat="43.77128" lon="7.21506">
        <ele>72</ele>
        <time>2010-07-23T08:15:35Z</time>
      </trkpt>
      <trkpt lat="43.77123" lon="7.21518">
        <ele>72</ele>
        <time>2010-07-23T08:15:43Z</time>
      </trkpt>
      <trkpt lat="43.77124" lon="7.21521">
        <ele>72</ele>
        <time>2010-07-23T08:15:51Z</time>
      </trkpt>
      <trkpt lat="43.77133" lon="7.21537">
        <ele>72</ele>
        <time>2010-07-23T08:15:58Z</time>
      </trkpt>
      <trkpt lat="43.77145" lon="7.21563">
        <ele>72</ele>
        <time>2010-07-23T08:16:06Z</time>
      </trkpt>
      <trkpt lat="43.77151" lon="7.21597">
        <ele>72</ele>
        <time>2010-07-23T08:16:13Z</time>
      </trkpt>
      <trkpt lat="43.77157" lon="7.2163">
        <ele>72</ele>
        <time>2010-07-23T08:16:20Z</time>
      </trkpt>
      <trkpt lat="43.77163" lon="7.21664">
        <ele>72</ele>
        <time>2010-07-23T08:16:27Z</time>
      </trkpt>
      <trkpt lat="43.7717" lon="7.21695">
        <ele>75</ele>
        <time>2010-07-23T08:16:34Z</time>
      </trkpt>
      <trkpt lat="43.77174" lon="7.21713">
        <ele>76</ele>
        <time>2010-07-23T08:16:46Z</time>
      </trkpt>
      <trkpt lat="43.77176" lon="7.21715">
        <ele>76</ele>
        <time>2010-07-23T08:16:57Z</time>
      </trkpt>
      <trkpt lat="43.77176" lon="7.21717">
        <ele>76</ele>
        <time>2010-07-23T08:17:24Z</time>
      </trkpt>
      <trkpt lat="43.77175" lon="7.21727">
        <ele>76</ele>
        <time>2010-07-23T08:17:32Z</time>
      </trkpt>
      <trkpt lat="43.77175" lon="7.21751">
        <ele>76</ele>
        <time>2010-07-23T08:17:40Z</time>
      </trkpt>
      <trkpt lat="43.77176" lon="7.21775">
        <ele>76</ele>
        <time>2010-07-23T08:17:47Z</time>
      </trkpt>
      <trkpt lat="43.77177" lon="7.21798">
        <ele>77</ele>
        <time>2010-07-23T08:17:54Z</time>
      </trkpt>
      <trkpt lat="43.77176" lon="7.21821">
        <ele>79</ele>
        <time>2010-07-23T08:18:01Z</time>
      </trkpt>
      <trkpt lat="43.77178" lon="7.21848">
        <ele>81</ele>
        <time>2010-07-23T08:18:08Z</time>
      </trkpt>
      <trkpt lat="43.77178" lon="7.21873">
        <ele>84</ele>
        <time>2010-07-23T08:18:15Z</time>
      </trkpt>
      <trkpt lat="43.77177" lon="7.21899">
        <ele>86</ele>
        <time>2010-07-23T08:18:22Z</time>
      </trkpt>
      <trkpt lat="43.77178" lon="7.21925">
        <ele>87</ele>
        <time>2010-07-23T08:18:29Z</time>
      </trkpt>
      <trkpt lat="43.77179" lon="7.2195">
        <ele>87</ele>
        <time>2010-07-23T08:18:36Z</time>
      </trkpt>
      <trkpt lat="43.7718" lon="7.21975">
        <ele>88</ele>
        <time>2010-07-23T08:18:43Z</time>
      </trkpt>
      <trkpt lat="43.77183" lon="7.21998">
        <ele>88</ele>
        <time>2010-07-23T08:18:50Z</time>
      </trkpt>
      <trkpt lat="43.77188" lon="7.2202">
        <ele>88</ele>
        <time>2010-07-23T08:18:57Z</time>
      </trkpt>
      <trkpt lat="43.77192" lon="7.22042">
        <ele>89</ele>
        <time>2010-07-23T08:19:04Z</time>
      </trkpt>
      <trkpt lat="43.77195" lon="7.22067">
        <ele>91</ele>
        <time>2010-07-23T08:19:11Z</time>
      </trkpt>
      <trkpt lat="43.772" lon="7.22091">
        <ele>91</ele>
        <time>2010-07-23T08:19:18Z</time>
      </trkpt>
      <trkpt lat="43.77205" lon="7.22115">
        <ele>91</ele>
        <time>2010-07-23T08:19:25Z</time>
      </trkpt>
      <trkpt lat="43.7721" lon="7.22141">
        <ele>91</ele>
        <time>2010-07-23T08:19:32Z</time>
      </trkpt>
      <trkpt lat="43.77214" lon="7.22166">
        <ele>91</ele>
        <time>2010-07-23T08:19:39Z</time>
      </trkpt>
      <trkpt lat="43.7722" lon="7.22194">
        <ele>92</ele>
        <time>2010-07-23T08:19:46Z</time>
      </trkpt>
      <trkpt lat="43.77216" lon="7.2222">
        <ele>93</ele>
        <time>2010-07-23T08:19:53Z</time>
      </trkpt>
      <trkpt lat="43.77209" lon="7.22242">
        <ele>93</ele>
        <time>2010-07-23T08:20:00Z</time>
      </trkpt>
      <trkpt lat="43.77202" lon="7.22266">
        <ele>93</ele>
        <time>2010-07-23T08:20:07Z</time>
      </trkpt>
      <trkpt lat="43.77201" lon="7.2229">
        <ele>94</ele>
        <time>2010-07-23T08:20:14Z</time>
      </trkpt>
      <trkpt lat="43.77205" lon="7.2231">
        <ele>97</ele>
        <time>2010-07-23T08:20:21Z</time>
      </trkpt>
      <trkpt lat="43.77208" lon="7.2233">
        <ele>99</ele>
        <time>2010-07-23T08:20:28Z</time>
      </trkpt>
      <trkpt lat="43.77213" lon="7.22346">
        <ele>100</ele>
        <time>2010-07-23T08:20:35Z</time>
      </trkpt>
      <trkpt lat="43.77216" lon="7.2236">
        <ele>101</ele>
        <time>2010-07-23T08:20:42Z</time>
      </trkpt>
      <trkpt lat="43.77222" lon="7.22367">
        <ele>101</ele>
        <time>2010-07-23T08:20:49Z</time>
      </trkpt>
      <trkpt lat="43.77229" lon="7.22369">
        <ele>102</ele>
        <time>2010-07-23T08:20:58Z</time>
      </trkpt>
      <trkpt lat="43.7723" lon="7.22369">
        <ele>104</ele>
        <time>2010-07-23T08:21:10Z</time>
      </trkpt>
      <trkpt lat="43.77224" lon="7.22367">
        <ele>106</ele>
        <time>2010-07-23T08:21:23Z</time>
      </trkpt>
      <trkpt lat="43.77223" lon="7.22363">
        <ele>116</ele>
        <time>2010-07-23T08:21:31Z</time>
      </trkpt>
      <trkpt lat="43.77233" lon="7.22367">
        <ele>121</ele>
        <time>2010-07-23T08:21:38Z</time>
      </trkpt>
      <trkpt lat="43.77243" lon="7.22371">
        <ele>121</ele>
        <time>2010-07-23T08:21:45Z</time>
      </trkpt>
      <trkpt lat="43.77252" lon="7.22376">
        <ele>120</ele>
        <time>2010-07-23T08:21:52Z</time>
      </trkpt>
      <trkpt lat="43.77261" lon="7.22381">
        <ele>120</ele>
        <time>2010-07-23T08:21:59Z</time>
      </trkpt>
      <trkpt lat="43.77269" lon="7.22386">
        <ele>120</ele>
        <time>2010-07-23T08:22:06Z</time>
      </trkpt>
      <trkpt lat="43.77277" lon="7.22391">
        <ele>120</ele>
        <time>2010-07-23T08:22:13Z</time>
      </trkpt>
      <trkpt lat="43.77287" lon="7.22397">
        <ele>120</ele>
        <time>2010-07-23T08:22:21Z</time>
      </trkpt>
      <trkpt lat="43.77296" lon="7.22403">
        <ele>120</ele>
        <time>2010-07-23T08:22:29Z</time>
      </trkpt>
      <trkpt lat="43.77304" lon="7.22409">
        <ele>120</ele>
        <time>2010-07-23T08:22:36Z</time>
      </trkpt>
      <trkpt lat="43.77313" lon="7.22415">
        <ele>122</ele>
        <time>2010-07-23T08:22:43Z</time>
      </trkpt>
      <trkpt lat="43.77322" lon="7.22418">
        <ele>123</ele>
        <time>2010-07-23T08:22:50Z</time>
      </trkpt>
      <trkpt lat="43.77331" lon="7.22423">
        <ele>123</ele>
        <time>2010-07-23T08:22:57Z</time>
      </trkpt>
      <trkpt lat="43.7734" lon="7.22427">
        <ele>124</ele>
        <time>2010-07-23T08:23:04Z</time>
      </trkpt>
      <trkpt lat="43.77351" lon="7.22432">
        <ele>124</ele>
        <time>2010-07-23T08:23:11Z</time>
      </trkpt>
      <trkpt lat="43.77351" lon="7.22442">
        <ele>124</ele>
        <time>2010-07-23T08:23:18Z</time>
      </trkpt>
      <trkpt lat="43.77341" lon="7.22441">
        <ele>125</ele>
        <time>2010-07-23T08:23:25Z</time>
      </trkpt>
      <trkpt lat="43.77328" lon="7.22438">
        <ele>125</ele>
        <time>2010-07-23T08:23:32Z</time>
      </trkpt>
      <trkpt lat="43.77319" lon="7.22436">
        <ele>126</ele>
        <time>2010-07-23T08:23:39Z</time>
      </trkpt>
      <trkpt lat="43.77309" lon="7.22437">
        <ele>129</ele>
        <time>2010-07-23T08:23:46Z</time>
      </trkpt>
      <trkpt lat="43.77302" lon="7.2244">
        <ele>131</ele>
        <time>2010-07-23T08:23:53Z</time>
      </trkpt>
      <trkpt lat="43.77294" lon="7.22443">
        <ele>133</ele>
        <time>2010-07-23T08:24:00Z</time>
      </trkpt>
      <trkpt lat="43.77286" lon="7.2245">
        <ele>134</ele>
        <time>2010-07-23T08:24:07Z</time>
      </trkpt>
      <trkpt lat="43.77282" lon="7.2246">
        <ele>135</ele>
        <time>2010-07-23T08:24:14Z</time>
      </trkpt>
      <trkpt lat="43.77282" lon="7.22471">
        <ele>137</ele>
        <time>2010-07-23T08:24:21Z</time>
      </trkpt>
      <trkpt lat="43.77287" lon="7.22475">
        <ele>138</ele>
        <time>2010-07-23T08:24:28Z</time>
      </trkpt>
      <trkpt lat="43.77295" lon="7.22468">
        <ele>139</ele>
        <time>2010-07-23T08:24:35Z</time>
      </trkpt>
      <trkpt lat="43.77303" lon="7.22463">
        <ele>139</ele>
        <time>2010-07-23T08:24:42Z</time>
      </trkpt>
      <trkpt lat="43.77313" lon="7.22462">
        <ele>139</ele>
        <time>2010-07-23T08:24:49Z</time>
      </trkpt>
      <trkpt lat="43.77317" lon="7.22472">
        <ele>141</ele>
        <time>2010-07-23T08:24:56Z</time>
      </trkpt>
      <trkpt lat="43.77309" lon="7.22481">
        <ele>144</ele>
        <time>2010-07-23T08:25:04Z</time>
      </trkpt>
      <trkpt lat="43.77303" lon="7.22485">
        <ele>145</ele>
        <time>2010-07-23T08:25:11Z</time>
      </trkpt>
      <trkpt lat="43.77299" lon="7.22498">
        <ele>146</ele>
        <time>2010-07-23T08:25:19Z</time>
      </trkpt>
      <trkpt lat="43.77303" lon="7.22507">
        <ele>148</ele>
        <time>2010-07-23T08:25:26Z</time>
      </trkpt>
      <trkpt lat="43.77311" lon="7.22506">
        <ele>150</ele>
        <time>2010-07-23T08:25:33Z</time>
      </trkpt>
      <trkpt lat="43.7732" lon="7.22506">
        <ele>151</ele>
        <time>2010-07-23T08:25:41Z</time>
      </trkpt>
      <trkpt lat="43.7732" lon="7.22518">
        <ele>152</ele>
        <time>2010-07-23T08:25:49Z</time>
      </trkpt>
      <trkpt lat="43.77313" lon="7.22525">
        <ele>153</ele>
        <time>2010-07-23T08:25:56Z</time>
      </trkpt>
      <trkpt lat="43.77306" lon="7.22531">
        <ele>155</ele>
        <time>2010-07-23T08:26:04Z</time>
      </trkpt>
      <trkpt lat="43.773" lon="7.22541">
        <ele>158</ele>
        <time>2010-07-23T08:26:11Z</time>
      </trkpt>
      <trkpt lat="43.77303" lon="7.22551">
        <ele>158</ele>
        <time>2010-07-23T08:26:19Z</time>
      </trkpt>
      <trkpt lat="43.773" lon="7.22552">
        <ele>161</ele>
        <time>2010-07-23T08:26:28Z</time>
      </trkpt>
      <trkpt lat="43.77298" lon="7.22552">
        <ele>163</ele>
        <time>2010-07-23T08:26:37Z</time>
      </trkpt>
      <trkpt lat="43.77297" lon="7.22553">
        <ele>164</ele>
        <time>2010-07-23T08:26:53Z</time>
      </trkpt>
      <trkpt lat="43.77298" lon="7.22549">
        <ele>164</ele>
        <time>2010-07-23T08:27:01Z</time>
      </trkpt>
      <trkpt lat="43.77312" lon="7.22523">
        <ele>165</ele>
        <time>2010-07-23T08:27:10Z</time>
      </trkpt>
      <trkpt lat="43.77319" lon="7.22519">
        <ele>165</ele>
        <time>2010-07-23T08:27:17Z</time>
      </trkpt>
      <trkpt lat="43.77322" lon="7.22522">
        <ele>164</ele>
        <time>2010-07-23T08:27:33Z</time>
      </trkpt>
      <trkpt lat="43.77324" lon="7.22524">
        <ele>164</ele>
        <time>2010-07-23T08:27:58Z</time>
      </trkpt>
      <trkpt lat="43.77321" lon="7.22521">
        <ele>164</ele>
        <time>2010-07-23T08:28:06Z</time>
      </trkpt>
      <trkpt lat="43.77316" lon="7.22526">
        <ele>162</ele>
        <time>2010-07-23T08:28:14Z</time>
      </trkpt>
      <trkpt lat="43.77311" lon="7.22526">
        <ele>162</ele>
        <time>2010-07-23T08:28:22Z</time>
      </trkpt>
      <trkpt lat="43.77316" lon="7.22524">
        <ele>162</ele>
        <time>2010-07-23T08:28:31Z</time>
      </trkpt>
      <trkpt lat="43.77319" lon="7.22519">
        <ele>162</ele>
        <time>2010-07-23T08:28:39Z</time>
      </trkpt>
      <trkpt lat="43.77325" lon="7.22523">
        <ele>162</ele>
        <time>2010-07-23T08:28:46Z</time>
      </trkpt>
      <trkpt lat="43.77324" lon="7.22529">
        <ele>162</ele>
        <time>2010-07-23T08:28:55Z</time>
      </trkpt>
      <trkpt lat="43.77324" lon="7.22533">
        <ele>162</ele>
        <time>2010-07-23T08:29:02Z</time>
      </trkpt>
      <trkpt lat="43.77322" lon="7.22535">
        <ele>162</ele>
        <time>2010-07-23T08:29:10Z</time>
      </trkpt>
      <trkpt lat="43.77323" lon="7.2254">
        <ele>165</ele>
        <time>2010-07-23T08:29:18Z</time>
      </trkpt>
      <trkpt lat="43.77326" lon="7.22545">
        <ele>165</ele>
        <time>2010-07-23T08:29:27Z</time>
      </trkpt>
      <trkpt lat="43.77327" lon="7.22549">
        <ele>165</ele>
        <time>2010-07-23T08:29:36Z</time>
      </trkpt>
      <trkpt lat="43.77327" lon="7.22551">
        <ele>165</ele>
        <time>2010-07-23T08:29:44Z</time>
      </trkpt>
      <trkpt lat="43.77327" lon="7.22553">
        <ele>165</ele>
        <time>2010-07-23T08:29:54Z</time>
      </trkpt>
      <trkpt lat="43.77329" lon="7.22553">
        <ele>165</ele>
        <time>2010-07-23T08:30:24Z</time>
      </trkpt>
      <trkpt lat="43.77327" lon="7.22554">
        <ele>168</ele>
        <time>2010-07-23T08:30:31Z</time>
      </trkpt>
      <trkpt lat="43.77325" lon="7.22551">
        <ele>169</ele>
        <time>2010-07-23T08:30:44Z</time>
      </trkpt>
      <trkpt lat="43.77326" lon="7.22545">
        <ele>169</ele>
        <time>2010-07-23T08:30:52Z</time>
      </trkpt>
      <trkpt lat="43.77328" lon="7.22544">
        <ele>167</ele>
        <time>2010-07-23T08:31:02Z</time>
      </trkpt>
      <trkpt lat="43.77325" lon="7.22538">
        <ele>167</ele>
        <time>2010-07-23T08:31:11Z</time>
      </trkpt>
      <trkpt lat="43.77324" lon="7.22537">
        <ele>167</ele>
        <time>2010-07-23T08:31:23Z</time>
      </trkpt>
      <trkpt lat="43.77324" lon="7.22534">
        <ele>167</ele>
        <time>2010-07-23T08:31:30Z</time>
      </trkpt>
      <trkpt lat="43.77322" lon="7.22526">
        <ele>167</ele>
        <time>2010-07-23T08:31:38Z</time>
      </trkpt>
      <trkpt lat="43.7732" lon="7.22517">
        <ele>167</ele>
        <time>2010-07-23T08:31:48Z</time>
      </trkpt>
      <trkpt lat="43.77321" lon="7.22515">
        <ele>166</ele>
        <time>2010-07-23T08:31:55Z</time>
      </trkpt>
      <trkpt lat="43.77321" lon="7.22516">
        <ele>160</ele>
        <time>2010-07-23T08:32:10Z</time>
      </trkpt>
      <trkpt lat="43.7732" lon="7.22516">
        <ele>160</ele>
        <time>2010-07-23T08:32:18Z</time>
      </trkpt>
      <trkpt lat="43.7732" lon="7.22515">
        <ele>160</ele>
        <time>2010-07-23T08:32:26Z</time>
      </trkpt>
      <trkpt lat="43.7732" lon="7.22516">
        <ele>160</ele>
        <time>2010-07-23T08:32:35Z</time>
      </trkpt>
      <trkpt lat="43.77318" lon="7.22511">
        <ele>162</ele>
        <time>2010-07-23T08:32:42Z</time>
      </trkpt>
      <trkpt lat="43.77319" lon="7.22509">
        <ele>162</ele>
        <time>2010-07-23T08:33:08Z</time>
      </trkpt>
      <trkpt lat="43.77319" lon="7.22511">
        <ele>162</ele>
        <time>2010-07-23T08:33:15Z</time>
      </trkpt>
      <trkpt lat="43.77321" lon="7.22511">
        <ele>161</ele>
        <time>2010-07-23T08:33:46Z</time>
      </trkpt>
      <trkpt lat="43.77326" lon="7.22513">
        <ele>161</ele>
        <time>2010-07-23T08:33:57Z</time>
      </trkpt>
      <trkpt lat="43.77327" lon="7.22513">
        <ele>161</ele>
        <time>2010-07-23T08:34:09Z</time>
      </trkpt>
      <trkpt lat="43.77326" lon="7.22513">
        <ele>161</ele>
        <time>2010-07-23T08:34:34Z</time>
      </trkpt>
      <trkpt lat="43.77325" lon="7.22511">
        <ele>161</ele>
        <time>2010-07-23T08:34:45Z</time>
      </trkpt>
      <trkpt lat="43.77325" lon="7.22509">
        <ele>161</ele>
        <time>2010-07-23T08:35:17Z</time>
      </trkpt>
      <trkpt lat="43.77325" lon="7.22507">
        <ele>161</ele>
        <time>2010-07-23T08:35:49Z</time>
      </trkpt>
      <trkpt lat="43.77318" lon="7.22501">
        <ele>160</ele>
        <time>2010-07-23T08:35:56Z</time>
      </trkpt>
      <trkpt lat="43.77305" lon="7.22487">
        <ele>157</ele>
        <time>2010-07-23T08:36:04Z</time>
      </trkpt>
      <trkpt lat="43.77314" lon="7.22479">
        <ele>152</ele>
        <time>2010-07-23T08:36:12Z</time>
      </trkpt>
      <trkpt lat="43.77311" lon="7.22463">
        <ele>150</ele>
        <time>2010-07-23T08:36:20Z</time>
      </trkpt>
      <trkpt lat="43.77285" lon="7.22475">
        <ele>145</ele>
        <time>2010-07-23T08:36:27Z</time>
      </trkpt>
      <trkpt lat="43.77293" lon="7.22444">
        <ele>142</ele>
        <time>2010-07-23T08:36:35Z</time>
      </trkpt>
      <trkpt lat="43.77323" lon="7.22436">
        <ele>136</ele>
        <time>2010-07-23T08:36:42Z</time>
      </trkpt>
      <trkpt lat="43.77355" lon="7.22442">
        <ele>128</ele>
        <time>2010-07-23T08:36:50Z</time>
      </trkpt>
      <trkpt lat="43.77331" lon="7.22421">
        <ele>126</ele>
        <time>2010-07-23T08:36:57Z</time>
      </trkpt>
      <trkpt lat="43.77293" lon="7.22401">
        <ele>121</ele>
        <time>2010-07-23T08:37:04Z</time>
      </trkpt>
      <trkpt lat="43.77245" lon="7.22373">
        <ele>113</ele>
        <time>2010-07-23T08:37:12Z</time>
      </trkpt>
      <trkpt lat="43.77221" lon="7.22368">
        <ele>107</ele>
        <time>2010-07-23T08:37:20Z</time>
      </trkpt>
      <trkpt lat="43.77214" lon="7.22366">
        <ele>107</ele>
        <time>2010-07-23T08:37:27Z</time>
      </trkpt>
      <trkpt lat="43.77206" lon="7.22362">
        <ele>110</ele>
        <time>2010-07-23T08:37:36Z</time>
      </trkpt>
      <trkpt lat="43.772" lon="7.22322">
        <ele>108</ele>
        <time>2010-07-23T08:37:44Z</time>
      </trkpt>
      <trkpt lat="43.77197" lon="7.22278">
        <ele>106</ele>
        <time>2010-07-23T08:37:51Z</time>
      </trkpt>
      <trkpt lat="43.77215" lon="7.22222">
        <ele>103</ele>
        <time>2010-07-23T08:37:58Z</time>
      </trkpt>
      <trkpt lat="43.77216" lon="7.22153">
        <ele>99</ele>
        <time>2010-07-23T08:38:06Z</time>
      </trkpt>
      <trkpt lat="43.77205" lon="7.22094">
        <ele>99</ele>
        <time>2010-07-23T08:38:13Z</time>
      </trkpt>
      <trkpt lat="43.7719" lon="7.2202">
        <ele>99</ele>
        <time>2010-07-23T08:38:21Z</time>
      </trkpt>
      <trkpt lat="43.77181" lon="7.21944">
        <ele>95</ele>
        <time>2010-07-23T08:38:28Z</time>
      </trkpt>
      <trkpt lat="43.77179" lon="7.2185">
        <ele>90</ele>
        <time>2010-07-23T08:38:36Z</time>
      </trkpt>
      <trkpt lat="43.7718" lon="7.21772">
        <ele>85</ele>
        <time>2010-07-23T08:38:43Z</time>
      </trkpt>
      <trkpt lat="43.77174" lon="7.21691">
        <ele>81</ele>
        <time>2010-07-23T08:38:51Z</time>
      </trkpt>
      <trkpt lat="43.77158" lon="7.21621">
        <ele>78</ele>
        <time>2010-07-23T08:38:58Z</time>
      </trkpt>
      <trkpt lat="43.77143" lon="7.21548">
        <ele>77</ele>
        <time>2010-07-23T08:39:06Z</time>
      </trkpt>
      <trkpt lat="43.77144" lon="7.21485">
        <ele>76</ele>
        <time>2010-07-23T08:39:13Z</time>
      </trkpt>
      <trkpt lat="43.77158" lon="7.21422">
        <ele>76</ele>
        <time>2010-07-23T08:39:20Z</time>
      </trkpt>
      <trkpt lat="43.77176" lon="7.21382">
        <ele>76</ele>
        <time>2010-07-23T08:39:27Z</time>
      </trkpt>
      <trkpt lat="43.77179" lon="7.2137">
        <ele>76</ele>
        <time>2010-07-23T08:39:43Z</time>
      </trkpt>
      <trkpt lat="43.77178" lon="7.2137">
        <ele>76</ele>
        <time>2010-07-23T08:39:55Z</time>
      </trkpt>
      <trkpt lat="43.77178" lon="7.21367">
        <ele>76</ele>
        <time>2010-07-23T08:40:04Z</time>
      </trkpt>
      <trkpt lat="43.7717" lon="7.21344">
        <ele>75</ele>
        <time>2010-07-23T08:40:11Z</time>
      </trkpt>
      <trkpt lat="43.77145" lon="7.21317">
        <ele>73</ele>
        <time>2010-07-23T08:40:19Z</time>
      </trkpt>
      <trkpt lat="43.77117" lon="7.21287">
        <ele>71</ele>
        <time>2010-07-23T08:40:26Z</time>
      </trkpt>
      <trkpt lat="43.77081" lon="7.21249">
        <ele>71</ele>
        <time>2010-07-23T08:40:34Z</time>
      </trkpt>
      <trkpt lat="43.7705" lon="7.21216">
        <ele>70</ele>
        <time>2010-07-23T08:40:41Z</time>
      </trkpt>
      <trkpt lat="43.77014" lon="7.21179">
        <ele>69</ele>
        <time>2010-07-23T08:40:49Z</time>
      </trkpt>
      <trkpt lat="43.76984" lon="7.21148">
        <ele>69</ele>
        <time>2010-07-23T08:40:56Z</time>
      </trkpt>
      <trkpt lat="43.76949" lon="7.21112">
        <ele>69</ele>
        <time>2010-07-23T08:41:04Z</time>
      </trkpt>
      <trkpt lat="43.76918" lon="7.2108">
        <ele>69</ele>
        <time>2010-07-23T08:41:11Z</time>
      </trkpt>
      <trkpt lat="43.76883" lon="7.21045">
        <ele>68</ele>
        <time>2010-07-23T08:41:19Z</time>
      </trkpt>
      <trkpt lat="43.76854" lon="7.21014">
        <ele>68</ele>
        <time>2010-07-23T08:41:26Z</time>
      </trkpt>
      <trkpt lat="43.76819" lon="7.20978">
        <ele>67</ele>
        <time>2010-07-23T08:41:34Z</time>
      </trkpt>
      <trkpt lat="43.7679" lon="7.20946">
        <ele>67</ele>
        <time>2010-07-23T08:41:41Z</time>
      </trkpt>
      <trkpt lat="43.76754" lon="7.20907">
        <ele>67</ele>
        <time>2010-07-23T08:41:49Z</time>
      </trkpt>
      <trkpt lat="43.76723" lon="7.20871">
        <ele>67</ele>
        <time>2010-07-23T08:41:56Z</time>
      </trkpt>
      <trkpt lat="43.76689" lon="7.20831">
        <ele>67</ele>
        <time>2010-07-23T08:42:04Z</time>
      </trkpt>
      <trkpt lat="43.76657" lon="7.20795">
        <ele>67</ele>
        <time>2010-07-23T08:42:11Z</time>
      </trkpt>
      <trkpt lat="43.7662" lon="7.20755">
        <ele>67</ele>
        <time>2010-07-23T08:42:19Z</time>
      </trkpt>
      <trkpt lat="43.76587" lon="7.2072">
        <ele>67</ele>
        <time>2010-07-23T08:42:26Z</time>
      </trkpt>
      <trkpt lat="43.7655" lon="7.20681">
        <ele>67</ele>
        <time>2010-07-23T08:42:34Z</time>
      </trkpt>
      <trkpt lat="43.7652" lon="7.20644">
        <ele>67</ele>
        <time>2010-07-23T08:42:41Z</time>
      </trkpt>
      <trkpt lat="43.76485" lon="7.20606">
        <ele>67</ele>
        <time>2010-07-23T08:42:49Z</time>
      </trkpt>
      <trkpt lat="43.76453" lon="7.20572">
        <ele>67</ele>
        <time>2010-07-23T08:42:56Z</time>
      </trkpt>
      <trkpt lat="43.76387" lon="7.20511">
        <ele>66</ele>
        <time>2010-07-23T08:43:06Z</time>
      </trkpt>
      <trkpt lat="43.76351" lon="7.20471">
        <ele>65</ele>
        <time>2010-07-23T08:43:13Z</time>
      </trkpt>
      <trkpt lat="43.76324" lon="7.20441">
        <ele>65</ele>
        <time>2010-07-23T08:43:20Z</time>
      </trkpt>
      <trkpt lat="43.76297" lon="7.20403">
        <ele>65</ele>
        <time>2010-07-23T08:43:27Z</time>
      </trkpt>
      <trkpt lat="43.76257" lon="7.2036">
        <ele>64</ele>
        <time>2010-07-23T08:43:35Z</time>
      </trkpt>
      <trkpt lat="43.76223" lon="7.20324">
        <ele>64</ele>
        <time>2010-07-23T08:43:42Z</time>
      </trkpt>
      <trkpt lat="43.76184" lon="7.20285">
        <ele>64</ele>
        <time>2010-07-23T08:43:50Z</time>
      </trkpt>
      <trkpt lat="43.76152" lon="7.2025">
        <ele>64</ele>
        <time>2010-07-23T08:43:57Z</time>
      </trkpt>
      <trkpt lat="43.76115" lon="7.20212">
        <ele>64</ele>
        <time>2010-07-23T08:44:05Z</time>
      </trkpt>
      <trkpt lat="43.76081" lon="7.20178">
        <ele>64</ele>
        <time>2010-07-23T08:44:12Z</time>
      </trkpt>
      <trkpt lat="43.76043" lon="7.20138">
        <ele>64</ele>
        <time>2010-07-23T08:44:20Z</time>
      </trkpt>
      <trkpt lat="43.76011" lon="7.20105">
        <ele>64</ele>
        <time>2010-07-23T08:44:27Z</time>
      </trkpt>
      <trkpt lat="43.75972" lon="7.20066">
        <ele>64</ele>
        <time>2010-07-23T08:44:35Z</time>
      </trkpt>
      <trkpt lat="43.75937" lon="7.20033">
        <ele>64</ele>
        <time>2010-07-23T08:44:42Z</time>
      </trkpt>
      <trkpt lat="43.75898" lon="7.19994">
        <ele>64</ele>
        <time>2010-07-23T08:44:50Z</time>
      </trkpt>
      <trkpt lat="43.75865" lon="7.19961">
        <ele>64</ele>
        <time>2010-07-23T08:44:57Z</time>
      </trkpt>
      <trkpt lat="43.75825" lon="7.19923">
        <ele>64</ele>
        <time>2010-07-23T08:45:05Z</time>
      </trkpt>
      <trkpt lat="43.7579" lon="7.1989">
        <ele>64</ele>
        <time>2010-07-23T08:45:12Z</time>
      </trkpt>
      <trkpt lat="43.75753" lon="7.19852">
        <ele>64</ele>
        <time>2010-07-23T08:45:20Z</time>
      </trkpt>
      <trkpt lat="43.7572" lon="7.19823">
        <ele>63</ele>
        <time>2010-07-23T08:45:27Z</time>
      </trkpt>
      <trkpt lat="43.75682" lon="7.19797">
        <ele>62</ele>
        <time>2010-07-23T08:45:35Z</time>
      </trkpt>
      <trkpt lat="43.75655" lon="7.19774">
        <ele>61</ele>
        <time>2010-07-23T08:45:42Z</time>
      </trkpt>
      <trkpt lat="43.75624" lon="7.19744">
        <ele>61</ele>
        <time>2010-07-23T08:45:50Z</time>
      </trkpt>
      <trkpt lat="43.75597" lon="7.19709">
        <ele>61</ele>
        <time>2010-07-23T08:45:57Z</time>
      </trkpt>
      <trkpt lat="43.75565" lon="7.19674">
        <ele>60</ele>
        <time>2010-07-23T08:46:05Z</time>
      </trkpt>
      <trkpt lat="43.75534" lon="7.19642">
        <ele>60</ele>
        <time>2010-07-23T08:46:12Z</time>
      </trkpt>
      <trkpt lat="43.75497" lon="7.19604">
        <ele>60</ele>
        <time>2010-07-23T08:46:20Z</time>
      </trkpt>
      <trkpt lat="43.75466" lon="7.1957">
        <ele>59</ele>
        <time>2010-07-23T08:46:27Z</time>
      </trkpt>
      <trkpt lat="43.75428" lon="7.19532">
        <ele>59</ele>
        <time>2010-07-23T08:46:35Z</time>
      </trkpt>
      <trkpt lat="43.75397" lon="7.195">
        <ele>59</ele>
        <time>2010-07-23T08:46:42Z</time>
      </trkpt>
      <trkpt lat="43.75361" lon="7.19467">
        <ele>59</ele>
        <time>2010-07-23T08:46:50Z</time>
      </trkpt>
      <trkpt lat="43.75331" lon="7.19434">
        <ele>59</ele>
        <time>2010-07-23T08:46:57Z</time>
      </trkpt>
      <trkpt lat="43.75294" lon="7.19394">
        <ele>58</ele>
        <time>2010-07-23T08:47:05Z</time>
      </trkpt>
      <trkpt lat="43.75262" lon="7.19362">
        <ele>58</ele>
        <time>2010-07-23T08:47:12Z</time>
      </trkpt>
      <trkpt lat="43.75225" lon="7.19325">
        <ele>58</ele>
        <time>2010-07-23T08:47:20Z</time>
      </trkpt>
      <trkpt lat="43.75194" lon="7.19293">
        <ele>58</ele>
        <time>2010-07-23T08:47:27Z</time>
      </trkpt>
      <trkpt lat="43.75157" lon="7.19255">
        <ele>57</ele>
        <time>2010-07-23T08:47:35Z</time>
      </trkpt>
      <trkpt lat="43.75125" lon="7.19218">
        <ele>56</ele>
        <time>2010-07-23T08:47:42Z</time>
      </trkpt>
      <trkpt lat="43.75091" lon="7.19181">
        <ele>56</ele>
        <time>2010-07-23T08:47:50Z</time>
      </trkpt>
      <trkpt lat="43.7506" lon="7.19149">
        <ele>56</ele>
        <time>2010-07-23T08:47:57Z</time>
      </trkpt>
      <trkpt lat="43.75023" lon="7.19111">
        <ele>55</ele>
        <time>2010-07-23T08:48:05Z</time>
      </trkpt>
      <trkpt lat="43.74989" lon="7.19075">
        <ele>55</ele>
        <time>2010-07-23T08:48:12Z</time>
      </trkpt>
      <trkpt lat="43.74951" lon="7.19035">
        <ele>55</ele>
        <time>2010-07-23T08:48:20Z</time>
      </trkpt>
      <trkpt lat="43.74919" lon="7.19003">
        <ele>55</ele>
        <time>2010-07-23T08:48:27Z</time>
      </trkpt>
      <trkpt lat="43.74883" lon="7.18964">
        <ele>55</ele>
        <time>2010-07-23T08:48:35Z</time>
      </trkpt>
      <trkpt lat="43.74853" lon="7.18935">
        <ele>55</ele>
        <time>2010-07-23T08:48:42Z</time>
      </trkpt>
      <trkpt lat="43.74822" lon="7.18908">
        <ele>54</ele>
        <time>2010-07-23T08:48:50Z</time>
      </trkpt>
      <trkpt lat="43.74796" lon="7.1889">
        <ele>54</ele>
        <time>2010-07-23T08:48:57Z</time>
      </trkpt>
      <trkpt lat="43.74767" lon="7.18862">
        <ele>54</ele>
        <time>2010-07-23T08:49:05Z</time>
      </trkpt>
      <trkpt lat="43.74749" lon="7.18895">
        <ele>53</ele>
        <time>2010-07-23T08:49:12Z</time>
      </trkpt>
      <trkpt lat="43.7475" lon="7.18957">
        <ele>53</ele>
        <time>2010-07-23T08:49:20Z</time>
      </trkpt>
      <trkpt lat="43.74737" lon="7.19006">
        <ele>53</ele>
        <time>2010-07-23T08:49:27Z</time>
      </trkpt>
      <trkpt lat="43.74715" lon="7.19054">
        <ele>53</ele>
        <time>2010-07-23T08:49:35Z</time>
      </trkpt>
      <trkpt lat="43.74693" lon="7.19091">
        <ele>53</ele>
        <time>2010-07-23T08:49:42Z</time>
      </trkpt>
      <trkpt lat="43.74656" lon="7.19106">
        <ele>53</ele>
        <time>2010-07-23T08:49:50Z</time>
      </trkpt>
      <trkpt lat="43.74625" lon="7.1908">
        <ele>53</ele>
        <time>2010-07-23T08:49:57Z</time>
      </trkpt>
      <trkpt lat="43.74595" lon="7.19044">
        <ele>53</ele>
        <time>2010-07-23T08:50:05Z</time>
      </trkpt>
      <trkpt lat="43.74567" lon="7.19017">
        <ele>52</ele>
        <time>2010-07-23T08:50:12Z</time>
      </trkpt>
      <trkpt lat="43.74549" lon="7.19002">
        <ele>52</ele>
        <time>2010-07-23T08:50:20Z</time>
      </trkpt>
      <trkpt lat="43.74548" lon="7.19002">
        <ele>51</ele>
        <time>2010-07-23T08:50:36Z</time>
      </trkpt>
      <trkpt lat="43.74548" lon="7.19002">
        <ele>52</ele>
        <time>2010-07-23T08:51:04Z</time>
      </trkpt>
      <trkpt lat="43.74545" lon="7.19004">
        <ele>58</ele>
        <time>2010-07-23T08:51:14Z</time>
      </trkpt>
      <trkpt lat="43.74546" lon="7.19003">
        <ele>63</ele>
        <time>2010-07-23T08:51:31Z</time>
      </trkpt>
      <trkpt lat="43.74547" lon="7.18999">
        <ele>62</ele>
        <time>2010-07-23T08:51:39Z</time>
      </trkpt>
      <trkpt lat="43.7455" lon="7.18998">
        <ele>54</ele>
        <time>2010-07-23T08:51:49Z</time>
      </trkpt>
      <trkpt lat="43.74543" lon="7.18994">
        <ele>53</ele>
        <time>2010-07-23T08:51:56Z</time>
      </trkpt>
      <trkpt lat="43.74532" lon="7.1898">
        <ele>52</ele>
        <time>2010-07-23T08:52:03Z</time>
      </trkpt>
      <trkpt lat="43.74516" lon="7.18964">
        <ele>52</ele>
        <time>2010-07-23T08:52:10Z</time>
      </trkpt>
      <trkpt lat="43.74501" lon="7.18953">
        <ele>52</ele>
        <time>2010-07-23T08:52:17Z</time>
      </trkpt>
      <trkpt lat="43.74478" lon="7.18944">
        <ele>52</ele>
        <time>2010-07-23T08:52:25Z</time>
      </trkpt>
      <trkpt lat="43.74458" lon="7.18945">
        <ele>52</ele>
        <time>2010-07-23T08:52:32Z</time>
      </trkpt>
      <trkpt lat="43.74448" lon="7.18938">
        <ele>52</ele>
        <time>2010-07-23T08:52:40Z</time>
      </trkpt>
      <trkpt lat="43.74451" lon="7.18926">
        <ele>52</ele>
        <time>2010-07-23T08:52:47Z</time>
      </trkpt>
      <trkpt lat="43.74459" lon="7.18899">
        <ele>51</ele>
        <time>2010-07-23T08:52:55Z</time>
      </trkpt>
      <trkpt lat="43.74472" lon="7.18863">
        <ele>49</ele>
        <time>2010-07-23T08:53:02Z</time>
      </trkpt>
      <trkpt lat="43.74488" lon="7.18822">
        <ele>47</ele>
        <time>2010-07-23T08:53:10Z</time>
      </trkpt>
      <trkpt lat="43.74503" lon="7.18782">
        <ele>45</ele>
        <time>2010-07-23T08:53:17Z</time>
      </trkpt>
      <trkpt lat="43.74514" lon="7.18736">
        <ele>44</ele>
        <time>2010-07-23T08:53:25Z</time>
      </trkpt>
      <trkpt lat="43.74527" lon="7.18704">
        <ele>44</ele>
        <time>2010-07-23T08:53:32Z</time>
      </trkpt>
      <trkpt lat="43.74533" lon="7.18686">
        <ele>44</ele>
        <time>2010-07-23T08:53:40Z</time>
      </trkpt>
      <trkpt lat="43.74531" lon="7.18687">
        <ele>44</ele>
        <time>2010-07-23T08:53:48Z</time>
      </trkpt>
      <trkpt lat="43.74538" lon="7.18688">
        <ele>44</ele>
        <time>2010-07-23T08:54:00Z</time>
      </trkpt>
      <trkpt lat="43.74541" lon="7.18689">
        <ele>44</ele>
        <time>2010-07-23T08:54:08Z</time>
      </trkpt>
      <trkpt lat="43.74553" lon="7.18696">
        <ele>44</ele>
        <time>2010-07-23T08:54:15Z</time>
      </trkpt>
      <trkpt lat="43.7458" lon="7.18717">
        <ele>44</ele>
        <time>2010-07-23T08:54:22Z</time>
      </trkpt>
      <trkpt lat="43.74618" lon="7.18743">
        <ele>44</ele>
        <time>2010-07-23T08:54:30Z</time>
      </trkpt>
      <trkpt lat="43.7465" lon="7.18769">
        <ele>46</ele>
        <time>2010-07-23T08:54:37Z</time>
      </trkpt>
      <trkpt lat="43.74689" lon="7.18802">
        <ele>47</ele>
        <time>2010-07-23T08:54:45Z</time>
      </trkpt>
      <trkpt lat="43.74722" lon="7.18836">
        <ele>47</ele>
        <time>2010-07-23T08:54:52Z</time>
      </trkpt>
      <trkpt lat="43.74749" lon="7.18887">
        <ele>47</ele>
        <time>2010-07-23T08:55:00Z</time>
      </trkpt>
      <trkpt lat="43.74778" lon="7.18887">
        <ele>47</ele>
        <time>2010-07-23T08:55:07Z</time>
      </trkpt>
      <trkpt lat="43.74746" lon="7.1884">
        <ele>48</ele>
        <time>2010-07-23T08:55:15Z</time>
      </trkpt>
      <trkpt lat="43.74713" lon="7.188">
        <ele>48</ele>
        <time>2010-07-23T08:55:22Z</time>
      </trkpt>
      <trkpt lat="43.74672" lon="7.18761">
        <ele>48</ele>
        <time>2010-07-23T08:55:30Z</time>
      </trkpt>
      <trkpt lat="43.74634" lon="7.1873">
        <ele>48</ele>
        <time>2010-07-23T08:55:37Z</time>
      </trkpt>
      <trkpt lat="43.74591" lon="7.18698">
        <ele>48</ele>
        <time>2010-07-23T08:55:45Z</time>
      </trkpt>
      <trkpt lat="43.74554" lon="7.18672">
        <ele>48</ele>
        <time>2010-07-23T08:55:52Z</time>
      </trkpt>
      <trkpt lat="43.74512" lon="7.18644">
        <ele>48</ele>
        <time>2010-07-23T08:56:00Z</time>
      </trkpt>
      <trkpt lat="43.74476" lon="7.1862">
        <ele>48</ele>
        <time>2010-07-23T08:56:07Z</time>
      </trkpt>
      <trkpt lat="43.74434" lon="7.18596">
        <ele>48</ele>
        <time>2010-07-23T08:56:15Z</time>
      </trkpt>
      <trkpt lat="43.74396" lon="7.18575">
        <ele>48</ele>
        <time>2010-07-23T08:56:22Z</time>
      </trkpt>
      <trkpt lat="43.74351" lon="7.18551">
        <ele>48</ele>
        <time>2010-07-23T08:56:30Z</time>
      </trkpt>
      <trkpt lat="43.74311" lon="7.18533">
        <ele>48</ele>
        <time>2010-07-23T08:56:37Z</time>
      </trkpt>
      <trkpt lat="43.74269" lon="7.18514">
        <ele>48</ele>
        <time>2010-07-23T08:56:45Z</time>
      </trkpt>
      <trkpt lat="43.74231" lon="7.18501">
        <ele>48</ele>
        <time>2010-07-23T08:56:52Z</time>
      </trkpt>
      <trkpt lat="43.74188" lon="7.18486">
        <ele>48</ele>
        <time>2010-07-23T08:57:00Z</time>
      </trkpt>
      <trkpt lat="43.7415" lon="7.18472">
        <ele>48</ele>
        <time>2010-07-23T08:57:07Z</time>
      </trkpt>
      <trkpt lat="43.74106" lon="7.18455">
        <ele>48</ele>
        <time>2010-07-23T08:57:15Z</time>
      </trkpt>
      <trkpt lat="43.74067" lon="7.18443">
        <ele>48</ele>
        <time>2010-07-23T08:57:22Z</time>
      </trkpt>
      <trkpt lat="43.74021" lon="7.18432">
        <ele>48</ele>
        <time>2010-07-23T08:57:30Z</time>
      </trkpt>
      <trkpt lat="43.7398" lon="7.18423">
        <ele>48</ele>
        <time>2010-07-23T08:57:37Z</time>
      </trkpt>
      <trkpt lat="43.73934" lon="7.18414">
        <ele>48</ele>
        <time>2010-07-23T08:57:45Z</time>
      </trkpt>
      <trkpt lat="43.73892" lon="7.18408">
        <ele>48</ele>
        <time>2010-07-23T08:57:52Z</time>
      </trkpt>
      <trkpt lat="43.73847" lon="7.18403">
        <ele>48</ele>
        <time>2010-07-23T08:58:00Z</time>
      </trkpt>
      <trkpt lat="43.73807" lon="7.18401">
        <ele>48</ele>
        <time>2010-07-23T08:58:07Z</time>
      </trkpt>
      <trkpt lat="43.73761" lon="7.18399">
        <ele>48</ele>
        <time>2010-07-23T08:58:15Z</time>
      </trkpt>
      <trkpt lat="43.7372" lon="7.184">
        <ele>48</ele>
        <time>2010-07-23T08:58:22Z</time>
      </trkpt>
      <trkpt lat="43.73671" lon="7.18401">
        <ele>48</ele>
        <time>2010-07-23T08:58:30Z</time>
      </trkpt>
      <trkpt lat="43.7363" lon="7.18404">
        <ele>48</ele>
        <time>2010-07-23T08:58:37Z</time>
      </trkpt>
      <trkpt lat="43.73583" lon="7.18407">
        <ele>48</ele>
        <time>2010-07-23T08:58:45Z</time>
      </trkpt>
      <trkpt lat="43.73541" lon="7.18413">
        <ele>48</ele>
        <time>2010-07-23T08:58:52Z</time>
      </trkpt>
      <trkpt lat="43.7349" lon="7.1842">
        <ele>48</ele>
        <time>2010-07-23T08:59:00Z</time>
      </trkpt>
      <trkpt lat="43.73447" lon="7.18425">
        <ele>48</ele>
        <time>2010-07-23T08:59:07Z</time>
      </trkpt>
      <trkpt lat="43.73401" lon="7.18431">
        <ele>48</ele>
        <time>2010-07-23T08:59:15Z</time>
      </trkpt>
      <trkpt lat="43.73359" lon="7.18436">
        <ele>47</ele>
        <time>2010-07-23T08:59:22Z</time>
      </trkpt>
      <trkpt lat="43.73311" lon="7.18443">
        <ele>46</ele>
        <time>2010-07-23T08:59:30Z</time>
      </trkpt>
      <trkpt lat="43.73267" lon="7.18449">
        <ele>46</ele>
        <time>2010-07-23T08:59:37Z</time>
      </trkpt>
      <trkpt lat="43.73216" lon="7.18457">
        <ele>45</ele>
        <time>2010-07-23T08:59:45Z</time>
      </trkpt>
      <trkpt lat="43.73171" lon="7.18463">
        <ele>44</ele>
        <time>2010-07-23T08:59:52Z</time>
      </trkpt>
      <trkpt lat="43.73121" lon="7.18469">
        <ele>44</ele>
        <time>2010-07-23T09:00:00Z</time>
      </trkpt>
      <trkpt lat="43.73079" lon="7.18476">
        <ele>44</ele>
        <time>2010-07-23T09:00:07Z</time>
      </trkpt>
      <trkpt lat="43.73029" lon="7.18485">
        <ele>44</ele>
        <time>2010-07-23T09:00:15Z</time>
      </trkpt>
      <trkpt lat="43.72987" lon="7.18493">
        <ele>43</ele>
        <time>2010-07-23T09:00:22Z</time>
      </trkpt>
      <trkpt lat="43.7294" lon="7.18501">
        <ele>43</ele>
        <time>2010-07-23T09:00:30Z</time>
      </trkpt>
      <trkpt lat="43.72896" lon="7.18507">
        <ele>43</ele>
        <time>2010-07-23T09:00:37Z</time>
      </trkpt>
      <trkpt lat="43.72843" lon="7.18508">
        <ele>43</ele>
        <time>2010-07-23T09:00:45Z</time>
      </trkpt>
      <trkpt lat="43.72795" lon="7.18515">
        <ele>43</ele>
        <time>2010-07-23T09:00:52Z</time>
      </trkpt>
      <trkpt lat="43.72743" lon="7.18523">
        <ele>43</ele>
        <time>2010-07-23T09:01:00Z</time>
      </trkpt>
      <trkpt lat="43.72699" lon="7.18529">
        <ele>42</ele>
        <time>2010-07-23T09:01:07Z</time>
      </trkpt>
      <trkpt lat="43.72649" lon="7.18536">
        <ele>42</ele>
        <time>2010-07-23T09:01:15Z</time>
      </trkpt>
      <trkpt lat="43.72606" lon="7.18542">
        <ele>41</ele>
        <time>2010-07-23T09:01:22Z</time>
      </trkpt>
      <trkpt lat="43.72557" lon="7.18549">
        <ele>40</ele>
        <time>2010-07-23T09:01:30Z</time>
      </trkpt>
      <trkpt lat="43.72513" lon="7.18555">
        <ele>40</ele>
        <time>2010-07-23T09:01:37Z</time>
      </trkpt>
      <trkpt lat="43.72463" lon="7.18562">
        <ele>40</ele>
        <time>2010-07-23T09:01:45Z</time>
      </trkpt>
      <trkpt lat="43.72421" lon="7.18568">
        <ele>40</ele>
        <time>2010-07-23T09:01:52Z</time>
      </trkpt>
      <trkpt lat="43.72373" lon="7.18579">
        <ele>40</ele>
        <time>2010-07-23T09:02:00Z</time>
      </trkpt>
      <trkpt lat="43.72336" lon="7.18591">
        <ele>40</ele>
        <time>2010-07-23T09:02:07Z</time>
      </trkpt>
      <trkpt lat="43.72295" lon="7.18601">
        <ele>40</ele>
        <time>2010-07-23T09:02:15Z</time>
      </trkpt>
      <trkpt lat="43.72257" lon="7.18606">
        <ele>40</ele>
        <time>2010-07-23T09:02:22Z</time>
      </trkpt>
      <trkpt lat="43.7221" lon="7.1861">
        <ele>40</ele>
        <time>2010-07-23T09:02:30Z</time>
      </trkpt>
      <trkpt lat="43.72165" lon="7.18612">
        <ele>40</ele>
        <time>2010-07-23T09:02:37Z</time>
      </trkpt>
      <trkpt lat="43.72111" lon="7.18613">
        <ele>40</ele>
        <time>2010-07-23T09:02:45Z</time>
      </trkpt>
      <trkpt lat="43.72062" lon="7.18614">
        <ele>40</ele>
        <time>2010-07-23T09:02:52Z</time>
      </trkpt>
      <trkpt lat="43.72005" lon="7.1862">
        <ele>39</ele>
        <time>2010-07-23T09:03:00Z</time>
      </trkpt>
      <trkpt lat="43.71957" lon="7.18626">
        <ele>38</ele>
        <time>2010-07-23T09:03:07Z</time>
      </trkpt>
      <trkpt lat="43.71905" lon="7.18634">
        <ele>37</ele>
        <time>2010-07-23T09:03:15Z</time>
      </trkpt>
      <trkpt lat="43.71861" lon="7.1864">
        <ele>37</ele>
        <time>2010-07-23T09:03:22Z</time>
      </trkpt>
      <trkpt lat="43.71815" lon="7.18646">
        <ele>37</ele>
        <time>2010-07-23T09:03:29Z</time>
      </trkpt>
      <trkpt lat="43.71769" lon="7.18653">
        <ele>36</ele>
        <time>2010-07-23T09:03:36Z</time>
      </trkpt>
      <trkpt lat="43.71725" lon="7.18658">
        <ele>36</ele>
        <time>2010-07-23T09:03:43Z</time>
      </trkpt>
      <trkpt lat="43.7168" lon="7.18665">
        <ele>35</ele>
        <time>2010-07-23T09:03:50Z</time>
      </trkpt>
      <trkpt lat="43.71637" lon="7.18672">
        <ele>35</ele>
        <time>2010-07-23T09:03:57Z</time>
      </trkpt>
      <trkpt lat="43.71587" lon="7.1868">
        <ele>35</ele>
        <time>2010-07-23T09:04:05Z</time>
      </trkpt>
      <trkpt lat="43.71543" lon="7.18686">
        <ele>34</ele>
        <time>2010-07-23T09:04:12Z</time>
      </trkpt>
      <trkpt lat="43.71494" lon="7.18693">
        <ele>34</ele>
        <time>2010-07-23T09:04:20Z</time>
      </trkpt>
      <trkpt lat="43.7145" lon="7.18701">
        <ele>34</ele>
        <time>2010-07-23T09:04:27Z</time>
      </trkpt>
      <trkpt lat="43.71406" lon="7.18708">
        <ele>34</ele>
        <time>2010-07-23T09:04:34Z</time>
      </trkpt>
      <trkpt lat="43.71362" lon="7.18715">
        <ele>34</ele>
        <time>2010-07-23T09:04:41Z</time>
      </trkpt>
      <trkpt lat="43.71316" lon="7.1872">
        <ele>34</ele>
        <time>2010-07-23T09:04:48Z</time>
      </trkpt>
      <trkpt lat="43.7127" lon="7.18727">
        <ele>34</ele>
        <time>2010-07-23T09:04:55Z</time>
      </trkpt>
      <trkpt lat="43.71224" lon="7.18735">
        <ele>34</ele>
        <time>2010-07-23T09:05:02Z</time>
      </trkpt>
      <trkpt lat="43.71179" lon="7.18743">
        <ele>34</ele>
        <time>2010-07-23T09:05:09Z</time>
      </trkpt>
      <trkpt lat="43.71136" lon="7.1875">
        <ele>33</ele>
        <time>2010-07-23T09:05:16Z</time>
      </trkpt>
      <trkpt lat="43.71093" lon="7.18755">
        <ele>32</ele>
        <time>2010-07-23T09:05:23Z</time>
      </trkpt>
      <trkpt lat="43.71055" lon="7.1876">
        <ele>32</ele>
        <time>2010-07-23T09:05:30Z</time>
      </trkpt>
      <trkpt lat="43.71033" lon="7.18766">
        <ele>32</ele>
        <time>2010-07-23T09:05:37Z</time>
      </trkpt>
      <trkpt lat="43.71028" lon="7.18801">
        <ele>32</ele>
        <time>2010-07-23T09:05:44Z</time>
      </trkpt>
      <trkpt lat="43.71037" lon="7.1885">
        <ele>32</ele>
        <time>2010-07-23T09:05:51Z</time>
      </trkpt>
      <trkpt lat="43.71041" lon="7.18909">
        <ele>31</ele>
        <time>2010-07-23T09:05:58Z</time>
      </trkpt>
      <trkpt lat="43.71044" lon="7.18963">
        <ele>30</ele>
        <time>2010-07-23T09:06:05Z</time>
      </trkpt>
      <trkpt lat="43.71047" lon="7.19019">
        <ele>30</ele>
        <time>2010-07-23T09:06:12Z</time>
      </trkpt>
      <trkpt lat="43.71051" lon="7.19074">
        <ele>30</ele>
        <time>2010-07-23T09:06:19Z</time>
      </trkpt>
      <trkpt lat="43.71055" lon="7.19127">
        <ele>29</ele>
        <time>2010-07-23T09:06:26Z</time>
      </trkpt>
      <trkpt lat="43.71058" lon="7.19179">
        <ele>29</ele>
        <time>2010-07-23T09:06:33Z</time>
      </trkpt>
      <trkpt lat="43.7106" lon="7.19225">
        <ele>29</ele>
        <time>2010-07-23T09:06:40Z</time>
      </trkpt>
      <trkpt lat="43.71066" lon="7.19273">
        <ele>28</ele>
        <time>2010-07-23T09:06:47Z</time>
      </trkpt>
      <trkpt lat="43.71069" lon="7.19324">
        <ele>28</ele>
        <time>2010-07-23T09:06:54Z</time>
      </trkpt>
      <trkpt lat="43.71071" lon="7.19372">
        <ele>27</ele>
        <time>2010-07-23T09:07:01Z</time>
      </trkpt>
      <trkpt lat="43.71075" lon="7.19417">
        <ele>26</ele>
        <time>2010-07-23T09:07:08Z</time>
      </trkpt>
      <trkpt lat="43.71079" lon="7.19455">
        <ele>26</ele>
        <time>2010-07-23T09:07:15Z</time>
      </trkpt>
      <trkpt lat="43.71084" lon="7.19496">
        <ele>26</ele>
        <time>2010-07-23T09:07:22Z</time>
      </trkpt>
      <trkpt lat="43.71083" lon="7.19533">
        <ele>26</ele>
        <time>2010-07-23T09:07:29Z</time>
      </trkpt>
      <trkpt lat="43.71087" lon="7.19575">
        <ele>26</ele>
        <time>2010-07-23T09:07:36Z</time>
      </trkpt>
      <trkpt lat="43.7109" lon="7.19614">
        <ele>26</ele>
        <time>2010-07-23T09:07:43Z</time>
      </trkpt>
      <trkpt lat="43.7109" lon="7.19647">
        <ele>27</ele>
        <time>2010-07-23T09:07:50Z</time>
      </trkpt>
      <trkpt lat="43.71071" lon="7.19667">
        <ele>29</ele>
        <time>2010-07-23T09:07:57Z</time>
      </trkpt>
      <trkpt lat="43.71045" lon="7.19678">
        <ele>31</ele>
        <time>2010-07-23T09:08:04Z</time>
      </trkpt>
      <trkpt lat="43.71004" lon="7.19689">
        <ele>31</ele>
        <time>2010-07-23T09:08:11Z</time>
      </trkpt>
      <trkpt lat="43.70964" lon="7.19692">
        <ele>31</ele>
        <time>2010-07-23T09:08:18Z</time>
      </trkpt>
      <trkpt lat="43.70918" lon="7.19711">
        <ele>31</ele>
        <time>2010-07-23T09:08:25Z</time>
      </trkpt>
      <trkpt lat="43.70869" lon="7.1971">
        <ele>31</ele>
        <time>2010-07-23T09:08:32Z</time>
      </trkpt>
      <trkpt lat="43.70824" lon="7.19697">
        <ele>30</ele>
        <time>2010-07-23T09:08:39Z</time>
      </trkpt>
      <trkpt lat="43.70781" lon="7.19699">
        <ele>30</ele>
        <time>2010-07-23T09:08:46Z</time>
      </trkpt>
      <trkpt lat="43.7074" lon="7.19696">
        <ele>30</ele>
        <time>2010-07-23T09:08:53Z</time>
      </trkpt>
      <trkpt lat="43.707" lon="7.19686">
        <ele>29</ele>
        <time>2010-07-23T09:09:00Z</time>
      </trkpt>
      <trkpt lat="43.70663" lon="7.19693">
        <ele>29</ele>
        <time>2010-07-23T09:09:07Z</time>
      </trkpt>
      <trkpt lat="43.70628" lon="7.19709">
        <ele>29</ele>
        <time>2010-07-23T09:09:14Z</time>
      </trkpt>
      <trkpt lat="43.70593" lon="7.19727">
        <ele>29</ele>
        <time>2010-07-23T09:09:21Z</time>
      </trkpt>
      <trkpt lat="43.7056" lon="7.19752">
        <ele>29</ele>
        <time>2010-07-23T09:09:28Z</time>
      </trkpt>
      <trkpt lat="43.70526" lon="7.19776">
        <ele>29</ele>
        <time>2010-07-23T09:09:35Z</time>
      </trkpt>
      <trkpt lat="43.7049" lon="7.19791">
        <ele>29</ele>
        <time>2010-07-23T09:09:42Z</time>
      </trkpt>
      <trkpt lat="43.70452" lon="7.19801">
        <ele>29</ele>
        <time>2010-07-23T09:09:49Z</time>
      </trkpt>
      <trkpt lat="43.70408" lon="7.19803">
        <ele>29</ele>
        <time>2010-07-23T09:09:56Z</time>
      </trkpt>
      <trkpt lat="43.70363" lon="7.19794">
        <ele>29</ele>
        <time>2010-07-23T09:10:03Z</time>
      </trkpt>
      <trkpt lat="43.7032" lon="7.19795">
        <ele>29</ele>
        <time>2010-07-23T09:10:10Z</time>
      </trkpt>
      <trkpt lat="43.70279" lon="7.19807">
        <ele>29</ele>
        <time>2010-07-23T09:10:17Z</time>
      </trkpt>
      <trkpt lat="43.7024" lon="7.19819">
        <ele>27</ele>
        <time>2010-07-23T09:10:24Z</time>
      </trkpt>
      <trkpt lat="43.70197" lon="7.19819">
        <ele>26</ele>
        <time>2010-07-23T09:10:31Z</time>
      </trkpt>
      <trkpt lat="43.70157" lon="7.19828">
        <ele>26</ele>
        <time>2010-07-23T09:10:38Z</time>
      </trkpt>
      <trkpt lat="43.70117" lon="7.19842">
        <ele>26</ele>
        <time>2010-07-23T09:10:45Z</time>
      </trkpt>
      <trkpt lat="43.70077" lon="7.19853">
        <ele>26</ele>
        <time>2010-07-23T09:10:52Z</time>
      </trkpt>
      <trkpt lat="43.70034" lon="7.19863">
        <ele>26</ele>
        <time>2010-07-23T09:10:59Z</time>
      </trkpt>
      <trkpt lat="43.69993" lon="7.19888">
        <ele>26</ele>
        <time>2010-07-23T09:11:06Z</time>
      </trkpt>
      <trkpt lat="43.69951" lon="7.19902">
        <ele>26</ele>
        <time>2010-07-23T09:11:13Z</time>
      </trkpt>
      <trkpt lat="43.6991" lon="7.19915">
        <ele>25</ele>
        <time>2010-07-23T09:11:20Z</time>
      </trkpt>
      <trkpt lat="43.69866" lon="7.19928">
        <ele>24</ele>
        <time>2010-07-23T09:11:27Z</time>
      </trkpt>
      <trkpt lat="43.69821" lon="7.19936">
        <ele>24</ele>
        <time>2010-07-23T09:11:34Z</time>
      </trkpt>
      <trkpt lat="43.69775" lon="7.19939">
        <ele>24</ele>
        <time>2010-07-23T09:11:41Z</time>
      </trkpt>
      <trkpt lat="43.69728" lon="7.19949">
        <ele>24</ele>
        <time>2010-07-23T09:11:48Z</time>
      </trkpt>
      <trkpt lat="43.69681" lon="7.19951">
        <ele>24</ele>
        <time>2010-07-23T09:11:55Z</time>
      </trkpt>
      <trkpt lat="43.6964" lon="7.19967">
        <ele>24</ele>
        <time>2010-07-23T09:12:02Z</time>
      </trkpt>
      <trkpt lat="43.69593" lon="7.19981">
        <ele>24</ele>
        <time>2010-07-23T09:12:09Z</time>
      </trkpt>
      <trkpt lat="43.69549" lon="7.19996">
        <ele>22</ele>
        <time>2010-07-23T09:12:16Z</time>
      </trkpt>
      <trkpt lat="43.69504" lon="7.20008">
        <ele>20</ele>
        <time>2010-07-23T09:12:23Z</time>
      </trkpt>
      <trkpt lat="43.69458" lon="7.20009">
        <ele>18</ele>
        <time>2010-07-23T09:12:30Z</time>
      </trkpt>
      <trkpt lat="43.69411" lon="7.20004">
        <ele>17</ele>
        <time>2010-07-23T09:12:37Z</time>
      </trkpt>
      <trkpt lat="43.69365" lon="7.19997">
        <ele>16</ele>
        <time>2010-07-23T09:12:44Z</time>
      </trkpt>
      <trkpt lat="43.69322" lon="7.19993">
        <ele>16</ele>
        <time>2010-07-23T09:12:51Z</time>
      </trkpt>
      <trkpt lat="43.69281" lon="7.19989">
        <ele>16</ele>
        <time>2010-07-23T09:12:58Z</time>
      </trkpt>
      <trkpt lat="43.69243" lon="7.1999">
        <ele>16</ele>
        <time>2010-07-23T09:13:05Z</time>
      </trkpt>
      <trkpt lat="43.69204" lon="7.20009">
        <ele>16</ele>
        <time>2010-07-23T09:13:12Z</time>
      </trkpt>
      <trkpt lat="43.69174" lon="7.20045">
        <ele>16</ele>
        <time>2010-07-23T09:13:19Z</time>
      </trkpt>
      <trkpt lat="43.69147" lon="7.20085">
        <ele>16</ele>
        <time>2010-07-23T09:13:26Z</time>
      </trkpt>
      <trkpt lat="43.69112" lon="7.20101">
        <ele>16</ele>
        <time>2010-07-23T09:13:33Z</time>
      </trkpt>
      <trkpt lat="43.69077" lon="7.20112">
        <ele>16</ele>
        <time>2010-07-23T09:13:40Z</time>
      </trkpt>
      <trkpt lat="43.69046" lon="7.20134">
        <ele>16</ele>
        <time>2010-07-23T09:13:47Z</time>
      </trkpt>
      <trkpt lat="43.69012" lon="7.20156">
        <ele>16</ele>
        <time>2010-07-23T09:13:54Z</time>
      </trkpt>
      <trkpt lat="43.68977" lon="7.20166">
        <ele>16</ele>
        <time>2010-07-23T09:14:01Z</time>
      </trkpt>
      <trkpt lat="43.68944" lon="7.20178">
        <ele>18</ele>
        <time>2010-07-23T09:14:08Z</time>
      </trkpt>
      <trkpt lat="43.68913" lon="7.20192">
        <ele>19</ele>
        <time>2010-07-23T09:14:15Z</time>
      </trkpt>
      <trkpt lat="43.68879" lon="7.20208">
        <ele>19</ele>
        <time>2010-07-23T09:14:22Z</time>
      </trkpt>
      <trkpt lat="43.68844" lon="7.20218">
        <ele>20</ele>
        <time>2010-07-23T09:14:29Z</time>
      </trkpt>
      <trkpt lat="43.68809" lon="7.20221">
        <ele>20</ele>
        <time>2010-07-23T09:14:36Z</time>
      </trkpt>
      <trkpt lat="43.68773" lon="7.20225">
        <ele>20</ele>
        <time>2010-07-23T09:14:43Z</time>
      </trkpt>
      <trkpt lat="43.68742" lon="7.2024">
        <ele>21</ele>
        <time>2010-07-23T09:14:50Z</time>
      </trkpt>
      <trkpt lat="43.68712" lon="7.20259">
        <ele>22</ele>
        <time>2010-07-23T09:14:57Z</time>
      </trkpt>
      <trkpt lat="43.68679" lon="7.20277">
        <ele>23</ele>
        <time>2010-07-23T09:15:04Z</time>
      </trkpt>
      <trkpt lat="43.68646" lon="7.20295">
        <ele>23</ele>
        <time>2010-07-23T09:15:11Z</time>
      </trkpt>
      <trkpt lat="43.68605" lon="7.20312">
        <ele>23</ele>
        <time>2010-07-23T09:15:18Z</time>
      </trkpt>
      <trkpt lat="43.68556" lon="7.20324">
        <ele>23</ele>
        <time>2010-07-23T09:15:25Z</time>
      </trkpt>
      <trkpt lat="43.685" lon="7.20336">
        <ele>21</ele>
        <time>2010-07-23T09:15:32Z</time>
      </trkpt>
      <trkpt lat="43.68445" lon="7.2035">
        <ele>21</ele>
        <time>2010-07-23T09:15:39Z</time>
      </trkpt>
      <trkpt lat="43.68395" lon="7.20372">
        <ele>19</ele>
        <time>2010-07-23T09:15:46Z</time>
      </trkpt>
      <trkpt lat="43.68358" lon="7.20405">
        <ele>16</ele>
        <time>2010-07-23T09:15:53Z</time>
      </trkpt>
      <trkpt lat="43.68321" lon="7.20422">
        <ele>16</ele>
        <time>2010-07-23T09:16:00Z</time>
      </trkpt>
      <trkpt lat="43.68292" lon="7.20434">
        <ele>16</ele>
        <time>2010-07-23T09:16:07Z</time>
      </trkpt>
      <trkpt lat="43.68268" lon="7.20442">
        <ele>16</ele>
        <time>2010-07-23T09:16:14Z</time>
      </trkpt>
      <trkpt lat="43.68245" lon="7.20453">
        <ele>17</ele>
        <time>2010-07-23T09:16:21Z</time>
      </trkpt>
      <trkpt lat="43.6822" lon="7.20467">
        <ele>19</ele>
        <time>2010-07-23T09:16:28Z</time>
      </trkpt>
      <trkpt lat="43.68196" lon="7.20482">
        <ele>20</ele>
        <time>2010-07-23T09:16:35Z</time>
      </trkpt>
      <trkpt lat="43.68175" lon="7.20501">
        <ele>21</ele>
        <time>2010-07-23T09:16:42Z</time>
      </trkpt>
      <trkpt lat="43.68152" lon="7.2051">
        <ele>24</ele>
        <time>2010-07-23T09:16:49Z</time>
      </trkpt>
      <trkpt lat="43.68124" lon="7.2051">
        <ele>29</ele>
        <time>2010-07-23T09:16:56Z</time>
      </trkpt>
      <trkpt lat="43.68103" lon="7.20509">
        <ele>31</ele>
        <time>2010-07-23T09:17:03Z</time>
      </trkpt>
      <trkpt lat="43.68089" lon="7.20513">
        <ele>33</ele>
        <time>2010-07-23T09:17:10Z</time>
      </trkpt>
      <trkpt lat="43.68097" lon="7.20533">
        <ele>33</ele>
        <time>2010-07-23T09:17:17Z</time>
      </trkpt>
      <trkpt lat="43.68117" lon="7.20541">
        <ele>33</ele>
        <time>2010-07-23T09:17:24Z</time>
      </trkpt>
      <trkpt lat="43.68139" lon="7.20548">
        <ele>34</ele>
        <time>2010-07-23T09:17:31Z</time>
      </trkpt>
      <trkpt lat="43.68159" lon="7.20551">
        <ele>36</ele>
        <time>2010-07-23T09:17:38Z</time>
      </trkpt>
      <trkpt lat="43.6818" lon="7.20545">
        <ele>37</ele>
        <time>2010-07-23T09:17:45Z</time>
      </trkpt>
      <trkpt lat="43.68201" lon="7.20534">
        <ele>38</ele>
        <time>2010-07-23T09:17:52Z</time>
      </trkpt>
      <trkpt lat="43.68223" lon="7.20527">
        <ele>38</ele>
        <time>2010-07-23T09:17:59Z</time>
      </trkpt>
      <trkpt lat="43.68234" lon="7.20554">
        <ele>44</ele>
        <time>2010-07-23T09:18:06Z</time>
      </trkpt>
      <trkpt lat="43.68214" lon="7.20573">
        <ele>46</ele>
        <time>2010-07-23T09:18:13Z</time>
      </trkpt>
      <trkpt lat="43.68193" lon="7.20586">
        <ele>48</ele>
        <time>2010-07-23T09:18:20Z</time>
      </trkpt>
      <trkpt lat="43.68172" lon="7.20601">
        <ele>49</ele>
        <time>2010-07-23T09:18:27Z</time>
      </trkpt>
      <trkpt lat="43.68152" lon="7.20619">
        <ele>50</ele>
        <time>2010-07-23T09:18:34Z</time>
      </trkpt>
      <trkpt lat="43.68132" lon="7.20646">
        <ele>51</ele>
        <time>2010-07-23T09:18:41Z</time>
      </trkpt>
      <trkpt lat="43.68115" lon="7.20677">
        <ele>51</ele>
        <time>2010-07-23T09:18:48Z</time>
      </trkpt>
      <trkpt lat="43.68095" lon="7.2071">
        <ele>51</ele>
        <time>2010-07-23T09:18:55Z</time>
      </trkpt>
      <trkpt lat="43.68082" lon="7.20747">
        <ele>51</ele>
        <time>2010-07-23T09:19:02Z</time>
      </trkpt>
      <trkpt lat="43.68068" lon="7.20784">
        <ele>51</ele>
        <time>2010-07-23T09:19:09Z</time>
      </trkpt>
      <trkpt lat="43.68053" lon="7.20825">
        <ele>51</ele>
        <time>2010-07-23T09:19:16Z</time>
      </trkpt>
      <trkpt lat="43.68037" lon="7.20866">
        <ele>51</ele>
        <time>2010-07-23T09:19:23Z</time>
      </trkpt>
      <trkpt lat="43.68022" lon="7.20908">
        <ele>51</ele>
        <time>2010-07-23T09:19:30Z</time>
      </trkpt>
      <trkpt lat="43.68004" lon="7.20947">
        <ele>51</ele>
        <time>2010-07-23T09:19:37Z</time>
      </trkpt>
      <trkpt lat="43.67985" lon="7.20988">
        <ele>51</ele>
        <time>2010-07-23T09:19:44Z</time>
      </trkpt>
      <trkpt lat="43.67959" lon="7.21024">
        <ele>51</ele>
        <time>2010-07-23T09:19:51Z</time>
      </trkpt>
      <trkpt lat="43.6793" lon="7.21054">
        <ele>52</ele>
        <time>2010-07-23T09:19:58Z</time>
      </trkpt>
      <trkpt lat="43.67898" lon="7.2107">
        <ele>55</ele>
        <time>2010-07-23T09:20:05Z</time>
      </trkpt>
      <trkpt lat="43.67863" lon="7.21073">
        <ele>59</ele>
        <time>2010-07-23T09:20:12Z</time>
      </trkpt>
      <trkpt lat="43.67836" lon="7.21089">
        <ele>59</ele>
        <time>2010-07-23T09:20:19Z</time>
      </trkpt>
      <trkpt lat="43.6782" lon="7.2113">
        <ele>60</ele>
        <time>2010-07-23T09:20:26Z</time>
      </trkpt>
      <trkpt lat="43.67807" lon="7.2117">
        <ele>60</ele>
        <time>2010-07-23T09:20:33Z</time>
      </trkpt>
      <trkpt lat="43.67807" lon="7.21215">
        <ele>60</ele>
        <time>2010-07-23T09:20:40Z</time>
      </trkpt>
      <trkpt lat="43.67827" lon="7.21251">
        <ele>60</ele>
        <time>2010-07-23T09:20:47Z</time>
      </trkpt>
      <trkpt lat="43.67867" lon="7.21251">
        <ele>60</ele>
        <time>2010-07-23T09:20:54Z</time>
      </trkpt>
      <trkpt lat="43.67881" lon="7.21297">
        <ele>60</ele>
        <time>2010-07-23T09:21:01Z</time>
      </trkpt>
      <trkpt lat="43.67843" lon="7.21349">
        <ele>60</ele>
        <time>2010-07-23T09:21:08Z</time>
      </trkpt>
      <trkpt lat="43.67804" lon="7.21406">
        <ele>58</ele>
        <time>2010-07-23T09:21:15Z</time>
      </trkpt>
      <trkpt lat="43.6778" lon="7.21484">
        <ele>53</ele>
        <time>2010-07-23T09:21:22Z</time>
      </trkpt>
      <trkpt lat="43.67746" lon="7.21563">
        <ele>49</ele>
        <time>2010-07-23T09:21:29Z</time>
      </trkpt>
      <trkpt lat="43.67745" lon="7.21643">
        <ele>48</ele>
        <time>2010-07-23T09:21:36Z</time>
      </trkpt>
      <trkpt lat="43.67758" lon="7.21705">
        <ele>47</ele>
        <time>2010-07-23T09:21:43Z</time>
      </trkpt>
      <trkpt lat="43.67781" lon="7.2176">
        <ele>45</ele>
        <time>2010-07-23T09:21:50Z</time>
      </trkpt>
      <trkpt lat="43.67804" lon="7.21819">
        <ele>42</ele>
        <time>2010-07-23T09:21:57Z</time>
      </trkpt>
      <trkpt lat="43.67805" lon="7.21837">
        <ele>40</ele>
        <time>2010-07-23T09:22:08Z</time>
      </trkpt>
      <trkpt lat="43.67801" lon="7.21849">
        <ele>40</ele>
        <time>2010-07-23T09:22:15Z</time>
      </trkpt>
      <trkpt lat="43.67773" lon="7.21879">
        <ele>40</ele>
        <time>2010-07-23T09:22:22Z</time>
      </trkpt>
      <trkpt lat="43.67748" lon="7.2192">
        <ele>40</ele>
        <time>2010-07-23T09:22:29Z</time>
      </trkpt>
      <trkpt lat="43.67723" lon="7.21962">
        <ele>40</ele>
        <time>2010-07-23T09:22:36Z</time>
      </trkpt>
      <trkpt lat="43.67693" lon="7.22003">
        <ele>40</ele>
        <time>2010-07-23T09:22:43Z</time>
      </trkpt>
      <trkpt lat="43.67649" lon="7.22035">
        <ele>37</ele>
        <time>2010-07-23T09:22:50Z</time>
      </trkpt>
      <trkpt lat="43.67601" lon="7.22056">
        <ele>34</ele>
        <time>2010-07-23T09:22:57Z</time>
      </trkpt>
      <trkpt lat="43.67544" lon="7.22074">
        <ele>29</ele>
        <time>2010-07-23T09:23:04Z</time>
      </trkpt>
      <trkpt lat="43.67483" lon="7.22096">
        <ele>23</ele>
        <time>2010-07-23T09:23:11Z</time>
      </trkpt>
      <trkpt lat="43.67445" lon="7.22107">
        <ele>22</ele>
        <time>2010-07-23T09:23:18Z</time>
      </trkpt>
      <trkpt lat="43.67439" lon="7.22107">
        <ele>22</ele>
        <time>2010-07-23T09:23:29Z</time>
      </trkpt>
      <trkpt lat="43.67437" lon="7.22107">
        <ele>17</ele>
        <time>2010-07-23T09:23:47Z</time>
      </trkpt>
      <trkpt lat="43.67435" lon="7.22108">
        <ele>16</ele>
        <time>2010-07-23T09:23:58Z</time>
      </trkpt>
      <trkpt lat="43.67419" lon="7.22133">
        <ele>16</ele>
        <time>2010-07-23T09:24:05Z</time>
      </trkpt>
      <trkpt lat="43.67403" lon="7.22177">
        <ele>16</ele>
        <time>2010-07-23T09:24:12Z</time>
      </trkpt>
      <trkpt lat="43.6739" lon="7.22216">
        <ele>16</ele>
        <time>2010-07-23T09:24:19Z</time>
      </trkpt>
      <trkpt lat="43.67411" lon="7.22245">
        <ele>16</ele>
        <time>2010-07-23T09:24:26Z</time>
      </trkpt>
      <trkpt lat="43.67445" lon="7.22289">
        <ele>13</ele>
        <time>2010-07-23T09:24:33Z</time>
      </trkpt>
      <trkpt lat="43.67479" lon="7.22337">
        <ele>8</ele>
        <time>2010-07-23T09:24:40Z</time>
      </trkpt>
      <trkpt lat="43.67466" lon="7.22388">
        <ele>8</ele>
        <time>2010-07-23T09:24:47Z</time>
      </trkpt>
      <trkpt lat="43.6743" lon="7.22432">
        <ele>8</ele>
        <time>2010-07-23T09:24:54Z</time>
      </trkpt>
      <trkpt lat="43.67423" lon="7.22442">
        <ele>8</ele>
        <time>2010-07-23T09:25:03Z</time>
      </trkpt>
      <trkpt lat="43.67412" lon="7.22453">
        <ele>8</ele>
        <time>2010-07-23T09:25:10Z</time>
      </trkpt>
      <trkpt lat="43.67389" lon="7.22481">
        <ele>8</ele>
        <time>2010-07-23T09:25:17Z</time>
      </trkpt>
      <trkpt lat="43.67362" lon="7.22513">
        <ele>8</ele>
        <time>2010-07-23T09:25:24Z</time>
      </trkpt>
      <trkpt lat="43.67341" lon="7.22536">
        <ele>6</ele>
        <time>2010-07-23T09:25:31Z</time>
      </trkpt>
      <trkpt lat="43.6734" lon="7.2254">
        <ele>6</ele>
        <time>2010-07-23T09:25:46Z</time>
      </trkpt>
      <trkpt lat="43.67339" lon="7.2254">
        <ele>6</ele>
        <time>2010-07-23T09:25:57Z</time>
      </trkpt>
      <trkpt lat="43.67341" lon="7.22541">
        <ele>9</ele>
        <time>2010-07-23T09:26:06Z</time>
      </trkpt>
      <trkpt lat="43.67331" lon="7.22558">
        <ele>11</ele>
        <time>2010-07-23T09:26:14Z</time>
      </trkpt>
      <trkpt lat="43.67344" lon="7.22593">
        <ele>10</ele>
        <time>2010-07-23T09:26:22Z</time>
      </trkpt>
      <trkpt lat="43.67368" lon="7.2263">
        <ele>7</ele>
        <time>2010-07-23T09:26:30Z</time>
      </trkpt>
      <trkpt lat="43.67393" lon="7.22661">
        <ele>5</ele>
        <time>2010-07-23T09:26:37Z</time>
      </trkpt>
      <trkpt lat="43.67417" lon="7.22683">
        <ele>4</ele>
        <time>2010-07-23T09:26:44Z</time>
      </trkpt>
      <trkpt lat="43.67414" lon="7.22683">
        <ele>2</ele>
        <time>2010-07-23T09:26:51Z</time>
      </trkpt>
      <trkpt lat="43.67404" lon="7.22681">
        <ele>1</ele>
        <time>2010-07-23T09:26:59Z</time>
      </trkpt>
      <trkpt lat="43.67406" lon="7.2269">
        <ele>4</ele>
        <time>2010-07-23T09:27:07Z</time>
      </trkpt>
      <trkpt lat="43.67413" lon="7.22689">
        <ele>4</ele>
        <time>2010-07-23T09:27:15Z</time>
      </trkpt>
      <trkpt lat="43.67422" lon="7.22691">
        <ele>2</ele>
        <time>2010-07-23T09:27:22Z</time>
      </trkpt>
      <trkpt lat="43.67453" lon="7.22707">
        <ele>2</ele>
        <time>2010-07-23T09:27:30Z</time>
      </trkpt>
      <trkpt lat="43.67478" lon="7.2272">
        <ele>2</ele>
        <time>2010-07-23T09:27:37Z</time>
      </trkpt>
      <trkpt lat="43.67491" lon="7.22729">
        <ele>2</ele>
        <time>2010-07-23T09:27:44Z</time>
      </trkpt>
      <trkpt lat="43.67503" lon="7.22738">
        <ele>2</ele>
        <time>2010-07-23T09:27:52Z</time>
      </trkpt>
      <trkpt lat="43.67505" lon="7.22741">
        <ele>2</ele>
        <time>2010-07-23T09:28:20Z</time>
      </trkpt>
      <trkpt lat="43.67504" lon="7.22742">
        <ele>4</ele>
        <time>2010-07-23T09:28:47Z</time>
      </trkpt>
      <trkpt lat="43.67495" lon="7.22756">
        <ele>4</ele>
        <time>2010-07-23T09:28:56Z</time>
      </trkpt>
      <trkpt lat="43.67494" lon="7.22756">
        <ele>4</ele>
        <time>2010-07-23T09:29:03Z</time>
      </trkpt>
      <trkpt lat="43.67481" lon="7.22772">
        <ele>4</ele>
        <time>2010-07-23T09:29:11Z</time>
      </trkpt>
      <trkpt lat="43.6748" lon="7.22798">
        <ele>4.5</ele>
        <time>2010-07-23T09:29:18Z</time>
      </trkpt>
      <trkpt lat="43.67506" lon="7.22817">
        <ele>4.4</ele>
        <time>2010-07-23T09:29:26Z</time>
      </trkpt>
      <trkpt lat="43.67538" lon="7.22835">
        <ele>4.6</ele>
        <time>2010-07-23T09:29:33Z</time>
      </trkpt>
      <trkpt lat="43.67572" lon="7.22858">
        <ele>4</ele>
        <time>2010-07-23T09:29:41Z</time>
      </trkpt>
      <trkpt lat="43.67605" lon="7.22877">
        <ele>4.3</ele>
        <time>2010-07-23T09:29:48Z</time>
      </trkpt>
      <trkpt lat="43.67638" lon="7.22905">
        <ele>4</ele>
        <time>2010-07-23T09:29:56Z</time>
      </trkpt>
      <trkpt lat="43.67672" lon="7.22925">
        <ele>4.8</ele>
        <time>2010-07-23T09:30:03Z</time>
      </trkpt>
      <trkpt lat="43.67707" lon="7.22922">
        <ele>5</ele>
        <time>2010-07-23T09:30:11Z</time>
      </trkpt>
      <trkpt lat="43.67746" lon="7.22917">
        <ele>4.2</ele>
        <time>2010-07-23T09:30:18Z</time>
      </trkpt>
      <trkpt lat="43.6779" lon="7.22948">
        <ele>4.1</ele>
        <time>2010-07-23T09:30:26Z</time>
      </trkpt>
      <trkpt lat="43.67828" lon="7.22975">
        <ele>4</ele>
        <time>2010-07-23T09:30:33Z</time>
      </trkpt>
      <trkpt lat="43.67871" lon="7.23005">
        <ele>4.1</ele>
        <time>2010-07-23T09:30:41Z</time>
      </trkpt>
      <trkpt lat="43.67907" lon="7.23031">
        <ele>5</ele>
        <time>2010-07-23T09:30:48Z</time>
      </trkpt>
      <trkpt lat="43.67941" lon="7.23058">
        <ele>4.9</ele>
        <time>2010-07-23T09:30:56Z</time>
      </trkpt>
      <trkpt lat="43.67969" lon="7.23089">
        <ele>4.4</ele>
        <time>2010-07-23T09:31:03Z</time>
      </trkpt>
      <trkpt lat="43.67993" lon="7.23105">
        <ele>4.6</ele>
        <time>2010-07-23T09:31:10Z</time>
      </trkpt>
      <trkpt lat="43.68013" lon="7.23117">
        <ele>4.5</ele>
        <time>2010-07-23T09:31:17Z</time>
      </trkpt>
      <trkpt lat="43.68026" lon="7.23128">
        <ele>4.3</ele>
        <time>2010-07-23T09:31:24Z</time>
      </trkpt>
      <trkpt lat="43.68024" lon="7.2313">
        <ele>4.1</ele>
        <time>2010-07-23T09:31:35Z</time>
      </trkpt>
      <trkpt lat="43.68019" lon="7.23136">
        <ele>3.5</ele>
        <time>2010-07-23T09:31:42Z</time>
      </trkpt>
      <trkpt lat="43.68018" lon="7.23137">
        <ele>3.4</ele>
        <time>2010-07-23T09:31:53Z</time>
      </trkpt>
      <trkpt lat="43.68018" lon="7.23138">
        <ele>3.4</ele>
        <time>2010-07-23T09:32:06Z</time>
      </trkpt>
    </trkseg>
  </trk>
</gpx>